UA442 / N466UA 7700 Squawk Report (23rd of September, 2020)

Aircraft A320 Reg No. N466UA Age 20 years old
Model A320 Jet engines 2 First flight 13-10-00
Registered 22-11-00 Rollout 10-00 Delivered 22-11-00
Construction No. 1343 Line No. N/A Series 232
ADSHEX A5B1A8 Airline name United Airlines Owner United Airlines Inc
Airfield based Chicago O`Hare~IL~N First tracked N/A

Flight history for N466UA

Route Flight No Date Playback
Los Cabos Intl (SJD) - George Bush Intercontinental (IAH) UA1776 2020-10-20 16:36:00
George Bush Intercontinental (IAH) - Los Cabos Intl (SJD) UA2449 2020-10-19 22:10:00
Los Cabos Intl (SJD) - George Bush Intercontinental (IAH) UA1776 2020-10-19 16:50:00
George Bush Intercontinental (IAH) - Los Cabos Intl (SJD) UA2449 2020-10-18 21:59:00
Los Cabos Intl (SJD) - George Bush Intercontinental (IAH) UA1776 2020-10-18 16:46:00
George Bush Intercontinental (IAH) - Los Cabos Intl (SJD) UA2449 2020-10-17 22:07:00
Philadelphia Intl (PHL) - George Bush Intercontinental (IAH) UA432 2020-10-17 18:11:00
George Bush Intercontinental (IAH) - Philadelphia Intl (PHL) UA416 2020-10-16 22:48:00
Los Cabos Intl (SJD) - George Bush Intercontinental (IAH) UA1776 2020-10-16 16:49:00
George Bush Intercontinental (IAH) - Los Cabos Intl (SJD) UA2449 2020-10-15 22:20:00
Los Cabos Intl (SJD) - George Bush Intercontinental (IAH) UA1776 2020-10-15 16:45:00
George Bush Intercontinental (IAH) - Los Cabos Intl (SJD) UA2449 2020-10-14 21:53:00
Los Cabos Intl (SJD) - George Bush Intercontinental (IAH) UA1776 2020-10-14 16:41:00
George Bush Intercontinental (IAH) - Los Cabos Intl (SJD) UA2449 2020-10-13 22:03:00
San Francisco Intl (SFO) - George Bush Intercontinental (IAH) UA1735 2020-10-11 02:58:00
Portland Intl (PDX) - San Francisco Intl (SFO) UA517 2020-10-10 22:24:00
San Francisco Intl (SFO) - Portland Intl (PDX) UA1483 2020-10-10 19:30:00
Seattle Tacoma Intl (SEA) - San Francisco Intl (SFO) UA2499 2020-10-10 16:07:00
San Francisco Intl (SFO) - Seattle Tacoma Intl (SEA) UA388 2020-10-10 14:10:00
Los Cabos Intl (SJD) - San Francisco Intl (SFO) UA1174 2020-10-09 23:07:00
Time Lat Lon Altitude Heading Speed Vertical Rate
2020-09-23 05:49:41 GMT 36.082500 -115.141991 0 49 20 224
2020-09-23 05:49:38 GMT 36.082668 -115.141724 0 49 20 224
2020-09-23 05:49:35 GMT 36.082489 -115.141991 0 41 18 224
2020-09-23 05:49:32 GMT 36.082340 -115.142273 0 11 18 224
2020-09-23 05:49:29 GMT 36.082119 -115.142342 0 11 19 224
2020-09-23 05:49:26 GMT 36.081871 -115.142433 0 0 19 224
2020-09-23 05:49:23 GMT 36.081589 -115.142418 0 356 20 224
2020-09-23 05:49:20 GMT 36.081310 -115.142349 0 3 20 224
2020-09-23 05:49:17 GMT 36.081039 -115.142380 0 4 19 224
2020-09-23 05:49:14 GMT 36.080551 -115.142410 0 356 16 224
2020-09-23 05:49:11 GMT 36.080551 -115.142410 0 359 21 224
2020-09-23 05:49:08 GMT 36.080250 -115.142418 0 0 24 224
2020-09-23 05:49:05 GMT 36.079929 -115.142410 0 3 21 224
2020-09-23 05:49:02 GMT 36.079609 -115.142403 0 0 20 224
2020-09-23 05:48:59 GMT 36.079319 -115.142403 0 0 21 224
2020-09-23 05:48:56 GMT 36.079048 -115.142433 0 355 21 224
2020-09-23 05:48:53 GMT 36.078770 -115.142387 0 14 21 224
2020-09-23 05:48:50 GMT 36.078499 -115.142448 0 58 16 224
2020-09-23 05:48:47 GMT 36.078320 -115.142662 0 74 15 224
2020-09-23 05:48:44 GMT 36.078232 -115.142906 0 96 14 224
2020-09-23 05:48:41 GMT 36.078259 -115.143120 0 92 15 224
2020-09-23 05:48:38 GMT 36.078281 -115.143356 0 92 19 224
2020-09-23 05:48:35 GMT 36.078251 -115.143677 0 98 19 224
2020-09-23 05:48:32 GMT 36.078289 -115.144020 0 93 17 224
2020-09-23 05:48:29 GMT 36.078320 -115.144279 0 93 20 224
2020-09-23 05:48:26 GMT 36.078331 -115.144623 0 94 23 224
2020-09-23 05:48:23 GMT 36.078350 -115.145042 0 93 27 224
2020-09-23 05:48:20 GMT 36.078400 -115.145523 0 90 26 224
2020-09-23 05:48:17 GMT 36.078411 -115.145973 0 95 26 224
2020-09-23 05:48:14 GMT 36.078449 -115.146408 0 93 23 224
2020-09-23 05:48:11 GMT 36.078468 -115.146812 0 95 25 224
2020-09-23 05:48:08 GMT 36.078510 -115.147240 0 97 28 224
2020-09-23 05:48:05 GMT 36.078541 -115.147720 0 95 28 224
2020-09-23 05:48:02 GMT 36.078590 -115.148216 0 94 27 224
2020-09-23 05:47:59 GMT 36.078602 -115.148682 0 96 26 224
2020-09-23 05:47:56 GMT 36.078651 -115.149117 0 94 24 224
2020-09-23 05:47:53 GMT 36.078671 -115.149551 0 92 24 224
2020-09-23 05:47:50 GMT 36.078690 -115.149918 0 93 21 224
2020-09-23 05:47:47 GMT 36.078720 -115.150299 0 92 21 224
2020-09-23 05:47:44 GMT 36.078739 -115.150650 0 93 19 224
2020-09-23 05:47:41 GMT 36.078739 -115.150993 0 98 19 224
2020-09-23 05:47:38 GMT 36.078770 -115.151291 0 82 17 224
2020-09-23 05:47:35 GMT 36.078770 -115.151604 0 68 15 224
2020-09-23 05:47:32 GMT 36.078579 -115.152000 0 27 12 224
2020-09-23 05:47:29 GMT 36.078579 -115.152000 0 21 13 224
2020-09-23 05:47:26 GMT 36.078400 -115.152100 0 22 12 224
2020-09-23 05:47:23 GMT 36.078251 -115.152168 0 28 17 224
2020-09-23 05:47:20 GMT 36.078060 -115.152313 0 28 17 224
2020-09-23 05:47:17 GMT 36.077850 -115.152412 0 23 16 224
2020-09-23 05:47:14 GMT 36.077648 -115.152519 0 351 14 224
2020-09-23 05:47:11 GMT 36.077450 -115.152542 0 342 14 224
2020-09-23 05:47:08 GMT 36.077278 -115.152473 0 333 16 224
2020-09-23 05:47:05 GMT 36.077080 -115.152359 0 336 19 224
2020-09-23 05:47:02 GMT 36.076839 -115.152229 0 335 21 224
2020-09-23 05:46:59 GMT 36.076569 -115.152061 0 335 21 224
2020-09-23 05:46:56 GMT 36.076309 -115.151917 0 334 23 224
2020-09-23 05:46:53 GMT 36.076012 -115.151749 0 333 21 224
2020-09-23 05:46:50 GMT 36.075748 -115.151604 0 333 21 224
2020-09-23 05:46:47 GMT 36.075481 -115.151428 0 329 21 224
2020-09-23 05:46:44 GMT 36.075241 -115.151230 0 314 21 224
2020-09-23 05:46:41 GMT 36.075008 -115.151001 0 306 22 224
2020-09-23 05:46:38 GMT 36.074821 -115.150726 0 306 22 224
2020-09-23 05:46:35 GMT 36.074661 -115.150398 0 300 26 224
2020-09-23 05:46:32 GMT 36.074478 -115.150009 0 299 28 224
2020-09-23 05:46:29 GMT 36.074291 -115.149612 0 299 27 224
2020-09-23 05:46:26 GMT 36.074131 -115.149223 0 294 25 224
2020-09-23 05:46:23 GMT 36.073959 -115.148849 0 287 26 224
2020-09-23 05:46:20 GMT 36.073849 -115.148361 0 293 24 224
2020-09-23 05:46:17 GMT 36.073750 -115.147972 0 284 20 224
2020-09-23 05:46:14 GMT 36.073681 -115.147560 0 270 36 224
2020-09-23 05:46:11 GMT 36.073662 -115.147018 0 270 51 224
2020-09-23 05:46:08 GMT 36.073650 -115.144943 0 270 71 224
2020-09-23 05:46:05 GMT 36.073650 -115.144943 0 270 78 224
2020-09-23 05:46:02 GMT 36.073639 -115.143562 0 270 83 224
2020-09-23 05:45:59 GMT 36.073631 -115.140350 2,000 270 105 224
2020-09-23 05:45:56 GMT 36.073631 -115.140350 2,000 270 112 -32
2020-09-23 05:45:53 GMT 36.073639 -115.138512 2,000 270 122 -672
2020-09-23 05:45:50 GMT 36.073608 -115.136459 2,000 269 130 -672
2020-09-23 05:45:47 GMT 36.073639 -115.134193 1,975 269 137 -672
2020-09-23 05:45:44 GMT 36.073601 -115.131866 2,000 270 137 -672
2020-09-23 05:45:41 GMT 36.073650 -115.129494 2,000 270 140 -672
2020-09-23 05:45:38 GMT 36.073620 -115.127121 2,100 268 140 -672
2020-09-23 05:45:35 GMT 36.073662 -115.124687 2,125 270 137 -672
2020-09-23 05:45:32 GMT 36.073669 -115.122360 2,125 270 139 -672
2020-09-23 05:45:29 GMT 36.073639 -115.119949 2,225 270 139 -672
2020-09-23 05:45:26 GMT 36.073669 -115.117538 2,225 268 138 -672
2020-09-23 05:45:23 GMT 36.073639 -115.115089 2,300 269 132 -672
2020-09-23 05:45:20 GMT 36.073662 -115.112892 2,325 269 137 -672
2020-09-23 05:45:17 GMT 36.073639 -115.110420 2,325 271 133 -672
2020-09-23 05:45:14 GMT 36.073620 -115.108109 2,325 269 138 -672
2020-09-23 05:45:11 GMT 36.073662 -115.103416 2,400 269 129 -672
2020-09-23 05:45:08 GMT 36.073662 -115.103416 2,500 271 136 -672
2020-09-23 05:45:05 GMT 36.073582 -115.101128 2,500 267 138 -672
2020-09-23 05:45:02 GMT 36.073669 -115.098793 2,475 270 137 -672
2020-09-23 05:44:59 GMT 36.073681 -115.096451 2,575 272 136 -672
2020-09-23 05:44:56 GMT 36.073620 -115.094032 2,575 268 139 -672
2020-09-23 05:44:53 GMT 36.073589 -115.091782 2,600 269 135 -544
2020-09-23 05:44:50 GMT 36.073608 -115.089417 2,650 269 140 -544
2020-09-23 05:44:47 GMT 36.073639 -115.087112 2,700 271 135 -544
2020-09-23 05:44:44 GMT 36.073551 -115.084846 2,675 268 138 -544
2020-09-23 05:44:41 GMT 36.073669 -115.082443 2,800 268 138 -544
2020-09-23 05:44:37 GMT 36.073700 -115.079330 2,800 270 132 -544
2020-09-23 05:44:34 GMT 36.073669 -115.077080 2,825 268 133 -544
2020-09-23 05:44:31 GMT 36.073711 -115.074806 2,900 272 138 -544
2020-09-23 05:44:28 GMT 36.073570 -115.072357 2,900 268 136 -544
2020-09-23 05:44:25 GMT 36.073589 -115.070160 2,900 268 138 -544
2020-09-23 05:44:22 GMT 36.073639 -115.067818 2,900 270 133 -544
2020-09-23 05:44:19 GMT 36.073669 -115.065468 3,000 270 134 -544
2020-09-23 05:44:16 GMT 36.073662 -115.063232 3,000 269 135 -544
2020-09-23 05:44:13 GMT 36.073689 -115.060921 3,100 270 137 -544
2020-09-23 05:44:10 GMT 36.073650 -115.058548 3,100 269 134 -544
2020-09-23 05:44:07 GMT 36.073650 -115.056297 3,200 269 140 -544
2020-09-23 05:44:04 GMT 36.073650 -115.053940 3,200 269 138 -544
2020-09-23 05:44:01 GMT 36.073662 -115.051529 3,200 270 136 -544
2020-09-23 05:43:58 GMT 36.073650 -115.049248 3,300 270 136 -544
2020-09-23 05:43:55 GMT 36.073608 -115.046867 3,300 269 133 -352
2020-09-23 05:43:52 GMT 36.073650 -115.044571 3,300 269 134 -352
2020-09-23 05:43:49 GMT 36.073639 -115.042236 3,400 269 136 -352
2020-09-23 05:43:46 GMT 36.073650 -115.039879 3,400 269 136 -352
2020-09-23 05:43:43 GMT 36.073689 -115.037582 3,500 269 135 -352
2020-09-23 05:43:40 GMT 36.073689 -115.035316 3,500 269 137 -352
2020-09-23 05:43:37 GMT 36.073700 -115.032928 3,500 269 133 -352
2020-09-23 05:43:34 GMT 36.073700 -115.030670 3,500 269 136 -352
2020-09-23 05:43:31 GMT 36.073700 -115.028358 3,600 270 137 -352
2020-09-23 05:43:28 GMT 36.073681 -115.026009 3,600 270 135 -352
2020-09-23 05:43:25 GMT 36.073650 -115.023697 3,600 270 140 -352
2020-09-23 05:43:22 GMT 36.073650 -115.021271 3,600 270 132 -352
2020-09-23 05:43:19 GMT 36.073650 -115.018883 3,800 269 134 -352
2020-09-23 05:43:16 GMT 36.073639 -115.016762 3,800 268 170 -352
2020-09-23 05:43:13 GMT 36.073689 -115.014198 3,800 269 168 -352
2020-09-23 05:43:09 GMT 36.073700 -115.011002 3,800 270 143 -896
2020-09-23 05:43:01 GMT 36.073704 -115.004532 3,900 271 150 -704
2020-09-23 05:42:58 GMT 36.073704 -115.002251 3,925 271 153 -704
2020-09-23 05:42:52 GMT 36.073608 -114.994865 4,050 271 158 0
2020-09-23 05:42:48 GMT 36.073608 -114.993134 4,050 271 160 -576
2020-09-23 05:42:40 GMT 36.073608 -114.985825 4,150 270 171 -640
2020-09-23 05:42:37 GMT 36.073608 -114.983322 4,150 270 169 -640
2020-09-23 05:42:31 GMT 36.073654 -114.975983 4,275 270 174 -1024
2020-09-23 05:42:27 GMT 36.073654 -114.973122 4,325 270 176 -960
2020-09-23 05:42:20 GMT 36.073654 -114.964890 4,450 270 180 -1024
2020-09-23 05:42:17 GMT 36.073654 -114.962341 4,500 270 182 -960
2020-09-23 05:42:10 GMT 36.073654 -114.954628 4,600 271 187 -1088
2020-09-23 05:42:06 GMT 36.073608 -114.950981 4,650 271 189 -1088
2020-09-23 05:41:59 GMT 36.073608 -114.943466 4,775 270 191 -1024
2020-09-23 05:41:55 GMT 36.073608 -114.939667 4,850 270 192 -1024
2020-09-23 05:41:48 GMT 36.073608 -114.931190 5,000 271 193 -1152
2020-09-23 05:41:45 GMT 36.073608 -114.928436 5,025 271 193 -1024
2020-09-23 05:41:37 GMT 36.073563 -114.919388 5,175 270 194 -1088
2020-09-23 05:41:34 GMT 36.073563 -114.916306 5,225 270 194 -1024
2020-09-23 05:41:25 GMT 36.073563 -114.904800 5,400 270 198 -1024
2020-09-23 05:41:14 GMT 36.073563 -114.893127 5,600 270 199 -1536
2020-09-23 05:41:04 GMT 36.073700 -114.881004 5,850 270 199 -1088
2020-09-23 05:40:56 GMT 36.073795 -114.871941 5,975 270 206 -1152
2020-09-23 05:40:53 GMT 36.073837 -114.869156 6,025 270 206 -1152
2020-09-23 05:40:43 GMT 36.073975 -114.856171 6,175 269 212 -832
2020-09-23 05:40:36 GMT 36.074432 -114.847641 6,250 257 217 -640
2020-09-23 05:40:31 GMT 36.074959 -114.843246 6,275 258 216 -576
2020-09-23 05:40:22 GMT 36.078369 -114.831276 6,400 241 220 -512
2020-09-23 05:40:11 GMT 36.084732 -114.820976 6,425 227 227 -256
2020-09-23 05:40:01 GMT 36.092468 -114.810966 6,450 227 232 -192
2020-09-23 05:39:53 GMT 36.097870 -114.804092 6,450 227 232 -64
2020-09-23 05:39:50 GMT 36.100235 -114.800995 6,450 227 232 0
2020-09-23 05:39:40 GMT 36.108292 -114.790588 6,450 228 240 -128
2020-09-23 05:39:29 GMT 36.116135 -114.780174 6,450 227 249 64
2020-09-23 05:39:17 GMT 36.126492 -114.766571 6,475 227 258 -192
2020-09-23 05:39:08 GMT 36.133163 -114.757751 6,550 227 263 -768
2020-09-23 05:38:58 GMT 36.142136 -114.745956 6,725 227 266 -1024
2020-09-23 05:38:47 GMT 36.150970 -114.734283 6,925 227 269 -1408
2020-09-23 05:38:37 GMT 36.160080 -114.722275 7,200 227 270 -1472
2020-09-23 05:38:30 GMT 36.166443 -114.713921 7,375 227 270 -1536
2020-09-23 05:38:26 GMT 36.169086 -114.710411 7,450 227 271 -1472
2020-09-23 05:38:19 GMT 36.174953 -114.702759 7,625 227 271 -1472
2020-09-23 05:38:16 GMT 36.177979 -114.698784 7,700 227 271 -1472
2020-09-23 05:38:10 GMT 36.183517 -114.691536 7,850 227 271 -1472
2020-09-23 05:38:04 GMT 36.187290 -114.686569 7,975 227 272 -1472
2020-09-23 05:37:58 GMT 36.192829 -114.679268 8,125 227 273 -1472
2020-09-23 05:37:55 GMT 36.196228 -114.674828 8,200 227 273 -1408
2020-09-23 05:37:49 GMT 36.201416 -114.668030 8,350 227 273 -1408
2020-09-23 05:37:44 GMT 36.205353 -114.662849 8,450 227 275 -960
2020-09-23 05:37:37 GMT 36.210892 -114.655556 8,525 228 280 -640
2020-09-23 05:37:34 GMT 36.214939 -114.650162 8,575 228 283 -576
2020-09-23 05:37:28 GMT 36.220276 -114.643135 8,650 227 286 -832
2020-09-23 05:37:23 GMT 36.224075 -114.638100 8,700 227 289 -1152
2020-09-23 05:37:16 GMT 36.230068 -114.630295 8,850 227 291 -1216
2020-09-23 05:37:13 GMT 36.233887 -114.625328 8,925 227 292 -1216
2020-09-23 05:37:07 GMT 36.239365 -114.618134 9,050 227 293 -1280
2020-09-23 05:37:02 GMT 36.243431 -114.612709 9,150 227 294 -1280
2020-09-23 05:36:56 GMT 36.249249 -114.605049 9,275 228 296 -1344
2020-09-23 05:36:52 GMT 36.253254 -114.599731 9,375 227 297 -1472
2020-09-23 05:36:46 GMT 36.258884 -114.592255 9,525 227 297 -1600
2020-09-23 05:36:41 GMT 36.263214 -114.586540 9,650 227 298 -1408
2020-09-23 05:36:35 GMT 36.268890 -114.579048 9,775 227 299 -1152
2020-09-23 05:36:31 GMT 36.273193 -114.573441 9,850 227 302 -1152
2020-09-23 05:36:24 GMT 36.278961 -114.565887 9,975 227 303 -960
2020-09-23 05:36:20 GMT 36.283081 -114.560455 10,025 227 306 -768
2020-09-23 05:36:15 GMT 36.288940 -114.552727 10,100 227 309 -640
2020-09-23 05:36:09 GMT 36.293381 -114.546906 10,150 227 313 -704
2020-09-23 05:36:03 GMT 36.299526 -114.538727 10,225 228 318 -768
2020-09-23 05:35:59 GMT 36.303669 -114.533234 10,275 228 323 -832
2020-09-23 05:35:54 GMT 36.310043 -114.524750 10,375 228 331 -832
2020-09-23 05:35:49 GMT 36.314667 -114.518562 10,425 228 338 -896
2020-09-23 05:35:43 GMT 36.320709 -114.510612 10,500 227 344 -960
2020-09-23 05:35:38 GMT 36.325836 -114.503746 10,575 227 351 -832
2020-09-23 05:35:33 GMT 36.332672 -114.494720 10,650 227 357 -768
2020-09-23 05:35:28 GMT 36.337791 -114.487938 10,700 227 361 -768
2020-09-23 05:35:21 GMT 36.345703 -114.477486 10,800 227 367 -832
2020-09-23 05:35:18 GMT 36.350128 -114.471634 10,875 227 371 -896
2020-09-23 05:35:10 GMT 36.359482 -114.459290 11,025 227 376 -1472
2020-09-23 05:35:06 GMT 36.362732 -114.455048 11,100 227 377 -2048
2020-09-23 05:35:01 GMT 36.369415 -114.446182 11,300 227 380 -2176
2020-09-23 05:34:57 GMT 36.374989 -114.438850 11,475 228 381 -2432
2020-09-23 05:34:49 GMT 36.383514 -114.427467 11,775 228 382 -2432
2020-09-23 05:34:45 GMT 36.387882 -114.421730 11,925 228 382 -2560
2020-09-23 05:34:40 GMT 36.394409 -114.413055 12,150 228 384 -2496
2020-09-23 05:34:36 GMT 36.400360 -114.405136 12,325 227 385 -2240
2020-09-23 05:34:29 GMT 36.407684 -114.395432 12,550 227 387 -2240
2020-09-23 05:34:25 GMT 36.413067 -114.388306 12,725 227 388 -2304
2020-09-23 05:34:20 GMT 36.420422 -114.378487 12,975 228 389 -2688
2020-09-23 05:34:15 GMT 36.426132 -114.370705 13,200 230 389 -2944
2020-09-23 05:34:08 GMT 36.432907 -114.360580 13,475 233 390 -2432
2020-09-23 05:34:04 GMT 36.437668 -114.352684 13,625 235 391 -2176
2020-09-23 05:33:57 GMT 36.445496 -114.338097 13,925 238 391 -2304
2020-09-23 05:33:54 GMT 36.448471 -114.332253 14,050 238 391 -2368
2020-09-23 05:33:42 GMT 36.458405 -114.312920 14,475 238 393 -2432
2020-09-23 05:33:37 GMT 36.464859 -114.300323 14,725 238 393 -2432
2020-09-23 05:33:33 GMT 36.468658 -114.292892 14,900 238 394 -2432
2020-09-23 05:33:25 GMT 36.475449 -114.279724 15,175 238 395 -2496
2020-09-23 05:33:22 GMT 36.478848 -114.273003 15,325 238 396 -2496
2020-09-23 05:33:12 GMT 36.488995 -114.253136 15,750 238 398 -2432
2020-09-23 05:33:01 GMT 36.499695 -114.232178 16,175 238 402 -2368
2020-09-23 05:32:51 GMT 36.509850 -114.212234 16,600 238 405 -2496
2020-09-23 05:32:40 GMT 36.520477 -114.191322 17,025 238 408 -2560
2020-09-23 05:32:34 GMT 36.527298 -114.177757 17,325 238 410 -2560
2020-09-23 05:32:30 GMT 36.531235 -114.169975 17,475 239 411 -2560
2020-09-23 05:32:23 GMT 36.537827 -114.156952 17,700 239 412 -2496
2020-09-23 05:32:19 GMT 36.541737 -114.149117 17,925 239 413 -2496
2020-09-23 05:32:13 GMT 36.548355 -114.135986 18,200 239 415 -2560
2020-09-23 05:32:09 GMT 36.552109 -114.128494 18,350 238 416 -2560
2020-09-23 05:32:02 GMT 36.559196 -114.114525 18,650 238 417 -2624
2020-09-23 05:31:58 GMT 36.563416 -114.106461 18,825 238 419 -2624
2020-09-23 05:31:52 GMT 36.570553 -114.092957 19,100 237 421 -2560
2020-09-23 05:31:48 GMT 36.574677 -114.085350 19,275 237 421 -2624
2020-09-23 05:31:40 GMT 36.582092 -114.071617 19,575 237 423 -2688
2020-09-23 05:31:36 GMT 36.586121 -114.064117 19,750 237 424 -2752
2020-09-23 05:31:31 GMT 36.593224 -114.050941 20,050 237 426 -2688
2020-09-23 05:31:27 GMT 36.597656 -114.042831 20,225 237 426 -2624
2020-09-23 05:31:20 GMT 36.604771 -114.029556 20,500 237 428 -2560
2020-09-23 05:31:16 GMT 36.608734 -114.022179 20,650 237 428 -2560
2020-09-23 05:31:10 GMT 36.616058 -114.008675 20,925 237 430 -2432
2020-09-23 05:31:06 GMT 36.620361 -114.000664 21,075 237 431 -2368
2020-09-23 05:30:59 GMT 36.627457 -113.987450 21,325 237 432 -2368
2020-09-23 05:30:55 GMT 36.632095 -113.978767 21,500 237 432 -2368
2020-09-23 05:30:49 GMT 36.639633 -113.964668 21,775 237 434 -2368
2020-09-23 05:30:45 GMT 36.643642 -113.957146 21,925 237 435 -2368
2020-09-23 05:30:38 GMT 36.651230 -113.943008 22,175 237 437 -2368
2020-09-23 05:30:34 GMT 36.655373 -113.935234 22,325 237 438 -2432
2020-09-23 05:30:28 GMT 36.662613 -113.921814 22,600 237 439 -2496
2020-09-23 05:30:24 GMT 36.667786 -113.912148 22,775 237 441 -2496
2020-09-23 05:30:17 GMT 36.674927 -113.898811 23,050 237 442 -2432
2020-09-23 05:30:13 GMT 36.679047 -113.891197 23,175 237 443 -2432
2020-09-23 05:30:06 GMT 36.687027 -113.876328 23,475 237 444 -2432
2020-09-23 05:30:03 GMT 36.691452 -113.868027 23,625 237 445 -2432
2020-09-23 05:29:56 GMT 36.698456 -113.855042 27,450 237 463 -2624
2020-09-23 05:29:52 GMT 36.703171 -113.846283 24,050 237 447 -2432
2020-09-23 05:29:46 GMT 36.711365 -113.831062 24,325 237 449 -2496
2020-09-23 05:29:41 GMT 36.715752 -113.822861 24,500 237 449 -2496
2020-09-23 05:29:35 GMT 36.723152 -113.809067 24,775 237 451 -2496
2020-09-23 05:29:31 GMT 36.727798 -113.800392 24,925 237 452 -2560
2020-09-23 05:29:25 GMT 36.735809 -113.785461 25,225 237 454 -2560
2020-09-23 05:29:20 GMT 36.739883 -113.777847 25,375 237 454 -2496
2020-09-23 05:29:14 GMT 36.747684 -113.763252 25,650 237 455 -2432
2020-09-23 05:29:10 GMT 36.751694 -113.755814 25,775 237 456 -2496
2020-09-23 05:29:04 GMT 36.759789 -113.740692 26,075 237 457 -2560
2020-09-23 05:29:00 GMT 36.764008 -113.732819 26,225 237 458 -2560
2020-09-23 05:28:53 GMT 36.772476 -113.716965 26,550 237 460 -2560
2020-09-23 05:28:50 GMT 36.776875 -113.708847 26,700 237 460 -2560
2020-09-23 05:28:43 GMT 36.784424 -113.694710 26,975 237 460 -2560
2020-09-23 05:28:39 GMT 36.788910 -113.686295 27,125 237 461 -2624
2020-09-23 05:28:32 GMT 36.797310 -113.670570 27,425 237 462 -2624
2020-09-23 05:28:29 GMT 36.801361 -113.663063 27,575 237 463 -2624
2020-09-23 05:28:22 GMT 36.809280 -113.648186 27,875 237 463 -2624
2020-09-23 05:28:17 GMT 36.813995 -113.639259 28,050 237 464 -2560
2020-09-23 05:28:11 GMT 36.822121 -113.624115 28,325 237 465 -2304
2020-09-23 05:28:08 GMT 36.826405 -113.616104 28,450 237 465 -2176
2020-09-23 05:28:01 GMT 36.834503 -113.600914 28,675 237 465 -1920
2020-09-23 05:27:57 GMT 36.838806 -113.592857 28,800 237 466 -2048
2020-09-23 05:27:50 GMT 36.846561 -113.578293 29,025 237 467 -2304
2020-09-23 05:27:47 GMT 36.851215 -113.569496 29,175 237 467 -2432
2020-09-23 05:27:40 GMT 36.859550 -113.553795 29,475 237 466 -2240
2020-09-23 05:27:35 GMT 36.863846 -113.545746 29,575 237 465 -1344
2020-09-23 05:27:29 GMT 36.872257 -113.529846 29,700 237 464 -960
2020-09-23 05:27:26 GMT 36.876297 -113.522255 29,750 237 464 -960
2020-09-23 05:27:18 GMT 36.884270 -113.507278 29,850 237 464 -960
2020-09-23 05:27:15 GMT 36.888519 -113.499229 29,900 237 465 -1024
2020-09-23 05:27:08 GMT 36.896805 -113.483566 30,025 237 465 -1024
2020-09-23 05:27:05 GMT 36.901073 -113.475517 30,075 237 467 -1088
2020-09-23 05:26:57 GMT 36.909256 -113.459961 30,200 237 467 -1088
2020-09-23 05:26:54 GMT 36.913551 -113.451874 30,275 237 467 -1024
2020-09-23 05:26:48 GMT 36.921753 -113.436348 30,425 237 465 -960
2020-09-23 05:26:44 GMT 36.925873 -113.428520 30,475 237 463 -960
2020-09-23 05:26:36 GMT 36.933800 -113.413658 30,600 237 460 -1152
2020-09-23 05:26:33 GMT 36.938362 -113.404999 30,650 237 460 -1152
2020-09-23 05:26:27 GMT 36.946278 -113.390129 30,775 237 461 -1408
2020-09-23 05:26:23 GMT 36.950775 -113.381714 30,875 237 462 -1728
2020-09-23 05:26:15 GMT 36.958649 -113.366753 31,125 237 462 -2496
2020-09-23 05:26:12 GMT 36.963135 -113.358276 31,275 237 462 -2304
2020-09-23 05:26:06 GMT 36.970810 -113.343857 31,500 237 461 -1856
2020-09-23 05:26:02 GMT 36.975281 -113.335381 31,600 237 461 -1536
2020-09-23 05:25:55 GMT 36.983276 -113.320290 31,750 237 460 -960
2020-09-23 05:25:51 GMT 36.987942 -113.311440 31,800 237 460 -960
2020-09-23 05:25:45 GMT 36.995670 -113.296745 31,925 237 461 -896
2020-09-23 05:25:41 GMT 36.999893 -113.288734 31,975 237 461 -576
2020-09-23 05:25:33 GMT 37.008545 -113.272255 32,000 237 460 -64
2020-09-23 05:25:30 GMT 37.012520 -113.264748 32,000 237 460 0
2020-09-23 05:25:24 GMT 37.020126 -113.250282 32,000 237 460 -64
2020-09-23 05:25:20 GMT 37.024204 -113.242531 32,000 237 460 0
2020-09-23 05:25:13 GMT 37.031933 -113.227844 32,000 237 460 0
2020-09-23 05:25:08 GMT 37.037659 -113.216972 32,000 237 460 -64
2020-09-23 05:25:03 GMT 37.044571 -113.203888 32,000 237 460 64
2020-09-23 05:24:58 GMT 37.050041 -113.193451 32,000 237 460 64
2020-09-23 05:24:51 GMT 37.057663 -113.178993 32,000 237 460 -64
2020-09-23 05:24:48 GMT 37.061371 -113.171860 32,000 237 460 -64
2020-09-23 05:24:41 GMT 37.069454 -113.156494 32,000 237 460 0
2020-09-23 05:24:35 GMT 37.076248 -113.143593 32,000 237 460 64
2020-09-23 05:24:29 GMT 37.083511 -113.129807 32,000 237 460 0
2020-09-23 05:24:20 GMT 37.093826 -113.110207 32,000 237 461 -64
2020-09-23 05:24:16 GMT 37.098862 -113.100624 32,000 237 460 0
2020-09-23 05:24:09 GMT 37.106232 -113.086571 32,000 237 460 64
2020-09-23 05:23:59 GMT 37.118240 -113.063583 32,000 237 461 -64
2020-09-23 05:23:49 GMT 37.130402 -113.040314 32,000 237 462 -64
2020-09-23 05:23:38 GMT 37.142899 -113.016418 32,000 237 462 0
2020-09-23 05:23:31 GMT 37.150497 -113.001862 32,000 237 462 -64
2020-09-23 05:23:28 GMT 37.155167 -112.992928 32,000 237 462 -64
2020-09-23 05:22:14 GMT 37.241184 -112.827858 32,025 237 464 -64
2020-09-23 05:22:05 GMT 37.252533 -112.805984 32,025 238 463 0
2020-09-23 05:21:50 GMT 37.269348 -112.773582 32,025 237 464 -64
2020-09-23 05:21:39 GMT 37.283501 -112.746300 32,025 237 464 64
2020-09-23 05:21:31 GMT 37.292625 -112.728683 32,025 238 464 64
2020-09-23 05:21:19 GMT 37.305725 -112.703423 32,025 238 464 0
2020-09-23 05:21:11 GMT 37.315430 -112.684662 32,025 238 464 64
2020-09-23 05:21:08 GMT 37.318451 -112.678764 32,025 238 464 64
2020-09-23 05:20:58 GMT 37.330193 -112.656197 32,000 238 464 0
2020-09-23 05:20:46 GMT 37.345459 -112.626633 32,025 238 463 0
2020-09-23 05:20:37 GMT 37.355564 -112.607056 32,025 238 462 0
2020-09-23 05:20:25 GMT 37.367981 -112.582924 32,000 238 462 64
2020-09-23 05:20:16 GMT 37.380051 -112.559471 32,000 238 462 64
2020-09-23 05:20:03 GMT 37.393982 -112.532494 32,000 238 462 64
2020-09-23 05:19:55 GMT 37.404510 -112.512039 31,975 238 460 64
2020-09-23 05:19:43 GMT 37.417248 -112.487343 31,975 238 460 64
2020-09-23 05:19:20 GMT 37.443192 -112.436890 31,975 238 457 0
2020-09-23 05:19:13 GMT 37.452347 -112.419006 31,975 238 457 0
2020-09-23 05:19:00 GMT 37.466450 -112.391571 31,975 238 456 64
2020-09-23 05:18:52 GMT 37.476837 -112.371323 31,975 238 455 0
2020-09-23 05:18:39 GMT 37.490341 -112.345078 31,975 238 454 64
2020-09-23 05:18:30 GMT 37.501740 -112.322929 31,950 238 454 -64
2020-09-23 05:18:19 GMT 37.513000 -112.300957 31,975 238 453 -128
2020-09-23 05:17:52 GMT 37.544704 -112.238838 32,000 238 450 0
2020-09-23 05:17:49 GMT 37.548111 -112.232239 32,000 238 450 -64
2020-09-23 05:17:38 GMT 37.560020 -112.208923 32,025 238 450 -128
2020-09-23 05:17:27 GMT 37.572418 -112.184669 32,025 238 449 0
2020-09-23 05:17:17 GMT 37.583672 -112.162651 32,025 238 449 64
2020-09-23 05:17:07 GMT 37.594982 -112.140434 32,025 238 450 -64
2020-09-23 05:16:56 GMT 37.607117 -112.116646 32,025 238 450 0
2020-09-23 05:16:46 GMT 37.618675 -112.093925 32,025 238 449 0
2020-09-23 05:16:35 GMT 37.630547 -112.070518 32,025 238 450 64
2020-09-23 05:14:43 GMT 37.756706 -111.821175 32,000 238 446 0
2020-09-23 05:14:24 GMT 37.777374 -111.780098 32,000 238 445 -64
We lost coverage of the aircraft here for a total of 6 minutes
2020-09-23 05:08:28 GMT 38.160233 -111.010826 34,025 239 431 -192
2020-09-23 05:04:28 GMT 38.414429 -110.489799 34,025 239 431 0
2020-09-23 04:59:54 GMT 38.606701 -109.847717 34,000 255 432 0
2020-09-23 04:59:46 GMT 38.611824 -109.824402 34,000 255 432 64
2020-09-23 04:59:35 GMT 38.617310 -109.799271 34,000 255 432 64
2020-09-23 04:59:25 GMT 38.623123 -109.772469 34,000 255 432 0
2020-09-23 04:59:13 GMT 38.628536 -109.747681 34,000 255 432 64
2020-09-23 04:59:04 GMT 38.634247 -109.721352 33,975 255 432 0
2020-09-23 04:58:52 GMT 38.639847 -109.695557 34,000 255 432 -64
2020-09-23 04:58:43 GMT 38.645279 -109.670486 34,000 255 431 -64
2020-09-23 04:58:31 GMT 38.651093 -109.643738 34,000 255 431 0
2020-09-23 04:58:22 GMT 38.656677 -109.617943 34,025 255 431 -64
2020-09-23 04:58:10 GMT 38.662170 -109.592621 34,025 255 431 64
2020-09-23 04:58:01 GMT 38.667618 -109.567368 34,000 255 432 64
2020-09-23 04:57:49 GMT 38.673523 -109.540024 34,000 255 432 64
2020-09-23 04:57:40 GMT 38.678810 -109.515381 34,000 255 433 64
2020-09-23 04:57:29 GMT 38.684326 -109.489746 33,975 255 433 0
2020-09-23 04:57:19 GMT 38.690002 -109.463356 33,975 255 433 0
2020-09-23 04:57:07 GMT 38.695724 -109.436722 34,000 255 433 -64
2020-09-23 04:56:57 GMT 38.700897 -109.412544 34,000 255 433 -64
2020-09-23 04:56:46 GMT 38.706665 -109.385674 34,000 255 432 64
2020-09-23 04:56:37 GMT 38.712330 -109.359253 34,000 255 433 0
2020-09-23 04:56:25 GMT 38.717743 -109.333847 34,000 255 433 0
2020-09-23 04:56:16 GMT 38.723129 -109.308655 34,000 255 434 0
2020-09-23 04:56:04 GMT 38.728996 -109.281189 34,000 255 434 64
2020-09-23 04:55:55 GMT 38.734440 -109.255676 34,000 255 434 0
2020-09-23 04:55:43 GMT 38.739933 -109.229736 34,000 255 433 64
2020-09-23 04:55:33 GMT 38.745426 -109.203796 34,000 255 433 64
2020-09-23 04:55:22 GMT 38.750965 -109.177795 34,000 255 434 0
2020-09-23 04:55:12 GMT 38.756458 -109.151794 34,000 255 434 -64
2020-09-23 04:55:02 GMT 38.761955 -109.125793 34,000 255 433 -64
2020-09-23 04:54:51 GMT 38.767502 -109.099548 34,000 255 433 0
2020-09-23 04:54:41 GMT 38.772903 -109.074059 34,000 255 433 0
2020-09-23 04:54:30 GMT 38.778339 -109.048340 34,000 255 433 0
2020-09-23 04:54:20 GMT 38.783981 -109.021576 34,000 255 434 64
2020-09-23 04:54:09 GMT 38.789337 -108.996017 34,000 255 434 0
2020-09-23 04:53:59 GMT 38.794960 -108.969177 34,000 255 434 0
2020-09-23 04:53:47 GMT 38.801285 -108.939117 34,000 255 435 0
2020-09-23 04:53:36 GMT 38.806412 -108.914734 34,000 255 435 -64
2020-09-23 04:53:25 GMT 38.812637 -108.884903 34,000 256 434 0
2020-09-23 04:53:15 GMT 38.817856 -108.859764 34,000 256 434 0
2020-09-23 04:53:05 GMT 38.822662 -108.836952 34,000 256 434 0
2020-09-23 04:52:55 GMT 38.828384 -108.809631 34,000 256 434 64
2020-09-23 04:52:44 GMT 38.833878 -108.783020 34,000 256 434 0
2020-09-23 04:52:32 GMT 38.839512 -108.755920 34,000 256 435 0
2020-09-23 04:52:22 GMT 38.845459 -108.727272 34,000 256 435 0
2020-09-23 04:52:11 GMT 38.850681 -108.701904 34,000 256 434 0
2020-09-23 04:52:01 GMT 38.856033 -108.676338 33,975 256 434 0
2020-09-23 04:51:49 GMT 38.862534 -108.644997 33,975 256 434 64
2020-09-23 04:51:38 GMT 38.867207 -108.622375 33,975 256 434 0
2020-09-23 04:51:29 GMT 38.872887 -108.595032 33,975 256 434 0
2020-09-23 04:51:18 GMT 38.878143 -108.569702 33,975 256 435 64
2020-09-23 04:51:07 GMT 38.883873 -108.541809 33,975 256 435 0
2020-09-23 04:50:56 GMT 38.889404 -108.514893 33,975 256 435 -64
2020-09-23 04:50:44 GMT 38.895092 -108.487427 33,975 256 435 0
2020-09-23 04:50:35 GMT 38.900345 -108.462044 33,975 256 435 -64
2020-09-23 04:50:24 GMT 38.905754 -108.435608 34,000 256 435 0
2020-09-23 04:50:13 GMT 38.911285 -108.408607 34,000 256 436 -128
2020-09-23 04:50:02 GMT 38.917236 -108.379410 34,025 256 436 -64
2020-09-23 04:49:52 GMT 38.922180 -108.355171 34,025 256 436 0
2020-09-23 04:49:41 GMT 38.927719 -108.327942 34,025 256 436 64
2020-09-23 04:49:29 GMT 38.933258 -108.300652 34,000 256 437 64
2020-09-23 04:49:20 GMT 38.938759 -108.273560 34,000 256 438 64
2020-09-23 04:49:09 GMT 38.944336 -108.246140 34,000 256 438 0
2020-09-23 04:48:58 GMT 38.949837 -108.218994 34,000 256 439 0
2020-09-23 04:48:46 GMT 38.955414 -108.191330 34,000 256 439 -64
2020-09-23 04:48:36 GMT 38.960724 -108.164879 34,000 256 439 0
2020-09-23 04:48:26 GMT 38.966171 -108.137947 34,025 256 439 -64
2020-09-23 04:48:15 GMT 38.971531 -108.111450 34,025 256 439 -64
2020-09-23 04:48:03 GMT 38.977257 -108.083191 34,050 256 440 0
2020-09-23 04:47:54 GMT 38.982376 -108.057922 34,025 256 440 64
2020-09-23 04:47:43 GMT 38.987919 -108.030273 34,025 256 442 64
2020-09-23 04:47:31 GMT 38.993454 -108.002892 34,000 256 441 64
2020-09-23 04:47:22 GMT 38.998764 -107.976501 34,000 256 441 0
2020-09-23 04:47:10 GMT 39.004211 -107.949341 34,000 256 441 0
2020-09-23 04:47:01 GMT 39.009613 -107.922462 34,025 256 440 -64
2020-09-23 04:46:50 GMT 39.014694 -107.896851 34,025 256 441 0
2020-09-23 04:46:39 GMT 39.020508 -107.867706 34,025 256 441 0
2020-09-23 04:46:29 GMT 39.025623 -107.841797 34,025 256 441 64
2020-09-23 04:46:18 GMT 39.031265 -107.813614 34,000 256 442 -64
2020-09-23 04:46:10 GMT 39.035522 -107.792175 34,025 256 443 -64
2020-09-23 04:46:05 GMT 39.038612 -107.776611 34,025 256 443 -64
2020-09-23 04:45:59 GMT 39.041382 -107.762627 34,050 256 442 -64
2020-09-23 04:45:23 GMT 39.058678 -107.675049 34,000 256 443 64
2020-09-23 04:45:15 GMT 39.062447 -107.655945 34,000 256 443 64
2020-09-23 04:45:06 GMT 39.067429 -107.630669 33,975 256 443 128
2020-09-23 04:44:55 GMT 39.073151 -107.601593 33,975 256 443 0
2020-09-23 04:44:43 GMT 39.078278 -107.575256 34,000 256 443 -64
2020-09-23 04:44:34 GMT 39.083725 -107.547493 34,000 256 441 -64
2020-09-23 04:44:23 GMT 39.088890 -107.521118 34,000 256 440 0
2020-09-23 04:44:12 GMT 39.094055 -107.494751 34,000 256 440 128
2020-09-23 04:44:02 GMT 39.099792 -107.465576 34,000 256 440 -64
2020-09-23 04:43:51 GMT 39.105103 -107.438469 34,000 256 440 -64
2020-09-23 04:43:40 GMT 39.110069 -107.413147 34,025 257 438 -128
2020-09-23 04:43:29 GMT 39.115585 -107.384850 34,025 256 438 64
2020-09-23 04:43:19 GMT 39.120544 -107.359314 34,025 256 438 128
2020-09-23 04:43:07 GMT 39.125931 -107.331589 34,000 257 438 64
2020-09-23 04:42:56 GMT 39.137074 -107.274170 33,975 257 439 0
2020-09-23 04:42:45 GMT 39.137074 -107.274170 33,975 257 439 0
2020-09-23 04:42:36 GMT 39.142044 -107.248299 34,000 257 438 -64
2020-09-23 04:42:24 GMT 39.147034 -107.222534 34,000 256 438 0
2020-09-23 04:42:14 GMT 39.152386 -107.195007 33,975 257 437 64
2020-09-23 04:42:03 GMT 39.159882 -107.156128 33,975 257 437 -64
2020-09-23 04:41:52 GMT 39.162735 -107.141235 33,975 257 437 -64
2020-09-23 04:41:48 GMT 39.165188 -107.128357 33,975 257 436 -64
2020-09-23 04:41:41 GMT 39.168262 -107.112488 34,000 257 436 -64
2020-09-23 04:41:36 GMT 39.170334 -107.101654 34,000 257 436 0
2020-09-23 04:41:31 GMT 39.172989 -107.087799 34,000 257 436 0
2020-09-23 04:41:26 GMT 39.175106 -107.076721 34,000 257 436 0
2020-09-23 04:41:21 GMT 39.178318 -107.060120 34,000 257 436 0
2020-09-23 04:41:17 GMT 39.180038 -107.051018 34,000 257 436 0
2020-09-23 04:41:10 GMT 39.183578 -107.032654 34,000 257 436 0
2020-09-23 04:41:06 GMT 39.185066 -107.024841 34,000 257 436 0
2020-09-23 04:40:59 GMT 39.188599 -107.006477 34,000 257 436 -64
2020-09-23 04:40:56 GMT 39.190235 -106.997925 34,000 257 436 -64
2020-09-23 04:40:48 GMT 39.194099 -106.977783 34,025 257 435 64
2020-09-23 04:40:44 GMT 39.195648 -106.969696 34,000 257 435 128
2020-09-23 04:40:38 GMT 39.199360 -106.950317 33,975 257 437 64
2020-09-23 04:40:35 GMT 39.200317 -106.945274 33,975 257 438 64
2020-09-23 04:40:27 GMT 39.204117 -106.925514 34,000 257 439 -64
2020-09-23 04:40:23 GMT 39.205456 -106.918396 34,000 257 439 -64
2020-09-23 04:40:14 GMT 39.212719 -106.880188 34,000 257 436 0
2020-09-23 04:40:06 GMT 39.214600 -106.870399 34,000 257 436 64
2020-09-23 04:39:58 GMT 39.217793 -106.853516 34,000 257 436 0
2020-09-23 04:39:55 GMT 39.219635 -106.843948 34,000 257 436 0
2020-09-23 04:39:46 GMT 39.223473 -106.823547 34,000 257 436 0
2020-09-23 04:39:43 GMT 39.224682 -106.817261 34,000 257 436 0
2020-09-23 04:39:37 GMT 39.227829 -106.800606 34,000 257 436 -64
2020-09-23 04:39:34 GMT 39.229618 -106.791016 34,000 257 436 0
2020-09-23 04:39:26 GMT 39.233505 -106.770393 34,000 257 435 -64
2020-09-23 04:39:23 GMT 39.234879 -106.763062 34,000 257 435 -64
2020-09-23 04:39:15 GMT 39.238323 -106.745483 34,000 256 435 0
2020-09-23 04:39:11 GMT 39.240097 -106.737015 34,000 255 435 0
2020-09-23 04:39:05 GMT 39.244003 -106.719788 33,975 253 437 256
2020-09-23 04:39:02 GMT 39.246052 -106.711365 33,975 252 438 192
2020-09-23 04:38:54 GMT 39.250900 -106.692772 33,950 251 440 256
2020-09-23 04:38:51 GMT 39.253326 -106.684174 33,925 251 441 512
2020-09-23 04:38:45 GMT 39.257919 -106.668091 33,850 250 441 768
2020-09-23 04:38:41 GMT 39.260880 -106.657722 33,800 250 441 640
2020-09-23 04:38:32 GMT 39.266739 -106.637299 33,700 250 440 576
2020-09-23 04:38:29 GMT 39.268768 -106.630188 33,675 250 439 768
2020-09-23 04:38:22 GMT 39.273422 -106.614014 33,575 250 439 1024
2020-09-23 04:38:19 GMT 39.276169 -106.604431 33,500 250 439 1152
2020-09-23 04:38:13 GMT 39.279755 -106.591980 33,425 250 439 1088
2020-09-23 04:38:07 GMT 39.283386 -106.579224 33,350 250 437 832
2020-09-23 04:38:03 GMT 39.290817 -106.553230 32,800 250 438 1792
2020-09-23 04:37:57 GMT 39.290817 -106.553230 33,175 250 438 832
2020-09-23 04:37:50 GMT 39.295536 -106.536865 33,050 250 437 1280
2020-09-23 04:37:47 GMT 39.298653 -106.525879 32,975 250 437 1408
2020-09-23 04:37:41 GMT 39.302628 -106.511917 32,825 250 438 1600
2020-09-23 04:37:36 GMT 39.305786 -106.500870 32,675 250 438 1856
2020-09-23 04:37:32 GMT 39.308075 -106.492744 32,575 250 440 1920
2020-09-23 04:37:27 GMT 39.312016 -106.478943 32,400 250 442 2048
2020-09-23 04:37:23 GMT 39.317047 -106.461403 32,150 250 445 2112
2020-09-23 04:37:20 GMT 39.317047 -106.461403 32,150 250 445 2112
2020-09-23 04:37:14 GMT 39.321304 -106.446472 31,950 250 446 1664
2020-09-23 04:37:10 GMT 39.324585 -106.434998 31,850 250 446 1344
2020-09-23 04:37:05 GMT 39.326958 -106.426758 31,775 250 446 1280
2020-09-23 04:37:01 GMT 39.330322 -106.415009 31,675 250 446 1216
2020-09-23 04:36:58 GMT 39.332016 -106.408974 31,625 250 446 1280
2020-09-23 04:36:54 GMT 39.336224 -106.394226 31,500 250 447 1344
2020-09-23 04:36:49 GMT 39.339294 -106.383484 31,400 250 447 1344
2020-09-23 04:36:45 GMT 39.341858 -106.374466 31,300 250 447 1344
2020-09-23 04:36:42 GMT 39.344692 -106.364441 31,225 250 448 1344
2020-09-23 04:36:38 GMT 39.346527 -106.357925 31,175 250 448 1152
2020-09-23 04:36:35 GMT 39.349674 -106.346924 31,100 250 448 896
2020-09-23 04:36:31 GMT 39.351837 -106.339180 31,050 250 447 768
2020-09-23 04:36:27 GMT 39.354332 -106.330383 31,025 250 446 704
2020-09-23 04:36:21 GMT 39.359310 -106.312927 30,950 250 443 448
2020-09-23 04:36:18 GMT 39.361771 -106.304245 30,925 250 442 384
2020-09-23 04:36:14 GMT 39.364243 -106.295593 30,900 250 440 256
2020-09-23 04:36:08 GMT 39.368065 -106.282043 30,875 250 438 384
2020-09-23 04:36:05 GMT 39.370625 -106.272949 30,850 251 437 448
2020-09-23 04:36:02 GMT 39.371658 -106.269318 30,825 250 435 512
2020-09-23 04:35:59 GMT 39.373978 -106.260986 30,825 250 435 512
2020-09-23 04:35:56 GMT 39.375778 -106.254631 30,775 250 434 576
2020-09-23 04:35:53 GMT 39.378819 -106.243958 30,750 251 433 768
2020-09-23 04:35:49 GMT 39.382828 -106.229675 30,650 250 432 1280
2020-09-23 04:35:41 GMT 39.385986 -106.218506 30,550 250 432 1152
2020-09-23 04:35:36 GMT 39.389942 -106.204468 30,425 250 431 1280
2020-09-23 04:35:33 GMT 39.392395 -106.195755 30,300 251 430 1280
2020-09-23 04:35:30 GMT 39.394135 -106.189758 30,300 251 430 1280
2020-09-23 04:35:26 GMT 39.397251 -106.178650 30,200 251 430 1280
2020-09-23 04:35:21 GMT 39.400223 -106.167992 30,100 251 430 1280
2020-09-23 04:35:18 GMT 39.402794 -106.158813 30,025 251 430 1152
2020-09-23 04:35:15 GMT 39.404068 -106.154259 30,000 251 429 1088
2020-09-23 04:35:11 GMT 39.407593 -106.141724 29,900 251 428 1024
2020-09-23 04:35:07 GMT 39.409729 -106.134033 29,850 251 428 1088
2020-09-23 04:35:04 GMT 39.411125 -106.128967 29,800 251 428 1088
2020-09-23 04:34:59 GMT 39.415176 -106.114624 29,700 251 426 960
2020-09-23 04:34:55 GMT 39.418121 -106.104050 29,625 251 425 960
2020-09-23 04:34:48 GMT 39.425034 -106.079506 29,500 251 424 1088
2020-09-23 04:34:44 GMT 39.425034 -106.079506 29,450 250 423 1088
2020-09-23 04:34:41 GMT 39.426498 -106.074310 29,425 250 423 1152
2020-09-23 04:34:38 GMT 39.428905 -106.065735 29,350 251 422 1344
2020-09-23 04:34:35 GMT 39.431396 -106.056999 29,250 251 422 1664
2020-09-23 04:34:31 GMT 39.433228 -106.050369 29,150 251 422 1920
2020-09-23 04:34:28 GMT 39.436264 -106.039673 29,025 251 423 1984
2020-09-23 04:34:25 GMT 39.438263 -106.032593 28,900 250 423 2112
2020-09-23 04:34:22 GMT 39.439865 -106.026840 28,825 251 424 2432
2020-09-23 04:34:19 GMT 39.441616 -106.020691 28,725 250 425 2560
2020-09-23 04:34:16 GMT 39.443756 -106.013054 28,575 250 425 2752
2020-09-23 04:34:13 GMT 39.445854 -106.005615 28,425 251 428 3072
2020-09-23 04:34:07 GMT 39.450462 -105.989197 28,050 251 432 3200
2020-09-23 04:34:03 GMT 39.453255 -105.979187 27,850 251 435 2880
2020-09-23 04:33:58 GMT 39.457169 -105.965225 27,600 251 439 2048
2020-09-23 04:33:54 GMT 39.458652 -105.960022 27,500 251 439 1216
2020-09-23 04:33:51 GMT 39.461334 -105.950417 27,475 251 439 1152
2020-09-23 04:33:47 GMT 39.463440 -105.942719 27,400 251 439 960
2020-09-23 04:33:44 GMT 39.465729 -105.934570 27,350 251 439 1088
2020-09-23 04:33:41 GMT 39.470947 -105.915909 27,250 251 439 1408
2020-09-23 04:33:37 GMT 39.470947 -105.915909 27,175 251 439 1664
2020-09-23 04:33:32 GMT 39.474335 -105.903786 27,025 251 439 1920
2020-09-23 04:33:29 GMT 39.475388 -105.900085 26,975 251 439 1920
2020-09-23 04:33:26 GMT 39.478111 -105.890198 26,875 251 439 1984
2020-09-23 04:33:23 GMT 39.480148 -105.883064 26,725 251 439 1600
2020-09-23 04:33:20 GMT 39.482628 -105.874146 26,675 251 439 1408
2020-09-23 04:33:14 GMT 39.486355 -105.860779 26,550 251 439 1408
2020-09-23 04:33:11 GMT 39.488846 -105.851898 26,475 251 439 1280
2020-09-23 04:33:08 GMT 39.490082 -105.847481 26,425 251 438 1280
2020-09-23 04:33:04 GMT 39.493710 -105.834412 26,300 251 438 1216
2020-09-23 04:33:01 GMT 39.495758 -105.827003 26,225 251 437 1216
2020-09-23 04:32:55 GMT 39.499237 -105.814400 26,175 251 437 1216
2020-09-23 04:32:52 GMT 39.501251 -105.807068 26,100 251 437 1216
2020-09-23 04:32:48 GMT 39.504456 -105.795471 26,000 251 436 1472
2020-09-23 04:32:45 GMT 39.506138 -105.789368 25,950 251 436 1600
2020-09-23 04:32:42 GMT 39.508484 -105.781021 25,825 251 436 1664
2020-09-23 04:32:38 GMT 39.510887 -105.772217 25,775 251 436 1536
2020-09-23 04:32:35 GMT 39.513538 -105.762634 25,650 251 435 1216
2020-09-23 04:32:31 GMT 39.515633 -105.755066 25,600 251 435 1152
2020-09-23 04:32:28 GMT 39.518288 -105.745483 25,525 251 434 768
2020-09-23 04:32:23 GMT 39.520981 -105.735764 25,450 251 430 1152
2020-09-23 04:32:20 GMT 39.523361 -105.727226 25,425 251 431 1024
2020-09-23 04:32:17 GMT 39.525055 -105.721199 25,400 251 430 1216
2020-09-23 04:32:13 GMT 39.528763 -105.707642 25,250 251 429 1728
2020-09-23 04:32:10 GMT 39.530411 -105.701851 25,200 251 429 1664
2020-09-23 04:32:07 GMT 39.532532 -105.694092 25,025 251 428 1344
2020-09-23 04:32:02 GMT 39.534805 -105.685905 25,050 251 428 1408
2020-09-23 04:31:59 GMT 39.537189 -105.677185 24,925 251 428 1408
2020-09-23 04:31:56 GMT 39.539200 -105.669968 24,875 251 428 1344
2020-09-23 04:31:52 GMT 39.541843 -105.660278 24,825 251 428 1344
2020-09-23 04:31:49 GMT 39.544125 -105.651855 24,725 252 426 1344
2020-09-23 04:31:46 GMT 39.547710 -105.637268 24,625 253 425 1408
2020-09-23 04:31:43 GMT 39.547710 -105.637268 24,575 254 425 1408
2020-09-23 04:31:38 GMT 39.550362 -105.625305 24,475 256 424 1344
2020-09-23 04:31:35 GMT 39.551155 -105.621338 24,425 256 424 1280
2020-09-23 04:31:32 GMT 39.552876 -105.612244 24,350 257 424 1280
2020-09-23 04:31:29 GMT 39.554672 -105.601898 24,250 259 422 1408
2020-09-23 04:31:26 GMT 39.555344 -105.597961 24,200 259 422 1472
2020-09-23 04:31:23 GMT 39.556599 -105.589294 24,125 260 420 1536
2020-09-23 04:31:19 GMT 39.558014 -105.578850 23,975 262 420 1728
2020-09-23 04:31:16 GMT 39.558929 -105.571152 23,925 262 420 1728
2020-09-23 04:31:12 GMT 39.560280 -105.559204 23,775 262 420 1984
2020-09-23 04:31:06 GMT 39.561581 -105.547791 23,550 262 421 2176
2020-09-23 04:31:03 GMT 39.562729 -105.537292 23,425 262 421 2048
2020-09-23 04:31:00 GMT 39.563232 -105.532814 23,425 262 421 2048
2020-09-23 04:30:57 GMT 39.564327 -105.523376 23,275 262 421 1728
2020-09-23 04:30:54 GMT 39.566025 -105.508156 23,175 262 420 1408
2020-09-23 04:30:51 GMT 39.566025 -105.508156 23,125 262 420 1280
2020-09-23 04:30:48 GMT 39.566849 -105.500931 23,075 262 419 1216
2020-09-23 04:30:45 GMT 39.567673 -105.493294 23,025 262 418 1216
2020-09-23 04:30:40 GMT 39.568844 -105.482910 22,925 262 416 1088
2020-09-23 04:30:36 GMT 39.570190 -105.471077 22,825 262 415 1216
2020-09-23 04:30:33 GMT 39.570801 -105.465698 22,775 262 414 1344
2020-09-23 04:30:30 GMT 39.571793 -105.456871 22,700 262 413 1728
2020-09-23 04:30:25 GMT 39.573128 -105.445129 22,550 262 412 1984
2020-09-23 04:30:22 GMT 39.574173 -105.435852 22,425 262 412 2048
2020-09-23 04:30:17 GMT 39.575500 -105.424149 22,250 262 412 2048
2020-09-23 04:30:14 GMT 39.576012 -105.419495 22,200 262 413 2048
2020-09-23 04:30:10 GMT 39.577362 -105.407776 22,000 262 413 2048
2020-09-23 04:30:07 GMT 39.578434 -105.398193 21,900 262 413 1792
2020-09-23 04:30:04 GMT 39.578854 -105.394287 21,800 262 413 1536
2020-09-23 04:30:01 GMT 39.579803 -105.385994 21,775 262 412 1408
2020-09-23 04:29:58 GMT 39.580353 -105.380859 21,725 262 411 1408
2020-09-23 04:29:54 GMT 39.581646 -105.369202 21,600 262 410 1664
2020-09-23 04:29:51 GMT 39.582413 -105.362411 21,525 262 410 1792
2020-09-23 04:29:45 GMT 39.583927 -105.348816 21,275 262 409 1920
2020-09-23 04:29:42 GMT 39.584702 -105.341568 21,275 262 409 1920
2020-09-23 04:29:39 GMT 39.585693 -105.332825 21,100 262 408 1792
2020-09-23 04:29:36 GMT 39.586578 -105.324615 21,025 262 408 1664
2020-09-23 04:29:31 GMT 39.587696 -105.314453 20,925 262 407 1664
2020-09-23 04:29:28 GMT 39.588722 -105.305054 20,875 262 407 1600
2020-09-23 04:29:23 GMT 39.589931 -105.294006 20,700 262 405 1472
2020-09-23 04:29:17 GMT 39.591328 -105.281311 20,550 262 403 1728
2020-09-23 04:29:12 GMT 39.592667 -105.269142 20,400 262 401 2112
2020-09-23 04:29:09 GMT 39.593307 -105.263176 20,325 262 401 2176
2020-09-23 04:29:06 GMT 39.594223 -105.254875 20,175 262 401 2240
2020-09-23 04:29:03 GMT 39.595276 -105.245087 20,100 262 401 2368
2020-09-23 04:29:00 GMT 39.595917 -105.239113 19,900 262 401 2560
2020-09-23 04:28:57 GMT 39.596821 -105.231018 19,750 263 402 2432
2020-09-23 04:28:54 GMT 39.597565 -105.223877 19,600 263 402 2240
2020-09-23 04:28:51 GMT 39.598068 -105.219589 19,575 263 402 2176
2020-09-23 04:28:47 GMT 39.599380 -105.207458 19,375 263 402 2368
2020-09-23 04:28:41 GMT 39.600685 -105.195251 19,150 263 402 2048
2020-09-23 04:28:38 GMT 39.601730 -105.185730 19,050 262 401 1728
2020-09-23 04:28:35 GMT 39.602280 -105.180717 19,000 262 401 1664
2020-09-23 04:28:32 GMT 39.603058 -105.173584 18,925 262 400 1664
2020-09-23 04:28:29 GMT 39.603760 -105.167175 18,850 263 399 1600
2020-09-23 04:28:26 GMT 39.604614 -105.159401 18,775 263 398 1536
2020-09-23 04:28:23 GMT 39.605530 -105.150681 18,650 263 396 1920
2020-09-23 04:28:20 GMT 39.606171 -105.144775 18,575 263 395 2112
2020-09-23 04:28:17 GMT 39.606949 -105.137550 18,375 263 395 2432
2020-09-23 04:28:14 GMT 39.607483 -105.132385 18,375 263 395 2432
2020-09-23 04:28:11 GMT 39.608139 -105.126022 18,275 263 395 2496
2020-09-23 04:28:08 GMT 39.608963 -105.118324 18,100 263 395 2368
2020-09-23 04:28:05 GMT 39.610062 -105.107758 17,925 263 394 2176
2020-09-23 04:28:02 GMT 39.610741 -105.101685 17,850 263 394 2048
2020-09-23 04:27:58 GMT 39.611618 -105.093246 17,725 263 393 2048
2020-09-23 04:27:54 GMT 39.612579 -105.084167 17,275 263 391 2048
2020-09-23 04:27:51 GMT 39.613209 -105.078125 17,500 263 391 2048
2020-09-23 04:27:48 GMT 39.614914 -105.061722 17,325 263 390 2176
2020-09-23 04:27:45 GMT 39.614914 -105.061722 17,250 263 389 2176
2020-09-23 04:27:41 GMT 39.615692 -105.054550 17,150 263 388 2176
2020-09-23 04:27:38 GMT 39.616562 -105.046432 17,000 263 388 2240
2020-09-23 04:27:35 GMT 39.617020 -105.042313 16,900 262 387 2240
2020-09-23 04:27:32 GMT 39.618118 -105.032227 16,775 262 387 2240
2020-09-23 04:27:29 GMT 39.618988 -105.024643 16,650 262 386 2368
2020-09-23 04:27:26 GMT 39.619724 -105.018005 16,425 262 385 2496
2020-09-23 04:27:23 GMT 39.620331 -105.012268 16,425 262 385 2496
2020-09-23 04:27:19 GMT 39.621075 -105.005615 16,325 262 386 2496
2020-09-23 04:27:16 GMT 39.621914 -104.998535 16,200 262 386 2496
2020-09-23 04:27:13 GMT 39.623154 -104.987617 16,000 262 385 2304
2020-09-23 04:27:10 GMT 39.623821 -104.981689 15,875 262 385 2176
2020-09-23 04:27:06 GMT 39.624519 -104.975525 15,825 262 383 1920
2020-09-23 04:27:03 GMT 39.625217 -104.968933 15,750 262 383 1792
2020-09-23 04:27:00 GMT 39.626358 -104.958481 15,600 263 380 1536
2020-09-23 04:26:57 GMT 39.626953 -104.953049 15,525 263 379 1536
2020-09-23 04:26:54 GMT 39.627777 -104.944992 15,425 263 377 1664
2020-09-23 04:26:51 GMT 39.628189 -104.941406 15,400 263 377 1600
2020-09-23 04:26:48 GMT 39.628849 -104.935120 15,325 263 375 1664
2020-09-23 04:26:45 GMT 39.629562 -104.928452 15,250 263 373 1728
2020-09-23 04:26:42 GMT 39.630619 -104.918762 15,100 262 371 1920
2020-09-23 04:26:39 GMT 39.631176 -104.913452 15,000 262 370 2048
2020-09-23 04:26:36 GMT 39.632061 -104.905334 14,875 262 369 2112
2020-09-23 04:26:33 GMT 39.632721 -104.899612 14,800 262 369 2176
2020-09-23 04:26:29 GMT 39.633865 -104.889099 14,650 262 367 2240
2020-09-23 04:26:26 GMT 39.634277 -104.885223 14,550 262 367 2368
2020-09-23 04:26:23 GMT 39.636017 -104.869751 14,325 262 366 2752
2020-09-23 04:26:20 GMT 39.636017 -104.869751 14,225 262 366 2944
2020-09-23 04:26:14 GMT 39.637180 -104.859314 14,050 262 366 2944
2020-09-23 04:26:11 GMT 39.637894 -104.852798 13,800 262 366 2112
2020-09-23 04:26:08 GMT 39.638855 -104.844322 13,725 262 366 1728
2020-09-23 04:26:05 GMT 39.639359 -104.839958 13,675 262 365 1536
2020-09-23 04:26:02 GMT 39.640255 -104.831543 13,500 263 363 2112
2020-09-23 04:25:59 GMT 39.641277 -104.822266 13,400 263 362 2112
2020-09-23 04:25:55 GMT 39.641792 -104.817139 13,300 263 361 2176
2020-09-23 04:25:51 GMT 39.642815 -104.807434 13,075 263 360 2560
2020-09-23 04:25:47 GMT 39.643433 -104.801033 12,825 263 360 2944
2020-09-23 04:25:44 GMT 39.644119 -104.794617 12,575 263 360 3072
2020-09-23 04:25:41 GMT 39.645794 -104.778198 12,525 263 360 2944
2020-09-23 04:25:37 GMT 39.645794 -104.778198 12,475 263 360 2944
2020-09-23 04:25:34 GMT 39.646271 -104.773270 12,350 263 360 2944
2020-09-23 04:25:30 GMT 39.647415 -104.762161 12,100 263 359 2880
2020-09-23 04:25:27 GMT 39.648010 -104.755531 11,950 263 360 2944
2020-09-23 04:25:24 GMT 39.648540 -104.750366 11,825 263 360 2816
2020-09-23 04:25:19 GMT 39.649380 -104.741150 11,650 265 355 1600
2020-09-23 04:25:16 GMT 39.650032 -104.733704 11,500 264 359 2304
2020-09-23 04:25:13 GMT 39.650482 -104.728783 11,425 264 358 1728
2020-09-23 04:25:08 GMT 39.651489 -104.716003 11,275 265 354 1280
2020-09-23 04:25:03 GMT 39.652172 -104.705872 11,175 266 349 1280
2020-09-23 04:24:59 GMT 39.652588 -104.698814 11,075 266 344 1216
2020-09-23 04:24:56 GMT 39.653011 -104.692200 11,050 266 343 1216
2020-09-23 04:24:53 GMT 39.653366 -104.685257 10,975 266 339 1216
2020-09-23 04:24:49 GMT 39.653824 -104.677139 10,875 266 335 1216
2020-09-23 04:24:45 GMT 39.654312 -104.669128 10,825 266 333 1216
2020-09-23 04:24:42 GMT 39.654640 -104.664368 10,775 265 329 1152
2020-09-23 04:24:36 GMT 39.655975 -104.650627 10,625 260 321 1088
2020-09-23 04:24:33 GMT 39.656780 -104.644958 10,575 258 319 1088
2020-09-23 04:24:30 GMT 39.657154 -104.642700 10,550 258 318 1088
2020-09-23 04:24:27 GMT 39.658859 -104.634087 10,450 253 312 1344
2020-09-23 04:24:23 GMT 39.660225 -104.628784 10,400 248 308 1216
2020-09-23 04:24:20 GMT 39.661575 -104.624695 10,325 245 306 1280
2020-09-23 04:24:14 GMT 39.669304 -104.609924 9,775 225 296 2112
2020-09-23 04:24:11 GMT 39.669304 -104.609924 9,775 225 296 2112
2020-09-23 04:24:02 GMT 39.683250 -104.583511 8,900 163 258 1984
2020-09-23 04:23:59 GMT 39.686691 -104.584831 8,900 163 258 1984
2020-09-23 04:23:56 GMT 39.690121 -104.586151 8,900 163 258 1984
2020-09-23 04:23:53 GMT 39.693550 -104.587479 8,900 163 258 1984
2020-09-23 04:23:50 GMT 39.696980 -104.588799 8,900 163 258 1984
2020-09-23 04:23:47 GMT 39.700409 -104.590118 8,900 163 258 1984
2020-09-23 04:23:44 GMT 39.703838 -104.591454 8,900 163 258 1984
2020-09-23 04:23:41 GMT 39.706081 -104.593628 8,900 163 258 1984
2020-09-23 04:23:38 GMT 39.710701 -104.594101 8,900 163 258 1984
2020-09-23 04:23:35 GMT 39.714142 -104.595421 8,900 163 258 1984
2020-09-23 04:23:32 GMT 39.717541 -104.596611 8,900 163 258 1984
2020-09-23 04:23:29 GMT 39.721008 -104.597977 8,800 163 262 1984
2020-09-23 04:23:26 GMT 39.725006 -104.599457 8,750 163 261 1152
2020-09-23 04:23:23 GMT 39.728378 -104.600922 8,600 163 247 1984
2020-09-23 04:23:20 GMT 39.731609 -104.602119 8,625 163 253 1344
2020-09-23 04:23:17 GMT 39.734982 -104.603409 8,500 164 238 1280
2020-09-23 04:23:14 GMT 39.738159 -104.604584 8,500 164 238 1280
2020-09-23 04:23:11 GMT 39.741470 -104.605820 8,300 164 235 1280
2020-09-23 04:23:08 GMT 39.744740 -104.606972 8,100 164 232 1280
2020-09-23 04:23:05 GMT 39.747841 -104.608109 8,100 164 232 1280
2020-09-23 04:23:02 GMT 39.750858 -104.609200 7,800 163 235 1280
2020-09-23 04:22:59 GMT 39.753960 -104.610336 7,800 163 241 1280
2020-09-23 04:22:56 GMT 39.757210 -104.611557 7,800 163 234 1280
2020-09-23 04:22:53 GMT 39.760391 -104.612762 7,600 163 233 1280
2020-09-23 04:22:50 GMT 39.763512 -104.613930 7,600 164 230 1280
2020-09-23 04:22:47 GMT 39.766541 -104.615044 7,600 163 232 1280
2020-09-23 04:22:44 GMT 39.772709 -104.617363 7,600 163 223 1280
2020-09-23 04:22:41 GMT 39.772709 -104.617363 7,400 163 220 1280
2020-09-23 04:22:38 GMT 39.775711 -104.618500 7,400 163 214 1280
2020-09-23 04:22:35 GMT 39.778599 -104.619583 7,400 163 216 1280
2020-09-23 04:22:32 GMT 39.781479 -104.620667 7,300 163 211 1280
2020-09-23 04:22:29 GMT 39.784309 -104.621727 7,300 163 205 1280
2020-09-23 04:22:26 GMT 39.787109 -104.622749 7,100 163 207 1280
2020-09-23 04:22:23 GMT 39.792591 -104.624893 7,100 163 207 1280
2020-09-23 04:22:20 GMT 39.792591 -104.624893 7,100 163 204 544
2020-09-23 04:22:17 GMT 39.795292 -104.625931 7,050 163 198 544
2020-09-23 04:22:14 GMT 39.798031 -104.627052 7,050 162 202 544
2020-09-23 04:22:11 GMT 39.800579 -104.628098 6,825 162 189 544
2020-09-23 04:22:08 GMT 39.803101 -104.629082 6,825 162 198 544
2020-09-23 04:22:05 GMT 39.805740 -104.630112 6,825 163 193 -1120
2020-09-23 04:22:02 GMT 39.808250 -104.631187 6,600 162 189 2016
2020-09-23 04:21:59 GMT 39.810749 -104.632187 6,600 162 184 2016
2020-09-23 04:21:56 GMT 39.813202 -104.633232 6,600 163 180 2016
2020-09-23 04:21:53 GMT 39.817940 -104.635109 6,500 162 174 2016
2020-09-23 04:21:50 GMT 39.817940 -104.635109 6,400 162 170 2016
2020-09-23 04:21:47 GMT 39.820190 -104.636040 6,275 163 172 2016
2020-09-23 04:21:44 GMT 39.822540 -104.636871 6,275 164 175 2016
2020-09-23 04:21:41 GMT 39.824848 -104.637779 6,075 163 174 2016
2020-09-23 04:21:38 GMT 39.827129 -104.638649 6,000 162 170 2016
2020-09-23 04:21:35 GMT 39.829369 -104.639511 6,000 161 167 2016
2020-09-23 04:21:32 GMT 39.831600 -104.640381 5,750 166 161 2016
2020-09-23 04:21:29 GMT 39.833778 -104.641090 5,750 172 163 2016
2020-09-23 04:21:26 GMT 39.836021 -104.641479 5,625 179 162 2016
2020-09-23 04:21:23 GMT 39.838322 -104.641502 5,300 179 166 2016
2020-09-23 04:21:20 GMT 39.840580 -104.641533 5,300 180 166 2016
2020-09-23 04:21:17 GMT 39.842861 -104.641541 5,275 179 170 576
2020-09-23 04:21:14 GMT 39.845211 -104.641510 5,125 179 169 -1632
2020-09-23 04:21:11 GMT 39.847542 -104.641510 5,175 180 158 0
2020-09-23 04:21:08 GMT 39.849739 -104.641510 5,175 181 151 0
2020-09-23 04:21:05 GMT 39.851822 -104.641449 5,175 181 145 0
2020-09-23 04:21:02 GMT 39.853729 -104.641441 5,175 180 132 0
2020-09-23 04:20:59 GMT 39.855549 -104.641434 5,175 180 124 -160
2020-09-23 04:20:56 GMT 39.857182 -104.641403 5,175 181 115 -160
2020-09-23 04:20:53 GMT 39.858639 -104.641403 0 180 94 64
2020-09-23 04:20:50 GMT 39.859959 -104.641380 0 181 85 64
2020-09-23 04:20:47 GMT 39.861118 -104.641342 0 179 76 64
2020-09-23 04:20:44 GMT 39.862068 -104.641350 0 179 58 64
2020-09-23 04:20:41 GMT 39.862869 -104.641350 0 182 36 64
2020-09-23 04:20:38 GMT 39.863468 -104.641342 0 182 25 64
2020-09-23 04:20:35 GMT 39.863831 -104.641327 0 181 16 64
2020-09-23 04:20:32 GMT 39.864052 -104.641296 0 178 14 64
2020-09-23 04:20:29 GMT 39.864239 -104.641319 0 183 13 64
2020-09-23 04:20:26 GMT 39.864399 -104.641273 0 166 8 64
2020-09-23 04:20:23 GMT 39.864529 -104.641289 0 150 9 64
2020-09-23 04:20:20 GMT 39.864681 -104.641350 0 136 8 64
2020-09-23 04:20:17 GMT 39.864780 -104.641472 0 123 10 64
2020-09-23 04:20:14 GMT 39.864830 -104.641571 0 97 12 64
2020-09-23 04:20:11 GMT 39.864849 -104.641777 0 94 8 64
2020-09-23 04:20:08 GMT 39.864849 -104.641930 0 91 10 64
2020-09-23 04:20:05 GMT 39.864841 -104.642250 0 89 9 64
2020-09-23 04:20:02 GMT 39.864841 -104.642250 0 97 9 64
2020-09-23 04:19:59 GMT 39.864868 -104.642410 0 83 6 64
2020-09-23 04:19:56 GMT 39.864861 -104.642517 0 89 7 64
2020-09-23 04:19:53 GMT 39.864841 -104.642639 0 127 4 64
2020-09-23 04:19:50 GMT 39.864841 -104.642723 0 150 3 64
2020-09-23 04:19:47 GMT 39.864861 -104.642822 0 156 1 64
2020-09-23 04:19:44 GMT 39.864849 -104.642830 0 157 0 64
2020-09-23 04:19:41 GMT 39.864849 -104.642838 0 151 0 64
2020-09-23 04:19:36 GMT 39.864849 -104.642830 0 148 0 64
2020-09-23 04:19:33 GMT 39.864849 -104.642838 0 145 2 64
2020-09-23 04:19:30 GMT 39.864849 -104.642822 0 140 0 64
2020-09-23 04:19:27 GMT 39.864849 -104.642830 0 138 0 64
2020-09-23 04:19:24 GMT 39.864841 -104.642830 0 138 0 64
2020-09-23 04:19:21 GMT 39.864841 -104.642860 0 132 0 64
2020-09-23 04:19:18 GMT 39.864841 -104.642830 0 130 0 64
2020-09-23 04:19:14 GMT 39.864849 -104.642830 0 129 0 64
2020-09-23 04:19:11 GMT 39.864830 -104.642822 0 128 1 64
2020-09-23 04:19:08 GMT 39.864861 -104.642838 0 128 0 64
2020-09-23 04:19:05 GMT 39.864849 -104.642799 0 127 0 64
2020-09-23 04:19:02 GMT 39.864849 -104.642868 0 127 0 64
2020-09-23 04:18:59 GMT 39.864841 -104.642860 0 126 0 64
2020-09-23 04:18:56 GMT 39.864841 -104.642830 0 125 0 64
2020-09-23 04:18:53 GMT 39.864849 -104.642891 0 119 0 64
2020-09-23 04:18:50 GMT 39.864868 -104.642883 0 117 0 64
2020-09-23 04:18:47 GMT 39.864868 -104.642838 0 124 0 64
2020-09-23 04:18:40 GMT 39.864849 -104.642830 0 125 0 64
2020-09-23 04:18:37 GMT 39.864849 -104.642838 0 125 0 64
2020-09-23 04:18:34 GMT 39.864849 -104.642830 0 125 0 64
2020-09-23 04:18:31 GMT 39.864849 -104.642822 0 124 0 64
2020-09-23 04:18:28 GMT 39.864849 -104.642822 0 123 0 64
2020-09-23 04:18:25 GMT 39.864841 -104.642838 0 128 2 64
2020-09-23 04:18:22 GMT 39.864841 -104.642853 0 129 0 64
2020-09-23 04:18:19 GMT 39.864830 -104.642868 0 104 2 64
2020-09-23 04:18:16 GMT 39.864841 -104.642776 0 92 2 64
2020-09-23 04:18:13 GMT 39.864849 -104.642799 0 101 6 64
2020-09-23 04:18:10 GMT 39.864868 -104.642937 0 89 6 64
2020-09-23 04:18:07 GMT 39.864861 -104.643044 0 89 7 64
2020-09-23 04:18:04 GMT 39.864861 -104.643173 0 83 6 64
2020-09-23 04:18:01 GMT 39.864841 -104.643272 0 96 10 64
2020-09-23 04:17:58 GMT 39.864849 -104.643417 0 90 8 64
2020-09-23 04:17:55 GMT 39.864849 -104.643608 0 82 7 64
2020-09-23 04:17:52 GMT 39.864849 -104.643738 0 103 5 64
2020-09-23 04:17:49 GMT 39.864891 -104.643860 0 91 7 64
2020-09-23 04:17:46 GMT 39.864849 -104.643997 0 95 12 64
2020-09-23 04:17:43 GMT 39.864880 -104.644188 0 86 16 64
2020-09-23 04:17:40 GMT 39.864891 -104.644493 0 84 20 64
2020-09-23 04:17:37 GMT 39.864868 -104.644829 0 96 19 64
2020-09-23 04:17:34 GMT 39.864891 -104.645172 0 87 17 64
2020-09-23 04:17:31 GMT 39.864880 -104.645477 0 90 16 64
2020-09-23 04:17:28 GMT 39.864868 -104.645790 0 90 12 64
2020-09-23 04:17:25 GMT 39.864891 -104.646202 0 92 13 64
2020-09-23 04:17:22 GMT 39.864891 -104.646202 0 84 16 64
2020-09-23 04:17:19 GMT 39.864868 -104.646492 0 91 16 64
2020-09-23 04:17:16 GMT 39.864868 -104.646820 0 93 14 64
2020-09-23 04:17:13 GMT 39.864868 -104.647049 0 94 15 64
2020-09-23 04:17:10 GMT 39.864891 -104.647278 0 90 19 64
2020-09-23 04:17:07 GMT 39.864910 -104.647614 0 87 18 64
2020-09-23 04:17:04 GMT 39.864891 -104.647949 0 91 23 64
2020-09-23 04:17:01 GMT 39.864891 -104.648354 0 91 20 64
2020-09-23 04:16:58 GMT 39.864891 -104.648781 0 96 16 64
2020-09-23 04:16:55 GMT 39.864899 -104.649117 0 89 16 64
2020-09-23 04:16:52 GMT 39.864922 -104.649399 0 90 21 64
2020-09-23 04:16:49 GMT 39.864899 -104.649780 0 91 18 64
2020-09-23 04:16:46 GMT 39.864922 -104.650452 0 92 19 64
2020-09-23 04:16:43 GMT 39.864922 -104.650452 0 91 17 64
2020-09-23 04:16:40 GMT 39.864922 -104.650749 0 86 19 64
2020-09-23 04:16:37 GMT 39.864899 -104.651093 0 87 18 64
2020-09-23 04:16:34 GMT 39.864922 -104.651398 0 86 18 64
2020-09-23 04:16:31 GMT 39.864899 -104.651711 0 90 19 64
2020-09-23 04:16:28 GMT 39.864929 -104.652130 0 89 22 64
2020-09-23 04:16:25 GMT 39.864922 -104.652550 0 89 22 64
2020-09-23 04:16:22 GMT 39.864922 -104.652939 0 92 21 64
2020-09-23 04:16:19 GMT 39.864941 -104.653282 0 89 21 64
2020-09-23 04:16:16 GMT 39.864910 -104.653732 0 97 19 64
2020-09-23 04:16:13 GMT 39.864960 -104.654053 0 94 17 64
2020-09-23 04:16:10 GMT 39.864929 -104.654388 0 91 19 64
2020-09-23 04:16:07 GMT 39.864960 -104.654732 0 97 18 64
2020-09-23 04:16:04 GMT 39.864941 -104.655022 0 90 17 64
2020-09-23 04:16:01 GMT 39.864941 -104.655289 0 91 19 64
2020-09-23 04:15:58 GMT 39.864960 -104.655693 0 87 22 64
2020-09-23 04:15:55 GMT 39.864941 -104.656067 0 89 23 64
2020-09-23 04:15:52 GMT 39.864948 -104.656471 0 92 23 64
2020-09-23 04:15:49 GMT 39.864971 -104.656914 0 91 21 64
2020-09-23 04:15:46 GMT 39.864960 -104.657242 0 91 19 64
2020-09-23 04:15:43 GMT 39.864990 -104.657623 0 84 18 64
2020-09-23 04:15:40 GMT 39.864948 -104.657967 0 91 15 64
2020-09-23 04:15:37 GMT 39.864960 -104.658218 0 94 18 64
2020-09-23 04:15:34 GMT 39.864971 -104.658531 0 88 18 64
2020-09-23 04:15:31 GMT 39.864960 -104.658859 0 92 16 64
2020-09-23 04:15:28 GMT 39.864979 -104.659126 0 86 14 64
2020-09-23 04:15:25 GMT 39.865002 -104.659401 0 93 10 64
2020-09-23 04:15:22 GMT 39.864979 -104.659561 0 90 14 64
2020-09-23 04:15:19 GMT 39.864979 -104.659866 0 94 12 64
2020-09-23 04:15:16 GMT 39.864990 -104.659943 0 90 12 64
2020-09-23 04:15:13 GMT 39.864979 -104.660141 0 83 9 64
2020-09-23 04:15:10 GMT 39.865009 -104.660316 0 81 7 64
2020-09-23 04:15:07 GMT 39.865002 -104.660400 0 82 7 64
2020-09-23 04:15:04 GMT 39.864979 -104.660599 0 93 9 64
2020-09-23 04:15:01 GMT 39.865002 -104.660690 0 93 9 64
2020-09-23 04:14:58 GMT 39.865009 -104.660889 0 83 11 64
2020-09-23 04:14:55 GMT 39.864990 -104.661263 0 90 10 64
2020-09-23 04:14:52 GMT 39.864990 -104.661263 0 81 9 64
2020-09-23 04:14:49 GMT 39.864960 -104.661430 0 98 11 64
2020-09-23 04:14:46 GMT 39.864971 -104.661591 0 85 12 64
2020-09-23 04:14:43 GMT 39.864941 -104.661842 0 51 11 64
2020-09-23 04:14:40 GMT 39.864910 -104.662064 0 28 13 64
2020-09-23 04:14:37 GMT 39.864769 -104.662201 0 27 12 64
2020-09-23 04:14:34 GMT 39.864601 -104.662247 0 4 15 64
2020-09-23 04:14:31 GMT 39.864399 -104.662270 0 0 16 64
2020-09-23 04:14:28 GMT 39.864201 -104.662239 0 5 14 64
2020-09-23 04:14:25 GMT 39.863998 -104.662270 0 358 16 64
2020-09-23 04:14:22 GMT 39.863789 -104.662270 0 357 14 64
2020-09-23 04:14:19 GMT 39.863590 -104.662216 0 5 15 64
2020-09-23 04:14:16 GMT 39.863392 -104.662300 0 349 13 64
2020-09-23 04:14:13 GMT 39.863209 -104.662239 0 359 15 64
2020-09-23 04:14:10 GMT 39.862991 -104.662300 0 348 15 64
2020-09-23 04:14:07 GMT 39.862789 -104.662247 0 4 14 64
2020-09-23 04:14:04 GMT 39.862591 -104.662277 0 0 13 64
2020-09-23 04:14:01 GMT 39.862431 -104.662308 0 0 16 64
2020-09-23 04:13:58 GMT 39.862202 -104.662247 0 355 12 64
2020-09-23 04:13:55 GMT 39.862019 -104.662239 0 355 11 64
2020-09-23 04:13:52 GMT 39.861870 -104.662239 0 9 12 64
2020-09-23 04:13:49 GMT 39.861698 -104.662277 0 348 13 64
2020-09-23 04:13:46 GMT 39.861549 -104.662270 0 5 12 64
2020-09-23 04:13:43 GMT 39.861389 -104.662270 0 36 12 64
2020-09-23 04:13:40 GMT 39.861252 -104.662376 0 39 10 64
2020-09-23 04:13:37 GMT 39.861130 -104.662498 0 79 10 64
2020-09-23 04:13:34 GMT 39.861061 -104.662682 0 74 7 64
2020-09-23 04:13:31 GMT 39.861038 -104.662788 0 91 16 64
2020-09-23 04:13:28 GMT 39.861050 -104.663017 0 89 13 64
2020-09-23 04:13:25 GMT 39.861061 -104.663261 0 93 16 64
2020-09-23 04:13:22 GMT 39.861050 -104.663589 0 93 16 64
2020-09-23 04:13:19 GMT 39.861061 -104.663857 0 93 22 64
2020-09-23 04:13:16 GMT 39.861061 -104.664223 0 90 16 64
2020-09-23 04:13:13 GMT 39.861061 -104.664490 0 91 16 64
2020-09-23 04:13:10 GMT 39.861118 -104.665123 0 102 16 64
2020-09-23 04:13:07 GMT 39.861118 -104.665123 0 107 20 64
2020-09-23 04:13:04 GMT 39.861198 -104.665451 0 97 20 64
2020-09-23 04:13:01 GMT 39.861229 -104.665810 0 93 16 64
2020-09-23 04:12:58 GMT 39.861229 -104.666138 0 98 17 64
2020-09-23 04:12:55 GMT 39.861271 -104.666473 0 87 16 64
2020-09-23 04:12:52 GMT 39.861252 -104.667137 0 90 19 64
2020-09-23 04:12:49 GMT 39.861252 -104.667137 0 90 15 64
2020-09-23 04:12:46 GMT 39.861259 -104.667374 0 93 19 64
2020-09-23 04:12:43 GMT 39.861290 -104.667709 0 94 15 64
2020-09-23 04:12:40 GMT 39.861290 -104.667969 0 85 17 64
2020-09-23 04:12:37 GMT 39.861252 -104.668259 0 92 16 64
2020-09-23 04:12:34 GMT 39.861271 -104.668571 0 102 19 64
2020-09-23 04:12:31 GMT 39.861309 -104.668877 0 101 18 64
2020-09-23 04:12:28 GMT 39.861340 -104.669197 0 93 15 64
2020-09-23 04:12:25 GMT 39.861370 -104.669518 0 83 12 64
2020-09-23 04:12:22 GMT 39.861359 -104.669739 0 82 13 64
2020-09-23 04:12:19 GMT 39.861340 -104.669998 0 85 13 64
2020-09-23 04:12:16 GMT 39.861309 -104.670288 0 85 13 64
We lost coverage of the aircraft here for a total of 58 minutes
2020-09-23 03:14:22 GMT 39.860722 -104.674080 0 271 19 -32
2020-09-23 03:14:19 GMT 39.860729 -104.673782 0 272 20 -32
2020-09-23 03:14:16 GMT 39.860699 -104.673470 0 270 24 -32
2020-09-23 03:14:13 GMT 39.860710 -104.673126 0 270 26 -32
2020-09-23 03:14:10 GMT 39.860729 -104.672684 0 272 28 -32
2020-09-23 03:14:07 GMT 39.860729 -104.672188 0 273 29 -32
2020-09-23 03:14:04 GMT 39.860699 -104.671669 0 273 29 -32
2020-09-23 03:14:01 GMT 39.860668 -104.671150 0 272 28 -32
2020-09-23 03:13:58 GMT 39.860649 -104.670609 0 269 26 -32
2020-09-23 03:13:55 GMT 39.860630 -104.670174 0 270 27 -32
2020-09-23 03:13:52 GMT 39.860661 -104.669670 0 271 24 -32
2020-09-23 03:13:49 GMT 39.860600 -104.669189 0 269 23 -32
2020-09-23 03:13:46 GMT 39.860619 -104.668777 0 270 25 -32
2020-09-23 03:13:43 GMT 39.860592 -104.668350 0 269 27 -32
2020-09-23 03:13:40 GMT 39.860580 -104.667862 0 265 21 -32
2020-09-23 03:13:37 GMT 39.860611 -104.667480 0 271 21 -32
2020-09-23 03:13:34 GMT 39.860600 -104.667107 0 272 23 -32
2020-09-23 03:13:31 GMT 39.860592 -104.666710 0 264 24 -32
2020-09-23 03:13:28 GMT 39.860619 -104.666237 0 258 22 -32
2020-09-23 03:13:25 GMT 39.860668 -104.665916 0 248 21 -32
2020-09-23 03:13:22 GMT 39.860779 -104.665581 0 249 24 -32
2020-09-23 03:13:19 GMT 39.860889 -104.665192 0 248 17 -32
2020-09-23 03:13:16 GMT 39.860989 -104.664909 0 255 18 -32
2020-09-23 03:13:13 GMT 39.861061 -104.664597 0 269 18 -32
2020-09-23 03:13:10 GMT 39.861080 -104.664299 0 270 20 -32
2020-09-23 03:13:07 GMT 39.861061 -104.663910 0 271 20 -32
2020-09-23 03:13:04 GMT 39.861038 -104.663544 0 262 22 -32
2020-09-23 03:13:01 GMT 39.861080 -104.663261 0 270 22 -32
2020-09-23 03:12:58 GMT 39.861099 -104.662857 0 279 20 -32
2020-09-23 03:12:55 GMT 39.861019 -104.662590 0 319 16 -32
2020-09-23 03:12:52 GMT 39.860828 -104.662392 0 349 14 -32
2020-09-23 03:12:49 GMT 39.860649 -104.662338 0 351 16 -32
2020-09-23 03:12:46 GMT 39.860458 -104.662270 0 4 19 -32
2020-09-23 03:12:43 GMT 39.860130 -104.662277 0 5 22 -32
2020-09-23 03:12:40 GMT 39.859829 -104.662300 0 359 28 -32
2020-09-23 03:12:37 GMT 39.859440 -104.662338 0 355 27 -32
2020-09-23 03:12:34 GMT 39.858711 -104.662354 0 4 23 -32
2020-09-23 03:12:31 GMT 39.858711 -104.662354 0 356 26 -32
2020-09-23 03:12:28 GMT 39.858330 -104.662331 0 2 27 -32
2020-09-23 03:12:25 GMT 39.857979 -104.662338 0 1 24 -32
2020-09-23 03:12:22 GMT 39.857639 -104.662292 0 2 23 -32
2020-09-23 03:12:19 GMT 39.857342 -104.662262 0 9 25 -32
2020-09-23 03:12:16 GMT 39.857021 -104.662376 0 4 21 -32
2020-09-23 03:12:13 GMT 39.856731 -104.662338 0 355 23 -32
2020-09-23 03:12:10 GMT 39.856449 -104.662292 0 359 19 -32
2020-09-23 03:12:07 GMT 39.856152 -104.662300 0 2 22 -32
2020-09-23 03:12:04 GMT 39.855549 -104.662308 0 3 21 -32
2020-09-23 03:12:01 GMT 39.855549 -104.662308 0 6 18 -32
2020-09-23 03:11:58 GMT 39.855301 -104.662354 0 2 21 -32
2020-09-23 03:11:55 GMT 39.854988 -104.662369 0 357 18 -32
2020-09-23 03:11:52 GMT 39.854752 -104.662392 0 0 21 -32
2020-09-23 03:11:49 GMT 39.854450 -104.662338 0 349 18 -32
2020-09-23 03:11:46 GMT 39.854179 -104.662270 0 341 21 -32
2020-09-23 03:11:43 GMT 39.853931 -104.662163 0 345 15 -32
2020-09-23 03:11:40 GMT 39.853699 -104.662071 0 333 18 -32
2020-09-23 03:11:37 GMT 39.853489 -104.661949 0 328 24 -32
2020-09-23 03:11:34 GMT 39.853210 -104.661758 0 323 29 -32
2020-09-23 03:11:31 GMT 39.852409 -104.661179 0 332 35 -32
2020-09-23 03:11:28 GMT 39.852409 -104.661179 0 335 36 -32
2020-09-23 03:11:25 GMT 39.851990 -104.660912 0 343 40 -32
2020-09-23 03:11:22 GMT 39.851429 -104.660713 0 337 36 -32
2020-09-23 03:11:19 GMT 39.850941 -104.660522 0 345 35 -32
2020-09-23 03:11:16 GMT 39.850449 -104.660347 0 353 39 -32
2020-09-23 03:11:13 GMT 39.849819 -104.660294 0 359 54 -32
2020-09-23 03:11:10 GMT 39.849072 -104.660301 0 0 66 -32
2020-09-23 03:11:07 GMT 39.848148 -104.660271 0 0 69 320
2020-09-23 03:11:04 GMT 39.847149 -104.660301 0 0 71 320
2020-09-23 03:11:01 GMT 39.846100 -104.660294 0 1 84 -1312
2020-09-23 03:10:58 GMT 39.844898 -104.660347 5,175 1 100 0
2020-09-23 03:10:55 GMT 39.843529 -104.660347 5,175 0 108 0
2020-09-23 03:10:52 GMT 39.841999 -104.660393 5,175 0 113 0
2020-09-23 03:10:49 GMT 39.840340 -104.660393 5,175 0 130 0
2020-09-23 03:10:46 GMT 39.838509 -104.660400 5,175 0 140 96
2020-09-23 03:10:43 GMT 39.836552 -104.660423 5,175 0 154 96
2020-09-23 03:10:40 GMT 39.834419 -104.660461 5,175 0 155 -448
2020-09-23 03:10:37 GMT 39.832291 -104.660500 5,300 0 165 -448
2020-09-23 03:10:34 GMT 39.830002 -104.660500 5,300 359 160 -448
2020-09-23 03:10:31 GMT 39.825569 -104.660522 5,325 359 163 -448
2020-09-23 03:10:28 GMT 39.825569 -104.660522 5,350 0 160 -448
2020-09-23 03:10:25 GMT 39.823231 -104.660637 5,375 359 154 -448
2020-09-23 03:10:22 GMT 39.820999 -104.660622 5,400 359 161 -448
2020-09-23 03:10:19 GMT 39.818829 -104.660622 5,425 0 158 -448
2020-09-23 03:10:16 GMT 39.816502 -104.660637 5,600 1 168 -448
2020-09-23 03:10:13 GMT 39.814281 -104.660690 5,600 0 162 -448
2020-09-23 03:10:10 GMT 39.809719 -104.660751 5,600 359 164 -448
2020-09-23 03:10:07 GMT 39.809719 -104.660751 5,625 359 164 -448
2020-09-23 03:10:04 GMT 39.807442 -104.660767 5,675 2 168 -448
2020-09-23 03:10:01 GMT 39.805092 -104.660843 5,800 359 163 -448
2020-09-23 03:09:58 GMT 39.802841 -104.660812 5,775 359 169 -448
2020-09-23 03:09:55 GMT 39.800529 -104.660789 5,775 1 177 -992
2020-09-23 03:09:52 GMT 39.798119 -104.660851 5,800 359 157 -992
2020-09-23 03:09:49 GMT 39.795898 -104.660873 5,850 0 165 -992
2020-09-23 03:09:46 GMT 39.793621 -104.660889 5,900 0 161 -992
2020-09-23 03:09:43 GMT 39.791359 -104.660873 5,950 1 167 -992
2020-09-23 03:09:40 GMT 39.786335 -104.661072 6,025 0 162 -960
2020-09-23 03:09:37 GMT 39.786335 -104.661072 6,025 0 162 -960
2020-09-23 03:09:33 GMT 39.784378 -104.661079 6,050 1 162 -960
2020-09-23 03:09:30 GMT 39.778656 -104.661194 6,150 0 162 -896
2020-09-23 03:09:26 GMT 39.778656 -104.661194 6,175 0 162 -832
2020-09-23 03:09:23 GMT 39.776047 -104.661255 6,225 0 160 -768
2020-09-23 03:09:19 GMT 39.772789 -104.661316 6,275 0 158 -768
2020-09-23 03:09:15 GMT 39.770462 -104.661316 6,325 0 159 -768
2020-09-23 03:09:12 GMT 39.768173 -104.661316 6,350 0 161 -768
2020-09-23 03:09:08 GMT 39.765427 -104.661316 6,425 0 162 -832
2020-09-23 03:09:05 GMT 39.762875 -104.661255 6,450 359 162 -1152
2020-09-23 03:09:01 GMT 39.760483 -104.661194 6,500 359 162 -1152
2020-09-23 03:08:58 GMT 39.757473 -104.661072 6,575 357 162 -768
2020-09-23 03:08:55 GMT 39.755146 -104.660889 6,625 356 161 -704
2020-09-23 03:08:52 GMT 39.752884 -104.660660 6,650 354 160 -640
2020-09-23 03:08:49 GMT 39.750687 -104.660301 6,675 352 160 -576
2020-09-23 03:08:44 GMT 39.747463 -104.659668 6,725 349 160 -384
2020-09-23 03:08:40 GMT 39.744904 -104.658875 6,750 344 161 -448
2020-09-23 03:08:37 GMT 39.742298 -104.657715 6,775 336 164 -384
2020-09-23 03:08:33 GMT 39.740112 -104.656357 6,800 327 168 -384
2020-09-23 03:08:30 GMT 39.738052 -104.654808 6,800 327 168 -384
2020-09-23 03:08:27 GMT 39.734940 -104.651642 6,850 315 178 -256
2020-09-23 03:08:24 GMT 39.733749 -104.650032 6,850 309 182 -704
2020-09-23 03:08:20 GMT 39.732010 -104.647163 6,925 306 183 -1088
2020-09-23 03:08:16 GMT 39.729916 -104.643188 6,975 304 184 -896
2020-09-23 03:08:13 GMT 39.728622 -104.640297 7,025 300 184 -576
2020-09-23 03:08:10 GMT 39.727680 -104.638062 7,050 298 185 -576
2020-09-23 03:08:07 GMT 39.726284 -104.634521 7,075 296 187 -768
2020-09-23 03:08:04 GMT 39.723537 -104.626343 7,200 293 191 -832
2020-09-23 03:08:00 GMT 39.723537 -104.626343 7,175 291 193 -768
2020-09-23 03:07:56 GMT 39.722324 -104.621948 7,225 289 196 -384
2020-09-23 03:07:52 GMT 39.721481 -104.618622 7,225 286 197 -384
2020-09-23 03:07:49 GMT 39.720886 -104.615761 7,250 285 197 -512
2020-09-23 03:07:46 GMT 39.720230 -104.612305 7,275 279 198 -512
2020-09-23 03:07:42 GMT 39.719467 -104.606979 7,300 279 198 -448
2020-09-23 03:07:38 GMT 39.719067 -104.603149 7,325 276 201 -320
2020-09-23 03:07:34 GMT 39.718651 -104.596375 7,350 273 207 -256
2020-09-23 03:07:28 GMT 39.718460 -104.589844 7,400 271 212 -704
2020-09-23 03:07:24 GMT 39.718464 -104.584717 7,425 269 216 -448
2020-09-23 03:07:21 GMT 39.718555 -104.580139 7,450 268 220 -320
2020-09-23 03:07:18 GMT 39.718689 -104.576767 7,475 268 224 -320
2020-09-23 03:07:14 GMT 39.718872 -104.571213 7,475 268 228 -384
2020-09-23 03:07:08 GMT 39.719238 -104.562141 7,550 268 234 -704
2020-09-23 03:07:05 GMT 39.719376 -104.558739 7,600 267 236 -768
2020-09-23 03:07:02 GMT 39.719532 -104.554504 7,600 267 237 -640
2020-09-23 03:06:57 GMT 39.719860 -104.547363 7,625 267 240 -512
2020-09-23 03:06:52 GMT 39.720154 -104.540169 7,675 267 240 -448
2020-09-23 03:06:49 GMT 39.720325 -104.535889 7,700 267 241 -512
2020-09-23 03:06:46 GMT 39.720474 -104.531509 7,725 267 242 -448
2020-09-23 03:06:41 GMT 39.720791 -104.524231 7,750 267 246 -384
2020-09-23 03:06:37 GMT 39.721115 -104.516968 7,775 267 250 256
2020-09-23 03:06:31 GMT 39.721489 -104.509399 7,725 267 255 448
2020-09-23 03:06:26 GMT 39.721939 -104.501297 7,750 266 262 -64
2020-09-23 03:06:21 GMT 39.722443 -104.494194 7,725 264 270 -256
2020-09-23 03:06:16 GMT 39.723358 -104.484695 7,750 260 279 -384
2020-09-23 03:06:10 GMT 39.724915 -104.476044 7,825 252 283 -832
2020-09-23 03:06:07 GMT 39.726517 -104.470215 7,875 246 286 -960
2020-09-23 03:06:04 GMT 39.727570 -104.467087 7,900 244 287 -960
2020-09-23 03:06:01 GMT 39.730362 -104.460571 8,000 238 289 -1408
2020-09-23 03:05:54 GMT 39.734482 -104.452278 8,125 237 289 -1664
2020-09-23 03:05:50 GMT 39.737961 -104.445290 8,300 238 289 -1856
2020-09-23 03:05:45 GMT 39.741898 -104.437408 8,450 238 289 -1728
2020-09-23 03:05:39 GMT 39.745232 -104.430664 8,600 238 289 -1792
2020-09-23 03:05:34 GMT 39.749512 -104.421814 8,775 239 289 -1856
2020-09-23 03:05:29 GMT 39.752609 -104.415314 8,875 239 290 -1600
2020-09-23 03:05:24 GMT 39.757099 -104.406006 9,075 239 291 -1792
2020-09-23 03:05:18 GMT 39.760265 -104.399292 9,225 239 291 -1856
2020-09-23 03:05:13 GMT 39.763870 -104.391495 9,375 239 290 -1920
2020-09-23 03:05:09 GMT 39.766785 -104.385193 9,550 240 290 -2368
2020-09-23 03:05:06 GMT 39.769135 -104.380150 9,650 240 288 -2496
2020-09-23 03:05:03 GMT 39.771286 -104.375488 9,800 240 288 -2496
2020-09-23 03:04:59 GMT 39.774216 -104.369102 9,950 240 289 -2432
2020-09-23 03:04:56 GMT 39.776512 -104.364014 10,075 240 291 -1728
2020-09-23 03:04:51 GMT 39.779259 -104.358032 10,200 240 292 -1856
2020-09-23 03:04:48 GMT 39.781307 -104.353516 10,300 240 292 -1856
2020-09-23 03:04:41 GMT 39.786942 -104.341400 10,500 240 297 -1152
2020-09-23 03:04:38 GMT 39.788635 -104.337692 10,550 240 299 -1024
2020-09-23 03:04:33 GMT 39.792160 -104.329872 10,625 240 305 -1088
2020-09-23 03:04:27 GMT 39.796051 -104.321274 10,700 240 308 -896
2020-09-23 03:04:22 GMT 39.799759 -104.313095 10,775 240 313 -640
2020-09-23 03:04:19 GMT 39.802723 -104.306641 10,800 240 316 -256
2020-09-23 03:04:16 GMT 39.803978 -104.303833 10,800 240 363 -448
2020-09-23 03:04:10 GMT 39.808365 -104.294289 10,800 240 324 128
2020-09-23 03:04:07 GMT 39.811157 -104.288017 10,775 240 363 -448
2020-09-23 03:04:01 GMT 39.816467 -104.276375 10,775 240 337 192
2020-09-23 03:03:56 GMT 39.820084 -104.268494 10,775 240 363 -448
2020-09-23 03:03:50 GMT 39.824524 -104.258881 10,750 240 350 64
2020-09-23 03:03:46 GMT 39.827774 -104.251839 10,750 240 363 -448
2020-09-23 03:03:41 GMT 39.832626 -104.241325 10,775 239 362 -256
2020-09-23 03:03:36 GMT 39.836700 -104.232491 10,825 240 366 -704
2020-09-23 03:03:30 GMT 39.842743 -104.219353 10,950 240 374 -1216
2020-09-23 03:03:25 GMT 39.846481 -104.211182 11,525 239 378 -1664
2020-09-23 03:03:18 GMT 39.852116 -104.199097 11,250 239 383 -1984
2020-09-23 03:03:15 GMT 39.855000 -104.192932 11,350 239 386 -2368
2020-09-23 03:03:10 GMT 39.860447 -104.181091 11,725 239 395 -3072
2020-09-23 03:03:07 GMT 39.863194 -104.175232 11,875 240 396 -3392
2020-09-23 03:03:04 GMT 39.865082 -104.171165 11,875 240 396 -3392
2020-09-23 03:02:59 GMT 39.870407 -104.159668 12,350 240 401 -4032
2020-09-23 03:02:56 GMT 39.873341 -104.153259 12,450 240 401 -4032
2020-09-23 03:02:48 GMT 39.881287 -104.135941 13,075 240 404 -4608
2020-09-23 03:02:45 GMT 39.886688 -104.124298 13,500 240 405 -4736
2020-09-23 03:02:36 GMT 39.892776 -104.111099 14,000 240 407 -4608
2020-09-23 03:02:33 GMT 39.894665 -104.106873 14,825 240 408 -4416
2020-09-23 03:02:27 GMT 39.901413 -104.092041 14,550 241 410 -4160
2020-09-23 03:02:24 GMT 39.904587 -104.084709 14,850 242 413 -4160
2020-09-23 03:02:17 GMT 39.910538 -104.069603 15,325 246 417 -4096
2020-09-23 03:02:13 GMT 39.913834 -104.060234 15,525 247 420 -3968
2020-09-23 03:02:05 GMT 39.919197 -104.042542 16,150 252 425 -3328
2020-09-23 03:02:02 GMT 39.921196 -104.035034 16,225 252 426 -3200
2020-09-23 03:01:56 GMT 39.927761 -104.009880 16,550 252 432 -2176
2020-09-23 03:01:52 GMT 39.927761 -104.009880 16,650 252 433 -1984
2020-09-23 03:01:45 GMT 39.932465 -103.991714 16,775 252 438 -576
2020-09-23 03:01:41 GMT 39.934418 -103.984222 16,800 252 440 -384
2020-09-23 03:01:34 GMT 39.939072 -103.966118 16,800 252 440 0
2020-09-23 03:01:31 GMT 39.941437 -103.957092 16,800 252 441 0
2020-09-23 03:01:26 GMT 39.944519 -103.945023 16,800 252 441 64
2020-09-23 03:01:23 GMT 39.945831 -103.940002 16,800 252 442 0
2020-09-23 03:01:20 GMT 39.948338 -103.930473 16,800 252 441 64
2020-09-23 03:01:16 GMT 39.950821 -103.920898 16,800 252 441 64
2020-09-23 03:01:13 GMT 39.952389 -103.914871 16,775 252 441 64
2020-09-23 03:01:10 GMT 39.955399 -103.903320 16,775 252 440 64
2020-09-23 03:01:07 GMT 39.957321 -103.895767 16,775 252 440 64
2020-09-23 03:01:04 GMT 39.959015 -103.889221 16,775 252 438 64
2020-09-23 03:01:00 GMT 39.961166 -103.880981 16,775 252 437 128
2020-09-23 03:00:56 GMT 39.963745 -103.870987 16,775 252 436 64
2020-09-23 03:00:53 GMT 39.965748 -103.863312 16,775 252 436 64
2020-09-23 03:00:49 GMT 39.969177 -103.850098 16,800 252 435 -384
2020-09-23 03:00:43 GMT 39.972336 -103.837952 16,850 252 435 -896
2020-09-23 03:00:39 GMT 39.974442 -103.829773 16,925 252 435 -1216
2020-09-23 03:00:36 GMT 39.977386 -103.818367 17,050 252 433 -1600
2020-09-23 03:00:33 GMT 39.978737 -103.813187 17,100 252 432 -1600
2020-09-23 03:00:30 GMT 39.980690 -103.805504 17,175 252 431 -1792
2020-09-23 03:00:27 GMT 39.982498 -103.798645 17,275 252 430 -2048
2020-09-23 03:00:23 GMT 39.985252 -103.787842 17,450 252 429 -2304
2020-09-23 03:00:20 GMT 39.987534 -103.778992 17,575 252 432 -2880
2020-09-23 03:00:17 GMT 39.989071 -103.772858 17,700 252 432 -2752
2020-09-23 03:00:14 GMT 39.990559 -103.767181 17,800 252 433 -2880
2020-09-23 03:00:11 GMT 39.992374 -103.760002 17,925 252 435 -2944
2020-09-23 03:00:08 GMT 39.994656 -103.751259 18,150 252 438 -3712
2020-09-23 03:00:05 GMT 39.995865 -103.746521 18,250 252 439 -3520
2020-09-23 03:00:02 GMT 39.998520 -103.736206 18,475 252 442 -3392
2020-09-23 02:59:56 GMT 40.002708 -103.720055 18,800 252 443 -2944
2020-09-23 02:59:51 GMT 40.005177 -103.710442 19,000 252 444 -2816
2020-09-23 02:59:47 GMT 40.008575 -103.697205 19,225 252 446 -2752
2020-09-23 02:59:44 GMT 40.010559 -103.689575 19,350 252 448 -2880
2020-09-23 02:59:41 GMT 40.011749 -103.684937 19,450 252 448 -3008
2020-09-23 02:59:37 GMT 40.014542 -103.674194 19,625 252 449 -3072
2020-09-23 02:59:34 GMT 40.016304 -103.667305 19,875 252 450 -2560
2020-09-23 02:59:31 GMT 40.018772 -103.657753 19,950 252 451 -2432
2020-09-23 02:59:28 GMT 40.021408 -103.647461 20,100 252 453 -1920
2020-09-23 02:59:24 GMT 40.023426 -103.639648 20,250 252 457 -1408
2020-09-23 02:59:20 GMT 40.025799 -103.630539 20,425 252 460 -1536
2020-09-23 02:59:17 GMT 40.031712 -103.607628 20,400 252 462 -2304
2020-09-23 02:59:13 GMT 40.031712 -103.607628 20,625 252 463 -3392
2020-09-23 02:59:10 GMT 40.033585 -103.600464 20,800 252 463 -3584
2020-09-23 02:59:06 GMT 40.035416 -103.593323 20,925 252 463 -3200
2020-09-23 02:59:03 GMT 40.037766 -103.584343 21,050 252 464 -3200
2020-09-23 02:59:00 GMT 40.039627 -103.576904 21,325 252 464 -3200
2020-09-23 02:58:57 GMT 40.042007 -103.567566 21,450 252 466 -3264
2020-09-23 02:58:52 GMT 40.044746 -103.556946 21,675 252 466 -3392
2020-09-23 02:58:49 GMT 40.047028 -103.548141 21,850 252 466 -3392
2020-09-23 02:58:46 GMT 40.049122 -103.539902 22,050 252 466 -3520
2020-09-23 02:58:42 GMT 40.052986 -103.524979 22,375 252 466 -3712
2020-09-23 02:58:39 GMT 40.054001 -103.520996 22,625 252 465 -3648
2020-09-23 02:58:36 GMT 40.056244 -103.512207 22,675 252 465 -3584
2020-09-23 02:58:33 GMT 40.058201 -103.504761 22,950 252 464 -3392
2020-09-23 02:58:30 GMT 40.060158 -103.497078 22,950 252 464 -3392
2020-09-23 02:58:26 GMT 40.063507 -103.484093 23,300 252 463 -3200
2020-09-23 02:58:21 GMT 40.066441 -103.472672 23,475 252 464 -3392
2020-09-23 02:58:18 GMT 40.070618 -103.456482 23,825 252 464 -3840
2020-09-23 02:58:15 GMT 40.070618 -103.456482 23,925 252 464 -4032
2020-09-23 02:58:12 GMT 40.072632 -103.448517 24,125 252 464 -4160
2020-09-23 02:58:07 GMT 40.075974 -103.435547 24,450 252 464 -4544
2020-09-23 02:58:02 GMT 40.079895 -103.420174 24,900 252 462 -4544
2020-09-23 02:57:58 GMT 40.082081 -103.411438 25,225 252 462 -3776
2020-09-23 02:57:55 GMT 40.084671 -103.401367 25,375 252 461 -3776
2020-09-23 02:57:51 GMT 40.086731 -103.393188 25,750 252 460 -4352
2020-09-23 02:57:47 GMT 40.089981 -103.380554 25,925 252 458 -4544
2020-09-23 02:57:44 GMT 40.091625 -103.373985 26,125 252 457 -4480
2020-09-23 02:57:41 GMT 40.093506 -103.366699 26,325 252 456 -4352
2020-09-23 02:57:38 GMT 40.095840 -103.357544 26,575 252 456 -3520
2020-09-23 02:57:34 GMT 40.097992 -103.348938 26,775 252 456 -3456
2020-09-23 02:57:31 GMT 40.100517 -103.339027 27,450 252 455 -3392
2020-09-23 02:57:26 GMT 40.102844 -103.329910 27,200 252 456 -3200
2020-09-23 02:57:22 GMT 40.105591 -103.319237 27,400 252 456 -2624
2020-09-23 02:57:19 GMT 40.107697 -103.310913 27,525 252 458 -2112
2020-09-23 02:57:16 GMT 40.109734 -103.303009 27,600 252 460 -1472
2020-09-23 02:57:12 GMT 40.112961 -103.290344 32,250 252 459 -3712
2020-09-23 02:57:09 GMT 40.114857 -103.282906 28,900 252 457 -3584
2020-09-23 02:57:06 GMT 40.116810 -103.275230 27,975 252 464 -3200
2020-09-23 02:57:02 GMT 40.119370 -103.265076 32,250 252 459 -3712
2020-09-23 02:56:59 GMT 40.121475 -103.256836 28,400 252 463 -3776
2020-09-23 02:56:56 GMT 40.124119 -103.246269 29,300 252 463 -3776
2020-09-23 02:56:52 GMT 40.126144 -103.238281 32,250 252 462 -3840
2020-09-23 02:56:49 GMT 40.130676 -103.220276 30,625 252 457 -3584
2020-09-23 02:56:45 GMT 40.130676 -103.220276 29,275 252 461 -3840
2020-09-23 02:56:42 GMT 40.133286 -103.210022 29,500 252 461 -3776
2020-09-23 02:56:39 GMT 40.135429 -103.201569 29,700 252 460 -3712
2020-09-23 02:56:32 GMT 40.140060 -103.183411 30,300 252 458 -3584
2020-09-23 02:56:28 GMT 40.144928 -103.164307 30,625 252 457 -3584
2020-09-23 02:56:25 GMT 40.144928 -103.164307 30,850 252 457 -3584
2020-09-23 02:56:21 GMT 40.147247 -103.155090 30,800 252 456 -3392
2020-09-23 02:56:18 GMT 40.148930 -103.148323 30,900 252 456 -3264
2020-09-23 02:56:14 GMT 40.151459 -103.138367 31,025 252 456 -3136
2020-09-23 02:56:11 GMT 40.153679 -103.129471 31,325 252 456 -2816
2020-09-23 02:56:08 GMT 40.156036 -103.120056 31,450 252 455 -2688
2020-09-23 02:56:04 GMT 40.158287 -103.111183 31,625 252 455 -2368
2020-09-23 02:56:01 GMT 40.160614 -103.101807 31,725 252 455 -2240
2020-09-23 02:55:57 GMT 40.162628 -103.093750 31,850 252 454 -2112
2020-09-23 02:55:52 GMT 40.165833 -103.080933 32,025 252 454 -1856
2020-09-23 02:55:49 GMT 40.167892 -103.072876 32,100 252 454 -1728
2020-09-23 02:55:46 GMT 40.170273 -103.063232 32,200 252 453 -1536
2020-09-23 02:55:42 GMT 40.172836 -103.053101 32,300 252 453 -1024
2020-09-23 02:55:39 GMT 40.174164 -103.047951 32,375 252 453 -960
2020-09-23 02:55:36 GMT 40.176395 -103.038834 32,400 252 453 -960
2020-09-23 02:55:33 GMT 40.178879 -103.028931 32,500 252 453 -960
2020-09-23 02:55:28 GMT 40.181580 -103.018311 32,525 252 453 -896
2020-09-23 02:55:25 GMT 40.184124 -103.008125 32,600 252 453 -832
2020-09-23 02:55:22 GMT 40.185333 -103.003235 32,625 252 453 -832
2020-09-23 02:55:19 GMT 40.188034 -102.992516 32,675 252 454 -896
2020-09-23 02:55:16 GMT 40.194214 -102.967773 32,825 252 454 -960
2020-09-23 02:55:09 GMT 40.196415 -102.958870 32,825 253 456 -1024
2020-09-23 02:55:05 GMT 40.196415 -102.958870 32,850 252 456 -960
2020-09-23 02:55:01 GMT 40.199066 -102.948425 32,950 252 457 -960
2020-09-23 02:54:57 GMT 40.202141 -102.936028 33,025 252 458 -896
2020-09-23 02:54:54 GMT 40.204010 -102.928406 33,050 252 458 -960
2020-09-23 02:54:49 GMT 40.206703 -102.917671 33,100 252 458 -960
2020-09-23 02:54:46 GMT 40.209263 -102.907372 33,175 252 459 -1024
2020-09-23 02:54:43 GMT 40.211151 -102.900024 33,225 252 459 -960
2020-09-23 02:54:40 GMT 40.213715 -102.889709 33,275 252 459 -960
2020-09-23 02:54:36 GMT 40.215221 -102.883652 33,375 253 460 -1024
2020-09-23 02:54:33 GMT 40.217514 -102.874390 33,375 253 460 -960
2020-09-23 02:54:27 GMT 40.221909 -102.856750 33,475 253 460 -1024
2020-09-23 02:54:24 GMT 40.223927 -102.848824 33,550 253 449 -1024
2020-09-23 02:54:20 GMT 40.226257 -102.839294 33,600 253 460 -1088
2020-09-23 02:54:16 GMT 40.228626 -102.829781 33,650 253 460 -1088
2020-09-23 02:54:13 GMT 40.230816 -102.821045 33,725 252 460 -1088
2020-09-23 02:54:08 GMT 40.234028 -102.808121 33,825 252 458 -960
2020-09-23 02:54:02 GMT 40.237846 -102.792892 33,925 252 458 -960
2020-09-23 02:53:56 GMT 40.242550 -102.773979 34,025 253 456 -960
2020-09-23 02:53:51 GMT 40.245895 -102.760620 34,100 253 455 -960
2020-09-23 02:53:47 GMT 40.247726 -102.753052 34,150 253 453 -960
2020-09-23 02:53:42 GMT 40.250927 -102.740021 34,250 253 449 -1024
2020-09-23 02:53:38 GMT 40.253532 -102.729347 34,300 253 452 -1088
2020-09-23 02:53:31 GMT 40.257706 -102.712463 34,400 253 451 -1088
2020-09-23 02:53:27 GMT 40.260086 -102.702881 34,525 253 450 -1024
2020-09-23 02:53:23 GMT 40.262657 -102.692520 34,550 253 448 -960
2020-09-23 02:53:18 GMT 40.266769 -102.675720 34,675 253 448 -960
2020-09-23 02:53:11 GMT 40.271118 -102.658203 34,775 253 447 -960
2020-09-23 02:53:04 GMT 40.275558 -102.640259 34,900 253 445 -960
2020-09-23 02:53:00 GMT 40.277882 -102.631027 34,950 253 445 -960
2020-09-23 02:52:57 GMT 40.280350 -102.621040 35,000 253 444 -960
2020-09-23 02:52:50 GMT 40.284439 -102.604431 35,125 253 443 -960
2020-09-23 02:52:46 GMT 40.286678 -102.595261 35,175 253 443 -896
2020-09-23 02:52:39 GMT 40.290962 -102.577972 35,275 253 442 -832
2020-09-23 02:52:33 GMT 40.295292 -102.560493 35,375 253 441 -896
2020-09-23 02:52:29 GMT 40.297478 -102.551567 35,425 253 441 -960
2020-09-23 02:52:26 GMT 40.299435 -102.543449 35,475 253 441 -960
2020-09-23 02:52:22 GMT 40.301514 -102.535095 35,525 253 442 -1024
2020-09-23 02:52:18 GMT 40.303997 -102.524910 35,575 253 442 -1024
2020-09-23 02:52:15 GMT 40.305862 -102.517273 35,625 253 442 -1024
2020-09-23 02:52:08 GMT 40.310097 -102.500259 35,850 253 443 -960
2020-09-23 02:52:05 GMT 40.312283 -102.491333 35,800 253 443 -1024
2020-09-23 02:51:58 GMT 40.316437 -102.474243 35,900 253 443 -768
2020-09-23 02:51:52 GMT 40.320244 -102.458748 35,975 253 441 -256
2020-09-23 02:51:48 GMT 40.323120 -102.447021 35,975 253 441 0
2020-09-23 02:51:42 GMT 40.326828 -102.431763 35,975 253 442 64
2020-09-23 02:51:37 GMT 40.329254 -102.421814 35,975 253 441 0
2020-09-23 02:51:34 GMT 40.332001 -102.410645 35,975 253 442 64
2020-09-23 02:51:31 GMT 40.333279 -102.405312 35,975 253 443 0
2020-09-23 02:51:27 GMT 40.336071 -102.393829 35,975 253 443 0
2020-09-23 02:51:23 GMT 40.338352 -102.384651 35,975 253 443 -64
2020-09-23 02:51:20 GMT 40.340515 -102.375671 35,975 253 444 64
2020-09-23 02:51:15 GMT 40.343170 -102.364990 36,000 253 444 -128
2020-09-23 02:51:10 GMT 40.349350 -102.339661 36,000 253 444 -64
2020-09-23 02:51:06 GMT 40.349350 -102.339661 36,000 253 444 0
2020-09-23 02:50:59 GMT 40.353016 -102.324600 36,000 253 445 0
2020-09-23 02:50:55 GMT 40.355850 -102.312805 35,975 253 444 64
2020-09-23 02:50:50 GMT 40.359394 -102.298256 35,975 253 445 0
2020-09-23 02:50:45 GMT 40.362350 -102.286194 35,975 253 445 0
2020-09-23 02:50:42 GMT 40.364594 -102.276978 36,000 253 445 0
2020-09-23 02:50:38 GMT 40.366096 -102.270790 36,000 253 445 0
2020-09-23 02:50:34 GMT 40.369034 -102.258728 35,975 253 444 64
2020-09-23 02:50:31 GMT 40.370728 -102.251831 35,975 253 444 64
2020-09-23 02:50:28 GMT 40.372616 -102.244141 35,975 253 444 64
2020-09-23 02:50:24 GMT 40.375919 -102.230530 35,975 253 445 0
2020-09-23 02:50:19 GMT 40.378006 -102.221802 35,975 253 445 0
2020-09-23 02:50:15 GMT 40.380760 -102.210495 35,975 253 445 -64
2020-09-23 02:50:11 GMT 40.383785 -102.197945 36,000 253 444 0
2020-09-23 02:50:07 GMT 40.388626 -102.177917 35,975 253 444 0
2020-09-23 02:50:03 GMT 40.388626 -102.177917 35,975 253 444 0
2020-09-23 02:50:00 GMT 40.390072 -102.171982 35,975 253 444 0
2020-09-23 02:49:56 GMT 40.392380 -102.162476 35,975 253 445 0
2020-09-23 02:49:52 GMT 40.395100 -102.151192 35,975 253 445 0
2020-09-23 02:49:47 GMT 40.398636 -102.136581 35,975 253 445 0
2020-09-23 02:49:42 GMT 40.401535 -102.124512 35,975 253 445 0
2020-09-23 02:49:38 GMT 40.403458 -102.116516 35,975 253 445 0
2020-09-23 02:49:33 GMT 40.406643 -102.103127 35,975 253 445 64
2020-09-23 02:49:29 GMT 40.409389 -102.091827 35,975 253 445 64
2020-09-23 02:49:26 GMT 40.411812 -102.081841 35,975 253 445 64
2020-09-23 02:49:22 GMT 40.413345 -102.075378 35,975 253 445 64
2020-09-23 02:49:19 GMT 40.416096 -102.063866 35,950 253 445 64
2020-09-23 02:49:14 GMT 40.418423 -102.054314 35,950 253 445 0
2020-09-23 02:49:10 GMT 40.421127 -102.043030 35,950 253 445 0
2020-09-23 02:49:07 GMT 40.422455 -102.037598 35,950 253 445 0
2020-09-23 02:49:03 GMT 40.426151 -102.022224 35,950 253 445 0
2020-09-23 02:49:00 GMT 40.427452 -102.016792 35,950 253 445 0
2020-09-23 02:48:53 GMT 40.431107 -102.001648 35,950 253 445 0
2020-09-23 02:48:49 GMT 40.437561 -101.974609 35,950 253 445 0
2020-09-23 02:48:44 GMT 40.437561 -101.974609 35,950 253 445 64
2020-09-23 02:48:39 GMT 40.440628 -101.961800 35,950 253 444 64
2020-09-23 02:48:31 GMT 40.445236 -101.942513 35,950 253 444 64
2020-09-23 02:48:27 GMT 40.447098 -101.934837 35,950 253 444 64
2020-09-23 02:48:21 GMT 40.451202 -101.917603 35,950 253 444 0
2020-09-23 02:48:17 GMT 40.453583 -101.907837 35,925 253 444 0
2020-09-23 02:48:10 GMT 40.457806 -101.890144 35,950 253 444 0
2020-09-23 02:48:07 GMT 40.460087 -101.880653 35,950 253 444 0
2020-09-23 02:48:00 GMT 40.466602 -101.853127 35,950 253 444 0
2020-09-23 02:47:56 GMT 40.466602 -101.853127 35,950 253 444 -64
2020-09-23 02:47:48 GMT 40.471344 -101.833374 35,950 253 444 0
2020-09-23 02:47:44 GMT 40.473495 -101.824402 35,950 253 444 0
2020-09-23 02:47:39 GMT 40.477524 -101.807434 35,950 253 444 0
2020-09-23 02:47:34 GMT 40.479965 -101.797195 35,950 253 444 -64
2020-09-23 02:47:29 GMT 40.483109 -101.784058 35,950 253 444 -64
2020-09-23 02:47:24 GMT 40.486156 -101.771225 35,975 253 444 -64
2020-09-23 02:47:19 GMT 40.489655 -101.756592 35,975 253 444 -64
2020-09-23 02:47:13 GMT 40.492718 -101.743759 35,975 253 444 -64
2020-09-23 02:47:08 GMT 40.496071 -101.729843 35,975 253 445 -64
2020-09-23 02:47:03 GMT 40.498856 -101.718018 36,000 253 445 -64
2020-09-23 02:46:58 GMT 40.502495 -101.702812 36,000 253 445 -64
2020-09-23 02:46:52 GMT 40.505661 -101.689392 36,000 253 446 -128
2020-09-23 02:46:47 GMT 40.508881 -101.675964 36,000 253 446 -128
2020-09-23 02:46:40 GMT 40.512924 -101.659180 36,000 253 447 0
2020-09-23 02:46:37 GMT 40.515381 -101.648865 36,000 253 447 0
2020-09-23 02:46:31 GMT 40.519070 -101.633583 36,025 253 448 0
2020-09-23 02:46:26 GMT 40.521973 -101.621704 36,025 253 447 64
2020-09-23 02:46:16 GMT 40.528889 -101.593513 36,000 253 447 64
2020-09-23 02:46:09 GMT 40.533142 -101.576538 36,000 252 448 64
2020-09-23 02:46:04 GMT 40.535660 -101.566467 36,000 252 447 64
2020-09-23 02:45:58 GMT 40.539688 -101.550751 36,000 252 448 0
2020-09-23 02:45:55 GMT 40.542709 -101.538879 35,975 252 448 0
2020-09-23 02:45:50 GMT 40.545502 -101.528015 35,975 252 448 0
2020-09-23 02:45:44 GMT 40.549419 -101.512299 35,975 253 447 0
2020-09-23 02:45:33 GMT 40.555984 -101.484520 35,975 253 447 0
2020-09-23 02:45:22 GMT 40.562080 -101.458366 35,975 253 446 0
2020-09-23 02:45:12 GMT 40.568756 -101.429871 35,975 253 446 0
2020-09-23 02:45:02 GMT 40.575211 -101.402435 35,975 253 445 0
2020-09-23 02:44:51 GMT 40.581390 -101.376099 35,975 253 445 0
2020-09-23 02:44:40 GMT 40.588531 -101.345642 35,975 253 444 -64
2020-09-23 02:44:33 GMT 40.592514 -101.328613 36,000 253 444 0
2020-09-23 02:44:30 GMT 40.594162 -101.321655 36,000 253 444 0
2020-09-23 02:44:20 GMT 40.600582 -101.294067 35,975 253 444 0
2020-09-23 02:44:14 GMT 40.604305 -101.278091 35,975 253 444 -64
2020-09-23 02:44:11 GMT 40.605743 -101.271912 35,975 253 444 -64
2020-09-23 02:44:04 GMT 40.609497 -101.255981 36,000 253 444 -64
2020-09-23 02:44:00 GMT 40.612976 -101.241028 36,000 253 444 -64
2020-09-23 02:43:55 GMT 40.615082 -101.231995 36,000 253 443 0
2020-09-23 02:43:49 GMT 40.618690 -101.216545 36,000 253 443 64
2020-09-23 02:43:45 GMT 40.621124 -101.205994 35,975 253 443 64
2020-09-23 02:43:38 GMT 40.625198 -101.188477 35,975 253 444 64
2020-09-23 02:43:32 GMT 40.629272 -101.170959 35,975 253 444 0
2020-09-23 02:43:29 GMT 40.630783 -101.164490 35,975 253 444 0
2020-09-23 02:43:25 GMT 40.633713 -101.151855 35,975 253 444 0
2020-09-23 02:43:21 GMT 40.635452 -101.144409 35,975 253 444 0
2020-09-23 02:43:17 GMT 40.637962 -101.133583 35,975 253 444 0
2020-09-23 02:43:14 GMT 40.639801 -101.125793 35,975 253 444 0
2020-09-23 02:43:09 GMT 40.643234 -101.111145 35,975 253 444 64
2020-09-23 02:43:04 GMT 40.646210 -101.098267 35,975 254 443 64
2020-09-23 02:43:00 GMT 40.648205 -101.089760 35,975 254 444 64
2020-09-23 02:42:57 GMT 40.650101 -101.081482 35,975 254 444 64
2020-09-23 02:42:53 GMT 40.652252 -101.072220 35,975 254 444 0
2020-09-23 02:42:50 GMT 40.654404 -101.062927 35,975 254 444 0
2020-09-23 02:42:46 GMT 40.656143 -101.055481 35,950 254 444 0
2020-09-23 02:42:43 GMT 40.658890 -101.043579 35,950 254 444 -64
2020-09-23 02:42:40 GMT 40.662827 -101.026550 35,975 254 444 -64
2020-09-23 02:42:34 GMT 40.663799 -101.022156 35,975 254 444 0
2020-09-23 02:42:26 GMT 40.668129 -101.003616 35,975 254 443 -64
2020-09-23 02:42:21 GMT 40.671021 -100.990967 35,975 254 443 -64
2020-09-23 02:42:17 GMT 40.674683 -100.974976 35,975 254 442 -64
2020-09-23 02:42:12 GMT 40.677338 -100.963379 36,000 254 442 -64
2020-09-23 02:42:06 GMT 40.680183 -100.951057 36,000 254 442 0
2020-09-23 02:42:02 GMT 40.682747 -100.939949 36,000 254 442 0
2020-09-23 02:41:58 GMT 40.685444 -100.928085 36,000 254 442 0
2020-09-23 02:41:55 GMT 40.686794 -100.922157 36,000 254 442 0
2020-09-23 02:41:51 GMT 40.689308 -100.911110 35,975 254 442 0
2020-09-23 02:41:47 GMT 40.691437 -100.901794 36,000 254 443 0
2020-09-23 02:41:40 GMT 40.695782 -100.882957 35,975 254 443 0
2020-09-23 02:41:37 GMT 40.697502 -100.875465 35,975 254 443 0
2020-09-23 02:41:33 GMT 40.699493 -100.866699 35,975 254 444 0
2020-09-23 02:41:30 GMT 40.702194 -100.855042 35,975 254 444 0
2020-09-23 02:41:27 GMT 40.702972 -100.851685 35,975 254 444 0
2020-09-23 02:41:24 GMT 40.705719 -100.839539 35,975 254 444 -64
2020-09-23 02:41:20 GMT 40.706955 -100.834106 36,000 254 444 -64
2020-09-23 02:41:17 GMT 40.709061 -100.825012 36,000 254 444 -64
2020-09-23 02:41:13 GMT 40.711189 -100.815727 36,000 254 444 0
2020-09-23 02:41:09 GMT 40.714073 -100.802994 36,000 254 444 0
2020-09-23 02:41:06 GMT 40.715286 -100.797562 36,000 254 444 0
2020-09-23 02:41:03 GMT 40.720268 -100.775780 36,000 254 444 -64
2020-09-23 02:40:59 GMT 40.720268 -100.775780 36,000 254 445 -64
2020-09-23 02:40:52 GMT 40.723618 -100.761047 36,000 254 445 -64
2020-09-23 02:40:48 GMT 40.726505 -100.748566 36,000 254 445 0
2020-09-23 02:40:43 GMT 40.730438 -100.731201 36,000 254 445 0
2020-09-23 02:40:39 GMT 40.731674 -100.725769 36,000 254 445 0
2020-09-23 02:40:36 GMT 40.733719 -100.716911 36,000 254 445 0
2020-09-23 02:40:31 GMT 40.736698 -100.703682 36,000 254 445 0
2020-09-23 02:40:28 GMT 40.737900 -100.698486 36,000 254 445 0
2020-09-23 02:40:25 GMT 40.739632 -100.690697 36,000 254 446 0
2020-09-23 02:40:19 GMT 40.744007 -100.671471 36,025 254 446 -64
2020-09-23 02:40:16 GMT 40.745132 -100.666504 36,025 254 446 -64
2020-09-23 02:40:08 GMT 40.750168 -100.644348 36,025 254 446 0
2020-09-23 02:40:05 GMT 40.751404 -100.638916 36,025 254 447 0
2020-09-23 02:39:58 GMT 40.756207 -100.617790 36,025 254 447 -64
2020-09-23 02:39:54 GMT 40.758392 -100.608109 36,025 254 447 0
2020-09-23 02:39:46 GMT 40.763515 -100.585388 36,025 254 448 64
2020-09-23 02:39:43 GMT 40.764404 -100.581482 36,025 254 448 64
2020-09-23 02:39:32 GMT 40.773743 -100.539856 36,000 254 448 64
2020-09-23 02:39:25 GMT 40.775757 -100.530701 36,000 254 449 0
2020-09-23 02:39:16 GMT 40.780518 -100.509460 36,000 254 449 0
2020-09-23 02:39:07 GMT 40.786560 -100.482666 36,000 254 449 0
2020-09-23 02:39:04 GMT 40.787861 -100.476898 36,000 254 449 0
2020-09-23 02:38:55 GMT 40.792511 -100.456177 36,000 254 449 64
2020-09-23 02:38:52 GMT 40.794250 -100.448608 36,000 254 449 64
2020-09-23 02:38:45 GMT 40.798893 -100.428146 36,000 254 449 0
2020-09-23 02:38:42 GMT 40.800430 -100.421326 36,000 254 449 0
2020-09-23 02:38:37 GMT 40.803780 -100.406113 36,000 256 448 0
2020-09-23 02:38:33 GMT 40.806389 -100.393440 36,000 256 448 0
2020-09-23 02:38:24 GMT 40.810532 -100.371216 36,000 258 448 64
2020-09-23 02:38:12 GMT 40.815929 -100.338196 36,000 259 447 0
2020-09-23 02:38:01 GMT 40.820309 -100.311295 36,000 258 446 -64
2020-09-23 02:37:54 GMT 40.823055 -100.294250 36,000 258 446 0
2020-09-23 02:37:51 GMT 40.825150 -100.281250 36,000 258 446 0
2020-09-23 02:37:42 GMT 40.828964 -100.257545 36,000 259 446 0
2020-09-23 02:37:32 GMT 40.832611 -100.234680 36,000 259 447 0
2020-09-23 02:37:29 GMT 40.833809 -100.227211 36,000 259 447 0
2020-09-23 02:37:24 GMT 40.836460 -100.210670 35,975 259 447 64
2020-09-23 02:37:20 GMT 40.838184 -100.199684 35,975 259 447 0
2020-09-23 02:37:11 GMT 40.841537 -100.178650 35,975 259 446 0
2020-09-23 02:37:08 GMT 40.842682 -100.171448 35,975 259 447 64
2020-09-23 02:37:05 GMT 40.844650 -100.159180 35,975 259 446 0
2020-09-23 02:37:02 GMT 40.845657 -100.152771 35,975 259 446 -64
2020-09-23 02:36:58 GMT 40.847214 -100.142693 35,975 259 445 -64
2020-09-23 02:36:51 GMT 40.850006 -100.125214 36,000 259 443 -64
2020-09-23 02:36:48 GMT 40.851334 -100.116760 36,000 259 442 0
2020-09-23 02:36:44 GMT 40.853268 -100.104675 36,000 259 440 128
2020-09-23 02:36:41 GMT 40.854198 -100.098618 36,000 259 440 192
2020-09-23 02:36:38 GMT 40.855911 -100.087830 35,975 259 439 64
2020-09-23 02:36:30 GMT 40.858898 -100.068718 35,975 259 439 0
2020-09-23 02:36:27 GMT 40.860077 -100.061401 35,975 259 439 0
2020-09-23 02:36:21 GMT 40.862686 -100.044617 35,975 259 439 0
2020-09-23 02:36:16 GMT 40.864346 -100.034142 35,975 259 439 -64
2020-09-23 02:36:10 GMT 40.866852 -100.018127 35,975 259 440 -64
2020-09-23 02:36:06 GMT 40.868488 -100.007607 36,000 259 440 -64
2020-09-23 02:36:02 GMT 40.870697 -99.993469 36,000 259 440 -64
2020-09-23 02:35:58 GMT 40.871750 -99.986877 36,000 259 440 -64
2020-09-23 02:35:55 GMT 40.872849 -99.979797 36,000 259 440 0
2020-09-23 02:35:49 GMT 40.875565 -99.962227 36,000 259 440 64
2020-09-23 02:35:46 GMT 40.877243 -99.951782 36,000 259 440 64
2020-09-23 02:35:38 GMT 40.880219 -99.932579 36,000 259 440 0
2020-09-23 02:35:35 GMT 40.881317 -99.925781 36,000 259 440 0
2020-09-23 02:35:29 GMT 40.884037 -99.909233 36,000 257 440 0
2020-09-23 02:35:25 GMT 40.886131 -99.897499 36,000 257 440 -64
2020-09-23 02:35:19 GMT 40.889374 -99.880554 36,000 256 440 0
2020-09-23 02:35:14 GMT 40.891342 -99.870361 36,000 256 440 0
2020-09-23 02:35:07 GMT 40.895096 -99.851135 36,000 256 441 0
2020-09-23 02:35:03 GMT 40.896606 -99.843315 36,000 256 441 0
2020-09-23 02:34:58 GMT 40.901821 -99.815910 36,000 256 441 0
2020-09-23 02:34:53 GMT 40.901821 -99.815910 36,000 256 441 0
2020-09-23 02:34:46 GMT 40.905533 -99.796326 36,000 256 442 0
2020-09-23 02:34:43 GMT 40.906986 -99.788757 36,000 256 442 0
2020-09-23 02:34:38 GMT 40.909176 -99.777267 36,000 256 442 64
2020-09-23 02:34:35 GMT 40.910713 -99.769157 36,000 256 442 0
2020-09-23 02:34:31 GMT 40.912525 -99.759483 36,000 256 442 0
2020-09-23 02:34:28 GMT 40.914295 -99.750305 36,000 256 442 0
2020-09-23 02:34:24 GMT 40.915878 -99.741943 36,000 256 442 0
2020-09-23 02:34:20 GMT 40.918392 -99.728889 36,000 256 443 0
2020-09-23 02:34:15 GMT 40.921047 -99.714722 36,000 256 443 0
2020-09-23 02:34:10 GMT 40.922909 -99.705048 36,000 257 443 0
2020-09-23 02:34:07 GMT 40.924484 -99.696655 36,000 257 443 0
2020-09-23 02:34:04 GMT 40.926178 -99.687744 36,000 257 443 0
2020-09-23 02:34:01 GMT 40.927597 -99.680176 36,000 257 443 64
2020-09-23 02:33:57 GMT 40.929520 -99.670219 36,000 257 443 64
2020-09-23 02:33:54 GMT 40.931522 -99.659416 36,000 257 443 0
2020-09-23 02:33:50 GMT 40.932907 -99.652100 35,975 257 443 0
2020-09-23 02:33:47 GMT 40.934593 -99.643188 36,000 257 443 0
2020-09-23 02:33:43 GMT 40.936642 -99.632446 35,975 257 443 0
2020-09-23 02:33:39 GMT 40.938904 -99.620361 36,000 257 443 0
2020-09-23 02:33:33 GMT 40.941696 -99.605652 35,975 257 443 0
2020-09-23 02:33:30 GMT 40.943115 -99.598083 36,000 257 443 0
2020-09-23 02:33:27 GMT 40.944881 -99.588631 36,000 257 443 0
2020-09-23 02:33:23 GMT 40.946789 -99.578392 35,975 257 442 0
2020-09-23 02:33:20 GMT 40.948418 -99.569717 36,000 257 442 0
2020-09-23 02:33:16 GMT 40.949661 -99.563171 36,000 257 442 0
2020-09-23 02:33:11 GMT 40.951958 -99.550865 36,000 257 442 0
2020-09-23 02:33:06 GMT 40.954842 -99.535385 36,000 257 442 0
2020-09-23 02:33:02 GMT 40.957031 -99.523582 36,000 257 442 0
2020-09-23 02:32:59 GMT 40.958523 -99.515411 36,000 257 442 -64
2020-09-23 02:32:55 GMT 40.959824 -99.508354 36,000 257 442 -64
2020-09-23 02:32:50 GMT 40.962524 -99.493896 36,000 257 442 -64
2020-09-23 02:32:46 GMT 40.964722 -99.482117 36,000 257 442 0
2020-09-23 02:32:41 GMT 40.967041 -99.469528 36,000 257 442 64
2020-09-23 02:32:35 GMT 40.969803 -99.454529 36,000 257 442 0
2020-09-23 02:32:30 GMT 40.972183 -99.441711 36,000 257 442 0
2020-09-23 02:32:27 GMT 40.973652 -99.433823 36,000 257 442 0
2020-09-23 02:32:24 GMT 40.974861 -99.427269 36,000 257 442 0
2020-09-23 02:32:19 GMT 40.977375 -99.413910 36,000 257 442 0
2020-09-23 02:32:14 GMT 40.979794 -99.400742 36,000 257 442 0
2020-09-23 02:32:10 GMT 40.982262 -99.387383 36,000 257 442 0
2020-09-23 02:32:05 GMT 40.984684 -99.374519 36,000 257 442 0
2020-09-23 02:31:59 GMT 40.987473 -99.359558 35,975 257 442 0
2020-09-23 02:31:54 GMT 40.989761 -99.347229 36,000 257 442 0
2020-09-23 02:31:49 GMT 40.992783 -99.331238 36,000 257 442 0
2020-09-23 02:31:44 GMT 40.994797 -99.320435 36,000 257 442 0
2020-09-23 02:31:38 GMT 40.997578 -99.305481 35,975 257 442 0
2020-09-23 02:31:33 GMT 40.999859 -99.293121 36,000 257 442 0
2020-09-23 02:31:27 GMT 41.002792 -99.277390 35,975 257 443 64
2020-09-23 02:31:23 GMT 41.004639 -99.267395 35,975 257 443 0
2020-09-23 02:31:18 GMT 41.007912 -99.249802 35,975 257 443 0
2020-09-23 02:31:13 GMT 41.009823 -99.239502 35,975 257 443 0
2020-09-23 02:31:07 GMT 41.012894 -99.222710 35,975 257 443 0
2020-09-23 02:31:03 GMT 41.014709 -99.212975 35,975 257 443 0
2020-09-23 02:30:56 GMT 41.018200 -99.193993 35,975 257 443 0
2020-09-23 02:30:52 GMT 41.019691 -99.185883 35,975 257 443 0
2020-09-23 02:30:46 GMT 41.023090 -99.167465 35,975 257 443 64
2020-09-23 02:30:42 GMT 41.024673 -99.158791 35,975 257 443 64
2020-09-23 02:30:35 GMT 41.028671 -99.136963 35,975 257 443 0
2020-09-23 02:30:32 GMT 41.029678 -99.131409 35,975 257 443 0
2020-09-23 02:30:25 GMT 41.034492 -99.105110 35,975 257 443 0
2020-09-23 02:30:22 GMT 41.034492 -99.105110 35,975 257 443 0
2020-09-23 02:30:15 GMT 41.038078 -99.085632 35,975 257 443 -64
2020-09-23 02:30:10 GMT 41.040710 -99.071716 35,975 257 443 -64
2020-09-23 02:30:04 GMT 41.043274 -99.057739 36,000 257 443 -64
2020-09-23 02:30:00 GMT 41.045341 -99.046745 36,000 257 443 0
2020-09-23 02:29:54 GMT 41.048553 -99.029388 36,000 257 443 0
2020-09-23 02:29:50 GMT 41.050049 -99.021484 36,000 257 443 0
2020-09-23 02:29:45 GMT 41.052929 -99.005669 36,000 257 443 -64
2020-09-23 02:29:41 GMT 41.054810 -98.994812 36,000 258 444 -64
2020-09-23 02:29:33 GMT 41.057678 -98.977890 36,000 258 444 -64
2020-09-23 02:29:30 GMT 41.059479 -98.967285 36,000 258 444 -64
2020-09-23 02:29:23 GMT 41.062225 -98.950806 36,025 258 444 0
2020-09-23 02:29:20 GMT 41.064194 -98.938873 36,025 258 444 0
2020-09-23 02:29:14 GMT 41.066757 -98.923462 36,025 258 445 0
2020-09-23 02:29:09 GMT 41.068802 -98.911285 36,025 258 445 0
2020-09-23 02:29:02 GMT 41.072021 -98.891846 36,000 258 445 0
2020-09-23 02:28:59 GMT 41.073166 -98.884705 36,000 258 446 0
2020-09-23 02:28:52 GMT 41.075878 -98.868462 36,025 258 446 -64
2020-09-23 02:28:49 GMT 41.077148 -98.860474 36,025 258 446 -64
2020-09-23 02:28:46 GMT 41.078705 -98.851135 36,025 258 446 0
2020-09-23 02:28:43 GMT 41.080307 -98.841248 36,025 258 446 0
2020-09-23 02:28:40 GMT 41.081360 -98.834839 36,025 258 446 0
2020-09-23 02:28:37 GMT 41.082352 -98.829010 36,025 258 446 0
2020-09-23 02:28:31 GMT 41.085144 -98.811913 36,025 258 446 0
2020-09-23 02:28:28 GMT 41.087036 -98.800171 36,025 258 446 0
2020-09-23 02:28:21 GMT 41.089417 -98.785522 36,025 258 446 64
2020-09-23 02:28:17 GMT 41.091385 -98.773499 36,025 258 446 64
2020-09-23 02:28:10 GMT 41.094681 -98.753174 36,000 258 446 64
2020-09-23 02:28:07 GMT 41.096085 -98.744621 36,000 258 447 64
2020-09-23 02:28:01 GMT 41.098316 -98.730698 36,000 258 447 0
2020-09-23 02:27:58 GMT 41.099342 -98.724266 36,000 258 447 0
2020-09-23 02:27:55 GMT 41.100677 -98.716248 36,000 258 447 0
2020-09-23 02:27:49 GMT 41.103809 -98.696991 36,000 258 446 0
2020-09-23 02:27:46 GMT 41.105068 -98.689247 36,000 258 446 0
2020-09-23 02:27:38 GMT 41.108231 -98.669983 36,000 258 447 0
2020-09-23 02:27:35 GMT 41.109676 -98.660912 36,000 258 447 -64
2020-09-23 02:27:28 GMT 41.112610 -98.642746 36,000 258 446 0
2020-09-23 02:27:25 GMT 41.113998 -98.634155 36,000 258 446 0
2020-09-23 02:27:18 GMT 41.117077 -98.615219 36,000 258 446 0
2020-09-23 02:27:15 GMT 41.118576 -98.606079 36,000 258 446 0
2020-09-23 02:27:07 GMT 41.121597 -98.587402 36,000 258 446 0
2020-09-23 02:27:02 GMT 41.123829 -98.573769 36,000 258 446 0
2020-09-23 02:26:57 GMT 41.126015 -98.560158 36,000 258 446 0
2020-09-23 02:26:54 GMT 41.127739 -98.549736 36,000 258 446 0
2020-09-23 02:26:47 GMT 41.130672 -98.531631 36,000 258 446 0
2020-09-23 02:26:43 GMT 41.132126 -98.522522 36,000 258 446 0
2020-09-23 02:26:36 GMT 41.135185 -98.503540 36,000 258 446 0
2020-09-23 02:26:33 GMT 41.136814 -98.493683 36,000 258 446 0
2020-09-23 02:26:26 GMT 41.139748 -98.475517 36,000 258 446 0
2020-09-23 02:26:23 GMT 41.140778 -98.469116 36,000 258 446 0
2020-09-23 02:26:18 GMT 41.143112 -98.454407 36,000 258 446 0
2020-09-23 02:26:15 GMT 41.144264 -98.447487 36,000 258 446 0
2020-09-23 02:26:11 GMT 41.145950 -98.436768 36,000 258 445 64
2020-09-23 02:26:06 GMT 41.148033 -98.423950 36,000 258 445 64
2020-09-23 02:26:02 GMT 41.150116 -98.410889 35,975 258 445 64
2020-09-23 02:25:55 GMT 41.153248 -98.391434 35,975 258 445 0
2020-09-23 02:25:49 GMT 41.155746 -98.375916 35,975 258 445 0
2020-09-23 02:25:46 GMT 41.156509 -98.371147 35,975 258 445 0
2020-09-23 02:25:43 GMT 41.157673 -98.363968 35,975 258 445 0
2020-09-23 02:25:34 GMT 41.162094 -98.336502 36,000 259 444 0
2020-09-23 02:25:26 GMT 41.165306 -98.316277 35,975 259 444 0
2020-09-23 02:25:23 GMT 41.166470 -98.309036 35,975 259 444 0
2020-09-23 02:25:20 GMT 41.167957 -98.299736 35,975 259 444 0
2020-09-23 02:25:16 GMT 41.169754 -98.288574 35,975 259 444 0
2020-09-23 02:25:13 GMT 41.170940 -98.281136 35,975 259 444 0
2020-09-23 02:25:09 GMT 41.173187 -98.267029 35,975 259 444 0
2020-09-23 02:25:05 GMT 41.174244 -98.260345 35,975 259 444 0
2020-09-23 02:25:02 GMT 41.175430 -98.252930 35,975 259 444 0
2020-09-23 02:24:56 GMT 41.177719 -98.238586 35,975 259 443 -64
2020-09-23 02:24:52 GMT 41.179829 -98.225266 36,000 259 443 -64
2020-09-23 02:24:47 GMT 41.181644 -98.214088 36,000 259 443 0
2020-09-23 02:24:44 GMT 41.182983 -98.205627 36,000 259 443 0
2020-09-23 02:24:41 GMT 41.184254 -98.197670 36,000 259 443 0
2020-09-23 02:24:37 GMT 41.185776 -98.188110 36,000 259 443 0
2020-09-23 02:24:32 GMT 41.188023 -98.174011 35,975 259 443 0
2020-09-23 02:24:28 GMT 41.191795 -98.150169 36,000 259 442 0
2020-09-23 02:24:24 GMT 41.191795 -98.150169 36,000 259 442 0
2020-09-23 02:24:21 GMT 41.193096 -98.141930 36,000 259 442 0
2020-09-23 02:24:12 GMT 41.196259 -98.122070 35,975 259 442 0
2020-09-23 02:24:09 GMT 41.197449 -98.114380 35,975 259 442 0
2020-09-23 02:24:02 GMT 41.201614 -98.088135 36,000 259 442 0
2020-09-23 02:23:52 GMT 41.206085 -98.060036 36,000 259 442 -64
2020-09-23 02:23:49 GMT 41.206085 -98.060036 36,000 259 442 0
2020-09-23 02:23:42 GMT 41.209110 -98.040932 36,000 259 442 -64
2020-09-23 02:23:39 GMT 41.210369 -98.032692 36,000 259 442 -64
2020-09-23 02:23:32 GMT 41.213333 -98.013916 36,000 259 442 0
2020-09-23 02:23:29 GMT 41.214798 -98.004639 36,000 259 442 -64
2020-09-23 02:23:21 GMT 41.218189 -97.983131 36,000 259 442 -64
2020-09-23 02:23:18 GMT 41.219101 -97.977295 36,025 259 442 0
2020-09-23 02:23:10 GMT 41.222519 -97.955292 36,025 259 442 0
2020-09-23 02:23:07 GMT 41.223358 -97.949982 36,025 259 442 0
2020-09-23 02:23:00 GMT 41.226883 -97.927185 36,000 259 442 0
2020-09-23 02:22:57 GMT 41.227707 -97.921936 36,000 259 442 0
2020-09-23 02:22:54 GMT 41.229176 -97.912338 36,000 259 442 0
2020-09-23 02:22:50 GMT 41.230637 -97.902832 36,000 259 442 0
2020-09-23 02:22:47 GMT 41.231827 -97.895142 36,000 259 442 0
2020-09-23 02:22:40 GMT 41.234947 -97.875198 36,000 259 442 0
2020-09-23 02:22:37 GMT 41.236176 -97.867249 36,000 259 442 0
2020-09-23 02:22:29 GMT 41.239334 -97.847107 36,000 259 441 64
2020-09-23 02:22:26 GMT 41.240524 -97.839417 36,000 259 442 0
2020-09-23 02:22:19 GMT 41.243515 -97.820328 36,000 259 442 0
2020-09-23 02:22:15 GMT 41.244816 -97.811844 36,000 259 442 0
2020-09-23 02:22:11 GMT 41.246841 -97.798828 36,000 259 442 64
2020-09-23 02:22:08 GMT 41.248077 -97.790588 36,000 259 441 64
2020-09-23 02:22:05 GMT 41.249054 -97.784248 36,000 259 441 64
2020-09-23 02:22:00 GMT 41.251053 -97.771484 36,000 259 441 0
2020-09-23 02:21:57 GMT 41.252640 -97.760902 36,000 259 441 0
2020-09-23 02:21:54 GMT 41.253521 -97.755287 36,000 259 441 0
2020-09-23 02:21:50 GMT 41.255199 -97.744423 36,000 259 442 0
2020-09-23 02:21:45 GMT 41.257526 -97.729317 36,000 259 442 64
2020-09-23 02:21:38 GMT 41.260529 -97.709961 36,000 259 441 64
2020-09-23 02:21:34 GMT 41.261902 -97.700920 35,975 259 441 64
2020-09-23 02:21:27 GMT 41.264744 -97.682381 35,975 259 441 -64
2020-09-23 02:21:24 GMT 41.266205 -97.672791 35,975 259 441 -64
2020-09-23 02:21:19 GMT 41.267719 -97.662712 36,000 259 441 -64
2020-09-23 02:21:16 GMT 41.268837 -97.655289 36,000 259 440 0
2020-09-23 02:21:13 GMT 41.270329 -97.645798 36,000 259 440 0
2020-09-23 02:21:09 GMT 41.271912 -97.635437 36,000 259 441 64
2020-09-23 02:21:06 GMT 41.273529 -97.624878 35,975 259 441 0
2020-09-23 02:21:02 GMT 41.274673 -97.617737 35,975 259 441 0
2020-09-23 02:20:59 GMT 41.276138 -97.608215 35,975 259 440 0
2020-09-23 02:20:56 GMT 41.277237 -97.601074 35,975 259 439 0
2020-09-23 02:20:53 GMT 41.278748 -97.591003 35,975 259 439 0
2020-09-23 02:20:47 GMT 41.281128 -97.575439 35,975 259 439 0
2020-09-23 02:20:44 GMT 41.281918 -97.570145 35,975 259 439 0
2020-09-23 02:20:41 GMT 41.283176 -97.561966 35,975 259 439 0
2020-09-23 02:20:38 GMT 41.284386 -97.553787 35,975 259 439 0
2020-09-23 02:20:35 GMT 41.285614 -97.545837 35,975 259 439 0
2020-09-23 02:20:32 GMT 41.287132 -97.535812 35,975 259 439 0
2020-09-23 02:20:28 GMT 41.288956 -97.523682 35,975 259 438 0
2020-09-23 02:20:24 GMT 41.290157 -97.515770 35,975 259 438 0
2020-09-23 02:20:21 GMT 41.291325 -97.508095 35,975 259 438 0
2020-09-23 02:20:17 GMT 41.292908 -97.497795 35,975 259 438 -64
2020-09-23 02:20:14 GMT 41.294487 -97.486992 35,975 259 438 0
2020-09-23 02:20:10 GMT 41.296005 -97.476990 35,975 259 438 -64
2020-09-23 02:20:07 GMT 41.296631 -97.472763 35,975 259 438 0
2020-09-23 02:20:04 GMT 41.298027 -97.463524 35,975 259 438 0
2020-09-23 02:19:58 GMT 41.300728 -97.445610 36,000 259 438 0
2020-09-23 02:19:53 GMT 41.302074 -97.436371 36,000 259 438 0
2020-09-23 02:19:47 GMT 41.304611 -97.419556 35,975 259 437 0
2020-09-23 02:19:43 GMT 41.306545 -97.406654 35,975 259 437 0
2020-09-23 02:19:37 GMT 41.308735 -97.392174 35,975 259 437 0
2020-09-23 02:19:31 GMT 41.310883 -97.377686 35,975 259 437 0
2020-09-23 02:19:26 GMT 41.312851 -97.364746 35,975 259 437 0
2020-09-23 02:19:21 GMT 41.314972 -97.350853 35,975 259 437 0
2020-09-23 02:19:17 GMT 41.316975 -97.337685 35,975 259 437 0
2020-09-23 02:19:12 GMT 41.319122 -97.323486 36,000 259 437 0
2020-09-23 02:19:08 GMT 41.320587 -97.313721 36,000 259 437 0
2020-09-23 02:19:00 GMT 41.323166 -97.296669 36,000 259 437 0
2020-09-23 02:18:56 GMT 41.324936 -97.284851 36,000 259 437 0
2020-09-23 02:18:51 GMT 41.327179 -97.269836 36,000 259 437 0
2020-09-23 02:18:46 GMT 41.329147 -97.256714 36,000 259 437 0
2020-09-23 02:18:40 GMT 41.331161 -97.242737 35,975 259 437 0
2020-09-23 02:18:35 GMT 41.333130 -97.229614 36,000 259 437 0
2020-09-23 02:18:29 GMT 41.335327 -97.214661 36,000 259 437 0
2020-09-23 02:18:25 GMT 41.337036 -97.203033 36,000 259 436 0
2020-09-23 02:18:20 GMT 41.339317 -97.187805 36,000 259 437 0
2020-09-23 02:18:15 GMT 41.341049 -97.176270 35,975 259 437 0
2020-09-23 02:18:09 GMT 41.343227 -97.161278 36,000 259 436 0
2020-09-23 02:18:05 GMT 41.345230 -97.147858 36,000 259 437 0
2020-09-23 02:17:58 GMT 41.347607 -97.132065 36,000 259 437 0
2020-09-23 02:17:54 GMT 41.349197 -97.121582 36,000 259 437 0
2020-09-23 02:17:51 GMT 41.350296 -97.113953 36,000 259 437 0
2020-09-23 02:17:48 GMT 41.351852 -97.103699 36,000 259 437 0
2020-09-23 02:17:43 GMT 41.353237 -97.094231 36,000 259 436 0
2020-09-23 02:17:40 GMT 41.354446 -97.086060 36,000 259 436 64
2020-09-23 02:17:37 GMT 41.355743 -97.077637 36,000 259 436 64
2020-09-23 02:17:34 GMT 41.357162 -97.067932 35,975 259 436 64
2020-09-23 02:17:28 GMT 41.359909 -97.049805 35,975 259 436 0
2020-09-23 02:17:23 GMT 41.361237 -97.041138 35,975 259 436 -64
2020-09-23 02:17:19 GMT 41.363152 -97.028252 36,000 259 436 -64
2020-09-23 02:17:16 GMT 41.364132 -97.021950 36,000 259 436 -64
2020-09-23 02:17:11 GMT 41.366180 -97.007996 36,000 260 435 -64
2020-09-23 02:17:07 GMT 41.368088 -96.994858 36,000 260 435 0
2020-09-23 02:17:03 GMT 41.369476 -96.985413 36,000 260 435 64
2020-09-23 02:16:56 GMT 41.371998 -96.968330 35,975 260 435 64
2020-09-23 02:16:52 GMT 41.373394 -96.958588 35,975 260 435 0
2020-09-23 02:16:46 GMT 41.376205 -96.939392 35,975 260 435 -64
2020-09-23 02:16:42 GMT 41.377632 -96.929939 36,000 260 435 -64
2020-09-23 02:16:35 GMT 41.380096 -96.912842 36,000 260 435 0
2020-09-23 02:16:31 GMT 41.381588 -96.902908 36,000 260 435 0
2020-09-23 02:16:25 GMT 41.383850 -96.887146 36,000 260 435 0
2020-09-23 02:16:20 GMT 41.385406 -96.876633 36,000 260 435 0
2020-09-23 02:16:17 GMT 41.387035 -96.865303 36,000 260 435 -64
2020-09-23 02:16:10 GMT 41.389435 -96.849037 36,000 260 435 0
2020-09-23 02:16:05 GMT 41.391689 -96.833244 36,000 260 435 0
2020-09-23 02:16:00 GMT 41.393372 -96.821701 36,000 260 435 0
2020-09-23 02:15:54 GMT 41.396027 -96.803284 36,000 260 435 0
2020-09-23 02:15:49 GMT 41.397556 -96.792747 36,000 260 435 0
2020-09-23 02:15:46 GMT 41.399094 -96.782494 36,000 260 435 0
2020-09-23 02:15:43 GMT 41.401428 -96.766518 36,000 260 435 0
2020-09-23 02:15:39 GMT 41.401428 -96.766518 36,000 260 435 0
2020-09-23 02:15:34 GMT 41.403606 -96.751480 36,000 260 435 0
2020-09-23 02:15:30 GMT 41.404537 -96.745224 36,000 260 435 0
2020-09-23 02:15:27 GMT 41.406216 -96.733597 36,000 260 435 0
2020-09-23 02:15:22 GMT 41.407700 -96.723381 36,000 260 435 0
2020-09-23 02:15:18 GMT 41.409302 -96.712334 36,000 260 435 0
2020-09-23 02:15:12 GMT 41.411427 -96.697571 36,000 260 435 0
2020-09-23 02:15:08 GMT 41.413284 -96.684685 36,000 260 435 0
2020-09-23 02:15:01 GMT 41.415894 -96.666832 36,000 260 435 64
2020-09-23 02:14:58 GMT 41.417267 -96.657593 36,000 260 435 0
2020-09-23 02:14:53 GMT 41.419052 -96.645233 36,000 260 435 0
2020-09-23 02:14:50 GMT 41.420151 -96.637611 36,000 260 435 0
2020-09-23 02:14:47 GMT 41.421295 -96.629738 36,000 260 435 0
2020-09-23 02:14:42 GMT 41.423630 -96.613647 36,000 260 435 0
2020-09-23 02:14:39 GMT 41.424229 -96.609741 36,000 260 435 0
2020-09-23 02:14:36 GMT 41.425301 -96.602081 36,000 260 435 0
2020-09-23 02:14:33 GMT 41.428185 -96.582085 36,000 260 435 0
2020-09-23 02:14:29 GMT 41.428185 -96.582085 36,000 260 435 0
2020-09-23 02:14:26 GMT 41.429165 -96.575508 36,000 260 435 0
2020-09-23 02:14:21 GMT 41.431274 -96.560776 36,000 260 435 0
2020-09-23 02:14:15 GMT 41.433212 -96.547340 36,000 260 435 0
2020-09-23 02:14:09 GMT 41.435776 -96.529457 36,000 260 435 64
2020-09-23 02:14:05 GMT 41.437309 -96.518661 35,975 260 435 64
2020-09-23 02:14:02 GMT 41.438461 -96.510521 35,975 260 435 0
2020-09-23 02:13:59 GMT 41.439499 -96.503143 35,975 260 435 0
2020-09-23 02:13:55 GMT 41.441036 -96.492599 35,975 260 435 0
2020-09-23 02:13:51 GMT 41.442478 -96.482384 35,975 260 435 0
2020-09-23 02:13:48 GMT 41.443359 -96.476318 35,975 260 435 0
2020-09-23 02:13:45 GMT 41.445038 -96.464493 35,975 260 435 0
2020-09-23 02:13:40 GMT 41.446289 -96.455528 35,975 260 435 0
2020-09-23 02:13:37 GMT 41.447479 -96.447105 35,975 260 435 0
2020-09-23 02:13:34 GMT 41.448811 -96.437668 35,975 260 435 0
2020-09-23 02:13:31 GMT 41.450226 -96.427689 35,975 260 435 0
2020-09-23 02:13:28 GMT 41.451042 -96.421890 35,975 260 435 0
2020-09-23 02:13:24 GMT 41.452675 -96.410072 35,975 260 435 0
2020-09-23 02:13:17 GMT 41.454895 -96.394539 35,975 260 435 0
2020-09-23 02:13:13 GMT 41.456490 -96.382996 35,975 260 435 0
2020-09-23 02:13:08 GMT 41.458694 -96.367516 35,975 260 435 -64
2020-09-23 02:13:03 GMT 41.460308 -96.355911 36,000 260 434 -64
2020-09-23 02:13:00 GMT 41.461658 -96.346199 36,000 260 434 -64
2020-09-23 02:12:57 GMT 41.462357 -96.341476 36,000 260 434 -64
2020-09-23 02:12:53 GMT 41.464142 -96.328873 36,000 260 434 -64
2020-09-23 02:12:47 GMT 41.466202 -96.314201 36,000 260 434 0
2020-09-23 02:12:42 GMT 41.468033 -96.301033 36,000 260 434 0
2020-09-23 02:12:38 GMT 41.469315 -96.292107 36,000 260 434 0
2020-09-23 02:12:35 GMT 41.470871 -96.281120 36,000 260 434 -64
2020-09-23 02:12:32 GMT 41.471947 -96.273514 36,000 260 434 -64
2020-09-23 02:12:27 GMT 41.473763 -96.260353 36,000 260 434 -64
2020-09-23 02:12:21 GMT 41.475769 -96.246162 36,000 260 434 -64
2020-09-23 02:12:18 GMT 41.476822 -96.238548 36,000 260 434 0
2020-09-23 02:12:15 GMT 41.477875 -96.230934 36,000 260 434 0
2020-09-23 02:12:10 GMT 41.479488 -96.219345 36,000 260 434 0
2020-09-23 02:12:06 GMT 41.481537 -96.204903 36,000 260 434 0
2020-09-23 02:12:00 GMT 41.483505 -96.190987 36,000 260 434 0
2020-09-23 02:11:54 GMT 41.485680 -96.175529 36,000 260 435 0
2020-09-23 02:11:50 GMT 41.487263 -96.164162 36,000 260 435 0
2020-09-23 02:11:46 GMT 41.488815 -96.153152 36,000 260 435 0
2020-09-23 02:11:40 GMT 41.491058 -96.136803 36,000 260 435 0
2020-09-23 02:11:37 GMT 41.492294 -96.128120 36,000 260 435 0
2020-09-23 02:11:34 GMT 41.492943 -96.123154 36,000 260 436 0
2020-09-23 02:11:29 GMT 41.494804 -96.109421 36,000 260 435 0
2020-09-23 02:11:26 GMT 41.495819 -96.102028 36,000 260 435 0
2020-09-23 02:11:23 GMT 41.497009 -96.093353 36,000 260 435 0
2020-09-23 02:11:19 GMT 41.498703 -96.080994 36,000 260 435 64
2020-09-23 02:11:16 GMT 41.499527 -96.074944 36,000 260 435 64
2020-09-23 02:11:13 GMT 41.500351 -96.069138 36,000 260 435 64
2020-09-23 02:11:06 GMT 41.503326 -96.047600 36,000 260 435 0
2020-09-23 02:11:02 GMT 41.504425 -96.039421 36,000 260 435 -64
2020-09-23 02:10:58 GMT 41.506027 -96.027809 36,000 260 435 -64
2020-09-23 02:10:53 GMT 41.508305 -96.011505 36,000 260 435 0
2020-09-23 02:10:48 GMT 41.509979 -95.999428 36,000 260 434 0
2020-09-23 02:10:42 GMT 41.511887 -95.985504 36,000 260 434 64
2020-09-23 02:10:37 GMT 41.513702 -95.972092 36,000 260 434 64
2020-09-23 02:10:34 GMT 41.514774 -95.964493 36,000 260 434 64
2020-09-23 02:10:31 GMT 41.515915 -95.956085 36,000 260 434 64
2020-09-23 02:10:26 GMT 41.517426 -95.945351 35,975 260 434 0
2020-09-23 02:10:23 GMT 41.518497 -95.937469 36,000 260 433 0
2020-09-23 02:10:16 GMT 41.521225 -95.917763 36,000 260 433 0
2020-09-23 02:10:11 GMT 41.523148 -95.903900 36,000 260 433 0
2020-09-23 02:10:06 GMT 41.524876 -95.891289 36,000 260 433 0
2020-09-23 02:10:03 GMT 41.525940 -95.883492 36,000 260 433 64
2020-09-23 02:10:00 GMT 41.526947 -95.876373 36,000 260 432 64
2020-09-23 02:09:56 GMT 41.528778 -95.863014 35,975 260 432 0
2020-09-23 02:09:53 GMT 41.529602 -95.857025 35,975 260 432 0
2020-09-23 02:09:50 GMT 41.530788 -95.848366 35,975 260 432 -64
2020-09-23 02:09:43 GMT 41.533401 -95.829308 36,000 260 431 -64
2020-09-23 02:09:40 GMT 41.534233 -95.823006 36,000 260 431 0
2020-09-23 02:09:33 GMT 41.536835 -95.803963 36,000 260 430 0
2020-09-23 02:09:30 GMT 41.538143 -95.794525 36,000 260 430 0
2020-09-23 02:09:22 GMT 41.540703 -95.775742 36,000 260 430 -64
2020-09-23 02:09:18 GMT 41.541916 -95.766884 36,000 260 430 -64
2020-09-23 02:09:12 GMT 41.544388 -95.748596 36,000 260 430 -64
2020-09-23 02:09:08 GMT 41.545731 -95.738693 36,000 260 430 64
2020-09-23 02:09:04 GMT 41.547272 -95.727249 36,000 260 430 0
2020-09-23 02:09:01 GMT 41.548096 -95.721252 36,000 260 430 0
2020-09-23 02:08:58 GMT 41.549175 -95.713402 36,000 260 430 0
2020-09-23 02:08:52 GMT 41.551502 -95.696220 36,000 260 430 0
2020-09-23 02:08:48 GMT 41.552536 -95.688362 36,000 260 430 0
2020-09-23 02:08:41 GMT 41.555321 -95.667732 35,975 260 430 0
2020-09-23 02:08:38 GMT 41.556335 -95.660141 35,975 260 430 0
2020-09-23 02:08:31 GMT 41.558441 -95.644737 35,975 260 430 0
2020-09-23 02:08:28 GMT 41.559742 -95.635094 36,000 260 429 0
2020-09-23 02:08:21 GMT 41.561977 -95.618423 36,000 260 428 0
2020-09-23 02:08:18 GMT 41.563141 -95.609863 36,000 260 427 0
2020-09-23 02:08:15 GMT 41.564117 -95.602325 36,000 260 427 0
2020-09-23 02:08:10 GMT 41.566223 -95.586800 36,000 260 425 0
2020-09-23 02:08:07 GMT 41.567184 -95.579308 36,000 260 424 0
2020-09-23 02:07:59 GMT 41.569660 -95.560555 36,000 260 422 0
2020-09-23 02:07:56 GMT 41.571121 -95.549843 36,000 260 421 -64
2020-09-23 02:07:51 GMT 41.572685 -95.538071 36,000 260 419 -64
2020-09-23 02:07:48 GMT 41.574463 -95.524628 36,000 260 418 -64
2020-09-23 02:07:45 GMT 41.574463 -95.524628 36,000 260 417 0
2020-09-23 02:07:41 GMT 41.575851 -95.514496 36,000 260 416 -64
2020-09-23 02:07:38 GMT 41.576874 -95.506706 36,025 260 415 -64
2020-09-23 02:07:35 GMT 41.577896 -95.499405 36,025 260 415 -64
2020-09-23 02:07:31 GMT 41.579269 -95.488853 36,000 260 414 64
2020-09-23 02:07:28 GMT 41.580322 -95.481056 36,000 260 414 64
2020-09-23 02:07:25 GMT 41.581112 -95.475281 36,000 260 414 64
2020-09-23 02:07:21 GMT 41.582878 -95.462250 36,000 260 414 0
2020-09-23 02:07:18 GMT 41.583847 -95.454712 36,000 260 414 0
2020-09-23 02:07:08 GMT 41.586685 -95.433617 36,000 260 413 0
2020-09-23 02:07:05 GMT 41.587921 -95.424309 36,000 260 413 0
2020-09-23 02:06:59 GMT 41.590164 -95.407272 36,000 260 413 0
2020-09-23 02:06:55 GMT 41.591167 -95.399780 36,000 260 413 0
2020-09-23 02:06:47 GMT 41.594051 -95.377747 36,000 260 412 0
2020-09-23 02:06:41 GMT 41.595634 -95.365990 36,000 260 412 0
2020-09-23 02:06:36 GMT 41.597496 -95.352005 36,000 260 411 0
2020-09-23 02:06:33 GMT 41.598335 -95.345741 36,000 261 411 0
2020-09-23 02:06:27 GMT 41.600464 -95.329552 36,000 261 410 0
2020-09-23 02:06:23 GMT 41.601608 -95.320816 36,000 261 410 64
2020-09-23 02:06:16 GMT 41.604431 -95.299431 36,000 261 410 0
2020-09-23 02:06:10 GMT 41.606155 -95.286469 36,000 261 408 0
2020-09-23 02:06:05 GMT 41.607834 -95.273819 36,000 261 409 0
2020-09-23 02:06:02 GMT 41.609161 -95.263885 36,000 261 409 0
2020-09-23 02:05:58 GMT 41.610306 -95.255150 36,000 261 409 0
2020-09-23 02:05:54 GMT 41.611183 -95.248207 35,975 261 409 0
2020-09-23 02:05:51 GMT 41.612320 -95.239792 35,975 260 408 0
2020-09-23 02:05:45 GMT 41.614491 -95.223167 35,975 261 408 0
2020-09-23 02:05:40 GMT 41.617538 -95.199905 36,000 261 408 0
2020-09-23 02:05:35 GMT 41.617538 -95.199905 35,975 261 408 0
2020-09-23 02:05:32 GMT 41.618351 -95.193726 35,975 261 408 0
2020-09-23 02:05:24 GMT 41.620880 -95.174438 36,000 261 406 0
2020-09-23 02:05:21 GMT 41.621891 -95.166512 36,000 261 406 0
2020-09-23 02:05:15 GMT 41.625057 -95.142303 35,975 261 406 0
2020-09-23 02:05:06 GMT 41.626919 -95.127998 35,975 261 405 0
2020-09-23 02:05:01 GMT 41.628342 -95.116943 35,975 261 406 0
2020-09-23 02:04:54 GMT 41.630966 -95.097015 35,975 261 404 0
2020-09-23 02:04:51 GMT 41.631664 -95.091591 35,975 261 404 0
2020-09-23 02:04:45 GMT 41.633434 -95.077789 35,975 261 403 0
2020-09-23 02:04:41 GMT 41.634830 -95.066742 35,975 261 404 0
2020-09-23 02:04:36 GMT 41.636719 -95.052277 35,975 261 403 0
2020-09-23 02:04:33 GMT 41.637543 -95.045593 35,975 261 403 0
2020-09-23 02:04:30 GMT 41.638321 -95.039726 35,975 261 403 0
2020-09-23 02:04:25 GMT 41.639812 -95.028229 35,975 261 403 0
2020-09-23 02:04:20 GMT 41.641396 -95.015709 35,975 261 403 0
2020-09-23 02:04:15 GMT 41.643082 -95.002708 35,975 261 402 0
2020-09-23 02:04:12 GMT 41.644043 -94.995155 35,975 261 402 0
2020-09-23 02:04:09 GMT 41.644775 -94.989479 35,975 261 402 0
2020-09-23 02:04:02 GMT 41.647446 -94.968697 35,975 261 402 0
2020-09-23 02:03:59 GMT 41.647915 -94.965309 35,975 261 402 0
2020-09-23 02:03:55 GMT 41.649590 -94.952087 35,975 261 401 0
2020-09-23 02:03:51 GMT 41.650845 -94.942574 35,975 261 401 0
2020-09-23 02:03:44 GMT 41.652695 -94.928177 35,975 261 401 0
2020-09-23 02:03:41 GMT 41.654011 -94.918167 36,000 261 401 0
2020-09-23 02:03:38 GMT 41.654572 -94.913765 35,975 261 401 0
2020-09-23 02:03:34 GMT 41.656059 -94.902328 36,000 261 400 0
2020-09-23 02:03:28 GMT 41.657730 -94.889168 36,000 261 400 0
2020-09-23 02:03:24 GMT 41.659180 -94.877930 36,000 261 400 0
2020-09-23 02:03:18 GMT 41.660900 -94.864326 36,000 261 400 0
2020-09-23 02:03:14 GMT 41.662262 -94.853584 36,000 261 400 0
2020-09-23 02:03:10 GMT 41.663727 -94.841850 36,000 261 400 0
2020-09-23 02:03:07 GMT 41.664345 -94.837242 36,000 261 400 0
2020-09-23 02:03:03 GMT 41.665421 -94.828491 36,000 261 400 0
2020-09-23 02:02:59 GMT 41.666885 -94.817253 36,000 261 400 0
2020-09-23 02:02:56 GMT 41.667511 -94.812141 36,000 261 400 0
2020-09-23 02:02:53 GMT 41.668720 -94.802620 36,000 261 400 -64
2020-09-23 02:02:49 GMT 41.670181 -94.791222 36,000 261 400 0
2020-09-23 02:02:46 GMT 41.670631 -94.787544 36,000 261 400 -64
2020-09-23 02:02:43 GMT 41.671795 -94.778542 36,000 261 400 -64
2020-09-23 02:02:36 GMT 41.673752 -94.763199 36,000 261 400 0
2020-09-23 02:02:33 GMT 41.675938 -94.745903 36,000 261 400 0
2020-09-23 02:02:30 GMT 41.676727 -94.739601 36,000 261 400 0
2020-09-23 02:02:27 GMT 41.676727 -94.739601 36,000 261 400 0
2020-09-23 02:02:23 GMT 41.678146 -94.728676 36,000 261 400 0
2020-09-23 02:02:18 GMT 41.679657 -94.716690 36,000 261 400 0
2020-09-23 02:02:15 GMT 41.680267 -94.711861 36,000 261 400 0
2020-09-23 02:02:12 GMT 41.681305 -94.703583 36,000 261 400 0
2020-09-23 02:02:06 GMT 41.682999 -94.690163 36,000 261 400 -64
2020-09-23 02:02:02 GMT 41.684372 -94.678993 36,000 261 400 0
2020-09-23 02:01:59 GMT 41.685387 -94.671234 36,000 261 400 0
2020-09-23 02:01:55 GMT 41.686550 -94.661713 36,000 261 400 0
2020-09-23 02:01:51 GMT 41.687622 -94.653221 36,000 261 400 0
2020-09-23 02:01:48 GMT 41.688721 -94.644470 36,000 261 400 0
2020-09-23 02:01:45 GMT 41.689625 -94.637123 36,000 261 400 0
2020-09-23 02:01:42 GMT 41.690689 -94.628868 36,000 261 400 0
2020-09-23 02:01:37 GMT 41.692291 -94.615944 36,000 261 400 0
2020-09-23 02:01:34 GMT 41.692883 -94.611061 36,000 261 400 -64
2020-09-23 02:01:31 GMT 41.693859 -94.603523 36,000 261 400 0
2020-09-23 02:01:27 GMT 41.695038 -94.593781 36,000 261 400 64
2020-09-23 02:01:24 GMT 41.695908 -94.586983 36,000 261 400 -64
2020-09-23 02:01:21 GMT 41.696960 -94.578743 36,000 261 399 -64
2020-09-23 02:01:18 GMT 41.698196 -94.568748 36,000 261 399 64
2020-09-23 02:01:14 GMT 41.699074 -94.561943 36,000 261 399 64
2020-09-23 02:01:11 GMT 41.700027 -94.554398 36,000 261 399 0
2020-09-23 02:01:07 GMT 41.701355 -94.543678 36,000 261 399 0
2020-09-23 02:01:04 GMT 41.702099 -94.537605 36,000 261 399 0
2020-09-23 02:01:01 GMT 41.703217 -94.528603 36,000 261 399 0
2020-09-23 02:00:56 GMT 41.704559 -94.517937 36,000 261 399 0
2020-09-23 02:00:53 GMT 41.705219 -94.512573 36,000 261 399 0
2020-09-23 02:00:50 GMT 41.706242 -94.504074 36,000 261 399 0
2020-09-23 02:00:44 GMT 41.708199 -94.487976 36,000 261 399 0
2020-09-23 02:00:40 GMT 41.709362 -94.478523 36,000 261 398 64
2020-09-23 02:00:36 GMT 41.710831 -94.466629 36,000 261 398 0
2020-09-23 02:00:33 GMT 41.711411 -94.461983 36,000 261 398 0
2020-09-23 02:00:30 GMT 41.712341 -94.454704 35,975 261 398 0
2020-09-23 02:00:25 GMT 41.714157 -94.439949 36,000 261 398 0
2020-09-23 02:00:22 GMT 41.714722 -94.435356 36,000 261 397 0
2020-09-23 02:00:19 GMT 41.715500 -94.429298 36,000 261 398 0
2020-09-23 02:00:12 GMT 41.717693 -94.411583 36,000 261 398 64
2020-09-23 02:00:09 GMT 41.718624 -94.404045 35,975 261 397 0
2020-09-23 02:00:02 GMT 41.721558 -94.380096 35,975 261 397 64
2020-09-23 01:59:59 GMT 41.721558 -94.380096 35,975 261 397 0
2020-09-23 01:59:52 GMT 41.723877 -94.361008 35,975 261 397 0
2020-09-23 01:59:49 GMT 41.724586 -94.355438 35,975 261 397 0
2020-09-23 01:59:41 GMT 41.726959 -94.335831 35,975 261 397 -64
2020-09-23 01:59:38 GMT 41.727676 -94.329735 36,000 261 397 -64
2020-09-23 01:59:32 GMT 41.729782 -94.312569 36,000 261 397 0
2020-09-23 01:59:28 GMT 41.730591 -94.306068 36,000 261 396 0
2020-09-23 01:59:21 GMT 41.732777 -94.288177 36,000 261 396 0
2020-09-23 01:59:18 GMT 41.733662 -94.281219 35,975 261 396 64
2020-09-23 01:59:10 GMT 41.735870 -94.263130 35,975 261 396 -64
2020-09-23 01:59:07 GMT 41.736828 -94.255417 36,000 261 396 -64
2020-09-23 01:59:01 GMT 41.739716 -94.231972 35,975 261 395 0
2020-09-23 01:58:58 GMT 41.739716 -94.231972 36,000 261 395 0
2020-09-23 01:58:48 GMT 41.742783 -94.206451 36,000 261 395 -64
2020-09-23 01:58:39 GMT 41.745026 -94.188164 36,000 261 395 64
2020-09-23 01:58:36 GMT 41.745953 -94.180428 36,000 261 395 64
2020-09-23 01:58:30 GMT 41.748138 -94.162384 35,975 261 395 0
2020-09-23 01:58:27 GMT 41.748688 -94.158073 35,975 261 395 0
2020-09-23 01:58:19 GMT 41.751118 -94.137825 35,975 261 395 -64
2020-09-23 01:58:16 GMT 41.751678 -94.133034 35,975 261 395 -64
2020-09-23 01:58:07 GMT 41.754612 -94.108696 36,000 261 395 64
2020-09-23 01:57:56 GMT 41.757751 -94.082733 35,975 261 394 0
2020-09-23 01:57:46 GMT 41.760571 -94.059196 35,975 261 394 64
2020-09-23 01:57:36 GMT 41.763474 -94.034851 35,975 261 393 0
2020-09-23 01:57:26 GMT 41.766541 -94.009201 35,975 261 394 0
2020-09-23 01:57:15 GMT 41.769367 -93.985611 35,975 261 393 -64
2020-09-23 01:57:05 GMT 41.772488 -93.959930 35,975 261 394 0
2020-09-23 01:56:55 GMT 41.775421 -93.935211 35,975 261 393 0
2020-09-23 01:56:44 GMT 41.778446 -93.909981 36,000 261 393 -64
2020-09-23 01:56:36 GMT 41.781006 -93.888596 35,975 261 393 0
2020-09-23 01:56:33 GMT 41.781464 -93.884544 35,975 261 393 0
2020-09-23 01:56:24 GMT 41.784348 -93.860321 36,000 262 393 64
2020-09-23 01:56:13 GMT 41.787338 -93.834801 36,000 262 393 -64
2020-09-23 01:56:10 GMT 41.788330 -93.826424 36,000 262 394 -64
2020-09-23 01:56:03 GMT 41.790176 -93.810722 36,000 262 393 64
2020-09-23 01:55:51 GMT 41.793247 -93.784279 35,975 262 394 0
2020-09-23 01:55:42 GMT 41.796089 -93.760201 35,975 262 394 0
2020-09-23 01:55:33 GMT 41.798538 -93.739532 35,975 262 393 0
2020-09-23 01:55:30 GMT 41.799271 -93.733040 36,000 262 393 0
2020-09-23 01:55:26 GMT 41.800697 -93.721046 36,000 262 390 0
2020-09-23 01:55:21 GMT 41.802292 -93.707451 35,975 262 390 0
2020-09-23 01:55:13 GMT 41.804283 -93.690514 36,000 262 389 64
2020-09-23 01:55:09 GMT 41.805405 -93.680984 36,000 261 389 0
2020-09-23 01:55:02 GMT 41.807236 -93.665314 36,000 262 388 0
2020-09-23 01:54:59 GMT 41.808052 -93.658447 36,000 262 388 0
2020-09-23 01:54:55 GMT 41.809170 -93.648933 36,000 262 388 -64
2020-09-23 01:54:49 GMT 41.811031 -93.633026 36,000 262 389 -64
2020-09-23 01:54:46 GMT 41.811859 -93.625862 36,000 262 389 -64
2020-09-23 01:54:41 GMT 41.813126 -93.614952 36,025 262 389 -128
2020-09-23 01:54:38 GMT 41.813965 -93.607758 36,025 262 390 -64
2020-09-23 01:54:31 GMT 41.815796 -93.592033 36,025 262 391 0
2020-09-23 01:54:27 GMT 41.817036 -93.581482 36,000 262 393 64
2020-09-23 01:54:19 GMT 41.819317 -93.561234 36,000 262 396 128
2020-09-23 01:54:16 GMT 41.821507 -93.542259 35,975 262 401 0
2020-09-23 01:54:11 GMT 41.821507 -93.542259 35,950 262 400 64
2020-09-23 01:54:08 GMT 41.822205 -93.536415 35,950 262 401 0
2020-09-23 01:54:05 GMT 41.822857 -93.530510 35,975 262 402 0
2020-09-23 01:53:59 GMT 41.824577 -93.515755 35,975 262 402 0
2020-09-23 01:53:56 GMT 41.825882 -93.504700 36,000 262 402 0
2020-09-23 01:53:49 GMT 41.827469 -93.490967 35,975 262 401 0
2020-09-23 01:53:46 GMT 41.828293 -93.483788 35,975 262 401 0
2020-09-23 01:53:42 GMT 41.829712 -93.471306 35,975 262 401 0
2020-09-23 01:53:39 GMT 41.830490 -93.464691 35,975 262 401 64
2020-09-23 01:53:35 GMT 41.831982 -93.451431 35,975 262 401 64
2020-09-23 01:53:27 GMT 41.834061 -93.433479 35,975 262 401 64
2020-09-23 01:53:23 GMT 41.834911 -93.426140 35,975 262 401 0
2020-09-23 01:53:19 GMT 41.836441 -93.412628 35,975 262 401 0
2020-09-23 01:53:15 GMT 41.836964 -93.407997 35,975 262 401 0
2020-09-23 01:53:12 GMT 41.837894 -93.399887 35,975 262 401 0
2020-09-23 01:53:06 GMT 41.839802 -93.382706 35,975 262 401 0
2020-09-23 01:53:03 GMT 41.840733 -93.374908 35,975 262 400 0
2020-09-23 01:52:55 GMT 41.842758 -93.356758 35,975 262 400 0
2020-09-23 01:52:51 GMT 41.843811 -93.347458 35,975 262 400 0
2020-09-23 01:52:48 GMT 41.844784 -93.338882 35,975 262 400 0
2020-09-23 01:52:45 GMT 41.845432 -93.333267 35,975 262 400 0
2020-09-23 01:52:42 GMT 41.846603 -93.322990 35,975 262 400 0
2020-09-23 01:52:34 GMT 41.848434 -93.306824 35,975 262 400 0
2020-09-23 01:52:31 GMT 41.849392 -93.298073 35,975 262 400 0
2020-09-23 01:52:28 GMT 41.850266 -93.290718 35,975 262 399 0
2020-09-23 01:52:24 GMT 41.851135 -93.282661 35,975 262 399 0
2020-09-23 01:52:21 GMT 41.852280 -93.272614 35,975 262 399 0
2020-09-23 01:52:17 GMT 41.853561 -93.261375 35,975 262 399 0
2020-09-23 01:52:14 GMT 41.854233 -93.255272 35,975 262 399 -64
2020-09-23 01:52:10 GMT 41.855350 -93.245758 35,975 262 399 0
2020-09-23 01:52:03 GMT 41.857121 -93.230110 36,000 262 399 0
2020-09-23 01:51:59 GMT 41.858322 -93.219368 36,000 262 399 -64
2020-09-23 01:51:56 GMT 41.859306 -93.210564 36,000 262 400 -64
2020-09-23 01:51:53 GMT 41.859959 -93.204689 36,000 262 400 -64
2020-09-23 01:51:46 GMT 41.862053 -93.186096 36,000 262 399 -64
2020-09-23 01:51:42 GMT 41.862892 -93.178497 36,000 262 399 0
2020-09-23 01:51:37 GMT 41.864380 -93.165337 36,000 262 399 -64
2020-09-23 01:51:34 GMT 41.865776 -93.152824 36,000 262 399 -64
2020-09-23 01:51:31 GMT 41.865776 -93.152824 36,000 262 399 -64
2020-09-23 01:51:28 GMT 41.866837 -93.143524 36,000 262 400 0
2020-09-23 01:51:25 GMT 41.867386 -93.138657 36,025 262 400 -64
2020-09-23 01:51:22 GMT 41.868523 -93.128357 36,000 262 400 0
2020-09-23 01:51:17 GMT 41.869858 -93.116371 36,025 262 400 -64
2020-09-23 01:51:14 GMT 41.870956 -93.106819 36,025 262 400 0
2020-09-23 01:51:10 GMT 41.871506 -93.101952 36,000 262 400 64
2020-09-23 01:51:04 GMT 41.874298 -93.076935 36,025 262 400 -128
2020-09-23 01:51:01 GMT 41.874298 -93.076935 36,025 262 401 -64
2020-09-23 01:50:56 GMT 41.875462 -93.066658 36,025 262 401 -64
2020-09-23 01:50:53 GMT 41.876297 -93.059052 36,025 262 401 0
2020-09-23 01:50:50 GMT 41.877090 -93.051949 36,025 262 400 0
2020-09-23 01:50:45 GMT 41.878372 -93.040657 36,025 262 401 0
2020-09-23 01:50:42 GMT 41.879379 -93.031601 36,025 262 401 0
2020-09-23 01:50:39 GMT 41.880020 -93.025902 36,025 262 401 0
2020-09-23 01:50:35 GMT 41.881371 -93.013641 36,025 262 401 64
2020-09-23 01:50:30 GMT 41.882858 -93.000137 36,025 262 401 0
2020-09-23 01:50:23 GMT 41.884827 -92.982475 36,000 262 402 0
2020-09-23 01:50:19 GMT 41.885654 -92.974548 36,000 262 401 64
2020-09-23 01:50:14 GMT 41.887024 -92.962311 36,025 262 401 64
2020-09-23 01:50:09 GMT 41.888542 -92.948486 36,025 262 401 64
2020-09-23 01:50:01 GMT 41.890503 -92.930542 36,000 262 402 64
2020-09-23 01:49:58 GMT 41.891281 -92.923424 36,000 262 402 64
2020-09-23 01:49:54 GMT 41.892654 -92.911125 36,000 262 402 64
2020-09-23 01:49:47 GMT 41.894302 -92.896149 35,975 262 402 0
2020-09-23 01:49:41 GMT 41.895859 -92.881851 35,975 262 401 0
2020-09-23 01:49:38 GMT 41.896828 -92.872986 35,975 262 401 64
2020-09-23 01:49:33 GMT 41.898270 -92.859955 35,975 262 401 0
2020-09-23 01:49:27 GMT 41.899704 -92.846954 35,975 262 401 0
2020-09-23 01:49:20 GMT 41.901810 -92.827789 35,975 262 399 64
2020-09-23 01:49:17 GMT 41.902508 -92.821381 35,975 262 401 -64
2020-09-23 01:49:12 GMT 41.904007 -92.807632 35,975 262 400 0
2020-09-23 01:49:08 GMT 41.904556 -92.802513 35,975 262 400 0
2020-09-23 01:49:05 GMT 41.905441 -92.794167 35,975 262 400 0
2020-09-23 01:48:59 GMT 41.907207 -92.778008 35,975 262 400 0
2020-09-23 01:48:55 GMT 41.908279 -92.767982 35,975 262 399 0
2020-09-23 01:48:49 GMT 41.909912 -92.753014 35,975 262 399 64
2020-09-23 01:48:45 GMT 41.911026 -92.742752 35,975 262 399 0
2020-09-23 01:48:39 GMT 41.912518 -92.729080 35,975 262 399 64
2020-09-23 01:48:34 GMT 41.913712 -92.717804 35,975 262 399 64
2020-09-23 01:48:30 GMT 41.915077 -92.705132 35,975 262 399 64
2020-09-23 01:48:27 GMT 41.915634 -92.699951 35,975 262 398 0
2020-09-23 01:48:23 GMT 41.916660 -92.690437 35,950 262 398 0
2020-09-23 01:48:17 GMT 41.918198 -92.676292 35,975 262 398 -64
2020-09-23 01:48:13 GMT 41.919250 -92.666740 35,975 262 398 -64
2020-09-23 01:48:09 GMT 41.920475 -92.655052 35,975 262 398 -64
2020-09-23 01:48:05 GMT 41.921268 -92.647964 36,000 262 398 -64
2020-09-23 01:48:02 GMT 41.922134 -92.639717 35,975 262 398 -128
2020-09-23 01:47:56 GMT 41.923782 -92.624329 36,000 262 396 -64
2020-09-23 01:47:52 GMT 41.924900 -92.613853 36,000 262 396 -64
2020-09-23 01:47:46 GMT 41.926208 -92.601700 36,000 262 396 -64
2020-09-23 01:47:42 GMT 41.927364 -92.590988 36,000 262 396 -64
2020-09-23 01:47:37 GMT 41.930054 -92.565681 36,025 262 396 0
2020-09-23 01:47:32 GMT 41.931744 -92.549850 36,025 262 396 0
2020-09-23 01:47:26 GMT 41.931744 -92.549850 36,025 262 396 0
2020-09-23 01:47:21 GMT 41.932892 -92.539154 36,000 262 396 0
2020-09-23 01:47:14 GMT 41.934673 -92.522324 36,000 262 397 0
2020-09-23 01:47:10 GMT 41.935604 -92.513313 36,000 262 397 0
2020-09-23 01:47:04 GMT 41.937332 -92.496956 36,000 262 397 0
2020-09-23 01:47:01 GMT 41.938213 -92.488663 36,000 262 397 0
2020-09-23 01:46:52 GMT 41.940399 -92.468155 36,025 262 397 64
2020-09-23 01:46:49 GMT 41.940960 -92.463043 36,000 262 398 64
2020-09-23 01:46:43 GMT 41.942963 -92.443947 36,000 262 397 64
2020-09-23 01:46:40 GMT 41.943558 -92.438591 36,000 262 397 64
2020-09-23 01:46:32 GMT 41.945801 -92.417564 36,000 262 398 64
2020-09-23 01:46:29 GMT 41.946220 -92.413223 36,000 262 398 0
2020-09-23 01:46:19 GMT 41.948914 -92.387779 36,000 262 398 64
2020-09-23 01:46:09 GMT 41.951614 -92.362373 36,000 263 398 0
2020-09-23 01:46:00 GMT 41.953720 -92.342087 35,975 263 398 64
2020-09-23 01:45:57 GMT 41.954498 -92.334534 35,975 263 398 64
2020-09-23 01:45:48 GMT 41.957108 -92.309563 35,975 263 398 -64
2020-09-23 01:45:40 GMT 41.958893 -92.292458 36,000 263 397 -64
2020-09-23 01:45:37 GMT 41.959579 -92.286118 36,000 263 397 0
2020-09-23 01:45:30 GMT 41.961685 -92.265617 36,000 263 397 0
2020-09-23 01:45:26 GMT 41.962326 -92.259544 36,000 263 397 0
2020-09-23 01:45:20 GMT 41.963974 -92.243645 36,000 263 397 0
2020-09-23 01:45:17 GMT 41.966995 -92.214684 36,000 263 396 64
2020-09-23 01:45:09 GMT 41.966995 -92.214684 35,975 263 396 64
2020-09-23 01:45:05 GMT 41.967632 -92.208313 36,000 263 396 0
2020-09-23 01:45:00 GMT 41.969193 -92.192955 36,000 263 396 0
2020-09-23 01:44:56 GMT 41.970146 -92.183723 36,000 263 396 0
2020-09-23 01:44:47 GMT 41.972149 -92.164246 35,975 263 396 0
2020-09-23 01:44:44 GMT 41.972809 -92.158127 35,975 263 396 0
2020-09-23 01:44:38 GMT 41.974850 -92.138184 36,000 263 396 -64
2020-09-23 01:44:35 GMT 41.975407 -92.132820 36,000 263 396 -64
2020-09-23 01:44:27 GMT 41.977131 -92.115761 36,000 263 396 0
2020-09-23 01:44:24 GMT 41.978294 -92.104523 36,000 263 396 0
2020-09-23 01:44:18 GMT 41.979504 -92.092644 36,000 263 396 0
2020-09-23 01:44:15 GMT 41.980362 -92.084595 36,000 263 396 0
2020-09-23 01:44:12 GMT 41.980995 -92.078270 36,000 263 396 0
2020-09-23 01:44:08 GMT 41.982159 -92.066582 36,000 263 396 -64
2020-09-23 01:44:04 GMT 41.985371 -92.035156 36,000 263 396 0
2020-09-23 01:43:55 GMT 41.985371 -92.035156 36,000 263 396 -64
2020-09-23 01:43:52 GMT 41.985855 -92.030533 36,000 263 396 0
2020-09-23 01:43:46 GMT 41.987411 -92.015427 36,000 263 396 0
2020-09-23 01:43:43 GMT 41.988419 -92.005440 36,000 263 396 0
2020-09-23 01:43:35 GMT 41.990433 -91.985214 36,000 263 396 0
2020-09-23 01:43:31 GMT 41.991165 -91.978165 36,000 263 396 -64
2020-09-23 01:43:25 GMT 41.992538 -91.964767 36,000 263 396 0
2020-09-23 01:43:22 GMT 41.993656 -91.953842 36,000 263 395 64
2020-09-23 01:43:15 GMT 41.995193 -91.938522 36,000 263 395 0
2020-09-23 01:43:11 GMT 41.996063 -91.930038 36,000 263 395 0
2020-09-23 01:43:05 GMT 41.997894 -91.911995 36,000 263 395 0
2020-09-23 01:43:00 GMT 41.999008 -91.901337 36,000 263 395 0
2020-09-23 01:42:53 GMT 42.000595 -91.885529 36,000 263 396 0
2020-09-23 01:42:50 GMT 42.001236 -91.878723 36,000 263 396 0
2020-09-23 01:42:47 GMT 42.001877 -91.872604 36,000 263 396 0
2020-09-23 01:42:44 GMT 42.002872 -91.862373 36,000 263 396 0
2020-09-23 01:42:41 GMT 42.003387 -91.857063 36,000 263 396 0
2020-09-23 01:42:38 GMT 42.004177 -91.849213 36,000 263 396 0
2020-09-23 01:42:33 GMT 42.005386 -91.837334 36,000 263 396 0
2020-09-23 01:42:30 GMT 42.006271 -91.828331 36,000 263 395 0
2020-09-23 01:42:27 GMT 42.008183 -91.809357 36,000 263 395 64
2020-09-23 01:42:21 GMT 42.008183 -91.809357 36,000 263 395 64
2020-09-23 01:42:17 GMT 42.009247 -91.798386 36,000 263 395 0
2020-09-23 01:42:14 GMT 42.010044 -91.790390 36,000 263 395 0
2020-09-23 01:42:10 GMT 42.011261 -91.778473 36,000 263 395 -64
2020-09-23 01:42:06 GMT 42.011906 -91.771927 36,000 263 395 0
2020-09-23 01:42:03 GMT 42.012695 -91.764389 36,000 263 395 -64
2020-09-23 01:42:00 GMT 42.014374 -91.747337 36,000 263 395 0
2020-09-23 01:41:50 GMT 42.015976 -91.730843 36,000 263 395 64
2020-09-23 01:41:47 GMT 42.016754 -91.723289 36,000 263 395 -64
2020-09-23 01:41:42 GMT 42.017586 -91.714508 36,000 263 396 0
2020-09-23 01:41:38 GMT 42.018795 -91.702370 36,000 263 396 -64
2020-09-23 01:41:31 GMT 42.020187 -91.688210 36,000 263 396 0
2020-09-23 01:41:28 GMT 42.021263 -91.677269 36,000 263 396 0
2020-09-23 01:41:25 GMT 42.021652 -91.673607 36,000 263 396 64
2020-09-23 01:41:19 GMT 42.023216 -91.657784 36,000 263 396 64
2020-09-23 01:41:16 GMT 42.024147 -91.648270 36,000 263 396 64
2020-09-23 01:41:09 GMT 42.025726 -91.632156 35,975 263 397 0
2020-09-23 01:41:06 GMT 42.026382 -91.625786 35,975 263 397 0
2020-09-23 01:41:01 GMT 42.027603 -91.613365 35,975 263 397 64
2020-09-23 01:40:57 GMT 42.028755 -91.601387 35,975 263 396 0
2020-09-23 01:40:49 GMT 42.030441 -91.584343 35,975 263 378 -192
2020-09-23 01:40:46 GMT 42.031403 -91.574661 35,975 263 394 0
2020-09-23 01:40:43 GMT 42.031830 -91.570084 35,975 263 393 0
2020-09-23 01:40:38 GMT 42.033318 -91.554626 35,975 263 392 0
2020-09-23 01:40:35 GMT 42.033783 -91.549759 35,975 263 391 0
2020-09-23 01:40:30 GMT 42.034996 -91.537766 35,975 263 390 64
2020-09-23 01:40:27 GMT 42.035522 -91.532280 35,975 263 389 64
2020-09-23 01:40:24 GMT 42.036438 -91.522690 35,975 263 388 64
2020-09-23 01:40:19 GMT 42.037647 -91.510300 35,975 263 386 64
2020-09-23 01:40:16 GMT 42.038486 -91.501999 35,975 263 385 0
2020-09-23 01:40:13 GMT 42.038719 -91.499634 36,000 263 382 -64
2020-09-23 01:40:10 GMT 42.039597 -91.490143 35,975 263 377 -64
2020-09-23 01:40:06 GMT 42.040512 -91.480721 36,000 263 382 -64
2020-09-23 01:40:03 GMT 42.041046 -91.475296 36,000 263 382 -128
2020-09-23 01:39:58 GMT 42.042160 -91.463806 36,025 263 380 -128
2020-09-23 01:39:53 GMT 42.043442 -91.450569 36,050 263 378 -128
2020-09-23 01:39:49 GMT 42.045143 -91.432693 36,050 263 377 0
2020-09-23 01:39:46 GMT 42.045143 -91.432693 36,050 263 377 0
2020-09-23 01:39:42 GMT 42.045776 -91.426224 36,025 263 378 64
2020-09-23 01:39:36 GMT 42.047283 -91.410080 35,925 263 383 448
2020-09-23 01:39:32 GMT 42.048111 -91.401634 35,950 263 384 448
2020-09-23 01:39:27 GMT 42.049381 -91.388298 35,875 263 389 896
2020-09-23 01:39:20 GMT 42.050869 -91.372841 35,800 263 393 1280
2020-09-23 01:39:16 GMT 42.051800 -91.363388 35,650 263 399 1664
2020-09-23 01:39:12 GMT 42.053055 -91.350571 35,500 263 404 2240
2020-09-23 01:39:07 GMT 42.054127 -91.339630 35,250 263 407 2624
2020-09-23 01:39:04 GMT 42.054749 -91.333092 35,250 263 407 2624
2020-09-23 01:39:01 GMT 42.055431 -91.325768 34,700 263 418 2432
2020-09-23 01:38:58 GMT 42.056408 -91.315353 34,875 263 414 2560
2020-09-23 01:38:53 GMT 42.057480 -91.304115 34,700 263 423 2048
2020-09-23 01:38:50 GMT 42.058224 -91.296127 34,600 263 420 2304
2020-09-23 01:38:47 GMT 42.058868 -91.289642 34,500 263 422 2112
2020-09-23 01:38:43 GMT 42.059807 -91.279778 34,350 263 424 1856
2020-09-23 01:38:40 GMT 42.060837 -91.268799 34,250 263 426 1600
2020-09-23 01:38:35 GMT 42.061996 -91.256401 34,150 263 427 1152
2020-09-23 01:38:29 GMT 42.063217 -91.243767 34,075 263 428 960
2020-09-23 01:38:26 GMT 42.064178 -91.233528 34,025 263 428 640
2020-09-23 01:38:22 GMT 42.065022 -91.224525 34,000 263 428 192
2020-09-23 01:38:19 GMT 42.066055 -91.213425 33,975 263 428 64
2020-09-23 01:38:12 GMT 42.067566 -91.197632 33,975 263 428 0
2020-09-23 01:38:08 GMT 42.068481 -91.187897 34,000 263 428 64
2020-09-23 01:38:04 GMT 42.069489 -91.176811 33,975 263 427 0
2020-09-23 01:38:01 GMT 42.070267 -91.168922 33,975 263 427 0
2020-09-23 01:37:58 GMT 42.072285 -91.147621 34,000 263 423 0
2020-09-23 01:37:54 GMT 42.072983 -91.140282 34,000 263 423 0
2020-09-23 01:37:51 GMT 42.072983 -91.140282 34,000 263 426 -64
2020-09-23 01:37:47 GMT 42.073727 -91.132103 34,000 263 423 0
2020-09-23 01:37:44 GMT 42.074478 -91.124290 34,000 263 424 -64
2020-09-23 01:37:40 GMT 42.075451 -91.113838 34,000 263 423 -64
2020-09-23 01:37:37 GMT 42.076382 -91.103676 34,000 263 423 -64
2020-09-23 01:37:34 GMT 42.076996 -91.096886 34,000 263 423 -64
2020-09-23 01:37:29 GMT 42.078102 -91.084900 34,000 263 423 0
2020-09-23 01:37:25 GMT 42.078964 -91.075478 34,000 263 423 -64
2020-09-23 01:37:22 GMT 42.079639 -91.068230 34,000 263 424 -128
2020-09-23 01:37:19 GMT 42.080429 -91.059608 34,000 263 424 -64
2020-09-23 01:37:15 GMT 42.081436 -91.048630 34,000 263 425 64
2020-09-23 01:37:11 GMT 42.082306 -91.039459 34,000 263 425 64
2020-09-23 01:37:08 GMT 42.083038 -91.031563 33,975 263 426 128
2020-09-23 01:37:04 GMT 42.084339 -91.017067 33,950 263 434 960
2020-09-23 01:36:59 GMT 42.085598 -91.003845 33,925 263 431 320
2020-09-23 01:36:56 GMT 42.086060 -90.998817 33,925 263 432 448
2020-09-23 01:36:52 GMT 42.086929 -90.989456 33,900 263 433 640
2020-09-23 01:36:48 GMT 42.088062 -90.977211 33,850 263 434 1024
2020-09-23 01:36:43 GMT 42.089539 -90.961365 33,700 263 437 1216
2020-09-23 01:36:38 GMT 42.090858 -90.947380 33,600 263 437 1152
2020-09-23 01:36:32 GMT 42.092102 -90.933899 33,525 263 438 896
2020-09-23 01:36:29 GMT 42.093018 -90.923912 33,475 264 438 896
2020-09-23 01:36:22 GMT 42.094627 -90.905800 33,375 265 438 832
2020-09-23 01:36:18 GMT 42.095512 -90.893600 33,300 265 437 832
2020-09-23 01:36:11 GMT 42.096489 -90.877632 33,225 267 437 704
2020-09-23 01:36:06 GMT 42.097092 -90.864365 33,175 267 436 704
2020-09-23 01:36:02 GMT 42.097702 -90.850288 33,100 267 436 896
2020-09-23 01:35:59 GMT 42.098007 -90.842201 33,050 267 436 1088
2020-09-23 01:35:56 GMT 42.098492 -90.830231 33,000 267 436 1280
2020-09-23 01:35:53 GMT 42.098492 -90.830231 32,950 267 437 1664
2020-09-23 01:35:49 GMT 42.098923 -90.819916 32,900 267 437 1664
2020-09-23 01:35:46 GMT 42.099335 -90.809868 32,675 267 439 1792
2020-09-23 01:35:43 GMT 42.099609 -90.802498 32,700 267 440 1728
2020-09-23 01:35:39 GMT 42.100159 -90.789146 32,550 267 442 1472
2020-09-23 01:35:34 GMT 42.100662 -90.777344 32,475 267 442 1152
2020-09-23 01:35:29 GMT 42.101147 -90.765213 32,375 267 443 960
2020-09-23 01:35:26 GMT 42.101578 -90.754250 32,275 267 443 1088
2020-09-23 01:35:22 GMT 42.101944 -90.745201 32,275 267 443 1024
2020-09-23 01:35:19 GMT 42.102402 -90.734459 32,175 267 443 1408
2020-09-23 01:35:14 GMT 42.102951 -90.720665 32,050 267 444 1536
2020-09-23 01:35:10 GMT 42.103226 -90.712990 31,975 267 445 1536
2020-09-23 01:35:07 GMT 42.103565 -90.704659 31,900 268 446 1472
2020-09-23 01:35:04 GMT 42.104095 -90.691704 31,800 268 446 1408
2020-09-23 01:35:01 GMT 42.104691 -90.675842 31,700 268 448 1088
2020-09-23 01:34:58 GMT 42.104691 -90.675842 31,650 268 448 1280
2020-09-23 01:34:54 GMT 42.105148 -90.664482 31,575 267 448 1152
2020-09-23 01:34:50 GMT 42.105469 -90.655869 31,525 267 448 1088
2020-09-23 01:34:47 GMT 42.105789 -90.647758 31,450 267 448 1024
2020-09-23 01:34:44 GMT 42.106174 -90.638290 31,375 268 448 1088
2020-09-23 01:34:41 GMT 42.106499 -90.629669 31,350 268 448 1088
2020-09-23 01:34:37 GMT 42.106964 -90.617149 31,225 267 449 1088
2020-09-23 01:34:34 GMT 42.107197 -90.611015 31,225 268 449 1088
2020-09-23 01:34:31 GMT 42.107574 -90.602066 31,150 267 449 1152
2020-09-23 01:34:28 GMT 42.107941 -90.592049 31,100 267 449 1216
2020-09-23 01:34:22 GMT 42.108582 -90.575600 30,850 267 450 1408
2020-09-23 01:34:18 GMT 42.108967 -90.566116 30,900 267 451 1472
2020-09-23 01:34:14 GMT 42.109432 -90.554047 30,825 268 452 1536
2020-09-23 01:34:10 GMT 42.109756 -90.545677 30,700 268 452 1536
2020-09-23 01:34:07 GMT 42.110138 -90.535835 30,525 268 454 1216
2020-09-23 01:34:04 GMT 42.110596 -90.524597 30,525 268 453 1280
2020-09-23 01:34:00 GMT 42.110825 -90.517540 30,500 268 453 1280
2020-09-23 01:33:55 GMT 42.111435 -90.501472 30,350 268 454 1216
2020-09-23 01:33:52 GMT 42.111713 -90.494705 30,325 268 455 1216
2020-09-23 01:33:49 GMT 42.112038 -90.485954 30,250 268 455 1216
2020-09-23 01:33:43 GMT 42.113064 -90.458870 30,125 268 455 1024
2020-09-23 01:33:40 GMT 42.113064 -90.458870 30,075 268 455 832
2020-09-23 01:33:36 GMT 42.113617 -90.444450 30,025 268 455 704
2020-09-23 01:33:33 GMT 42.113762 -90.440224 29,900 268 455 704
2020-09-23 01:33:30 GMT 42.114136 -90.429741 29,950 268 454 768
2020-09-23 01:33:27 GMT 42.114365 -90.423866 29,925 268 454 768
2020-09-23 01:33:24 GMT 42.114738 -90.413963 29,875 268 454 832
2020-09-23 01:33:21 GMT 42.115067 -90.405281 29,725 268 453 1280
2020-09-23 01:33:18 GMT 42.115311 -90.399315 29,800 268 453 960
2020-09-23 01:33:15 GMT 42.115765 -90.386948 29,675 268 454 1344
2020-09-23 01:33:12 GMT 42.116089 -90.378197 29,650 268 454 1472
2020-09-23 01:33:07 GMT 42.116638 -90.364105 29,575 268 454 1600
2020-09-23 01:33:03 GMT 42.117065 -90.352264 29,425 268 455 1728
2020-09-23 01:32:59 GMT 42.117439 -90.342300 29,300 268 457 1792
2020-09-23 01:32:56 GMT 42.117645 -90.336952 29,225 268 457 1792
2020-09-23 01:32:50 GMT 42.118332 -90.318726 29,075 268 459 1728
2020-09-23 01:32:47 GMT 42.118790 -90.306145 28,925 268 461 1664
2020-09-23 01:32:42 GMT 42.119202 -90.294136 28,550 268 465 1600
2020-09-23 01:32:38 GMT 42.119797 -90.276840 28,675 268 463 1792
2020-09-23 01:32:31 GMT 42.120346 -90.262177 28,500 268 465 1536
2020-09-23 01:32:25 GMT 42.120941 -90.244820 28,350 268 467 1472
2020-09-23 01:32:20 GMT 42.121445 -90.231209 28,025 268 468 1280
2020-09-23 01:32:17 GMT 42.122047 -90.214043 28,100 268 468 1280
2020-09-23 01:32:11 GMT 42.122421 -90.203888 28,025 268 469 1216
2020-09-23 01:32:08 GMT 42.122746 -90.193665 28,000 268 469 1152
2020-09-23 01:32:04 GMT 42.123352 -90.175911 27,850 268 469 896
2020-09-23 01:32:01 GMT 42.123352 -90.175911 27,825 268 469 1024
2020-09-23 01:31:57 GMT 42.123779 -90.163673 27,700 268 467 576
2020-09-23 01:31:54 GMT 42.124008 -90.158119 27,750 268 469 832
2020-09-23 01:31:51 GMT 42.124420 -90.145630 27,725 268 468 768
2020-09-23 01:31:48 GMT 42.125107 -90.126160 27,650 268 467 640
2020-09-23 01:31:43 GMT 42.125107 -90.126160 27,625 268 467 640
2020-09-23 01:31:40 GMT 42.125538 -90.114594 27,600 268 466 576
2020-09-23 01:31:37 GMT 42.125793 -90.107056 27,300 268 465 1152
2020-09-23 01:31:34 GMT 42.126160 -90.095757 27,525 268 465 768
2020-09-23 01:31:30 GMT 42.126888 -90.075241 27,425 268 465 1024
2020-09-23 01:31:27 GMT 42.126888 -90.075241 27,425 268 465 1088
2020-09-23 01:31:24 GMT 42.127075 -90.069473 27,350 268 465 1216
2020-09-23 01:31:21 GMT 42.127449 -90.057938 27,275 268 465 896
2020-09-23 01:31:16 GMT 42.127869 -90.046120 27,200 268 465 1152
2020-09-23 01:31:13 GMT 42.128284 -90.033661 27,125 268 465 1024
2020-09-23 01:31:09 GMT 42.128658 -90.023567 26,775 268 465 832
2020-09-23 01:31:06 GMT 42.128952 -90.015167 27,050 268 465 832
2020-09-23 01:31:01 GMT 42.129456 -90.000191 26,975 268 465 832
2020-09-23 01:30:58 GMT 42.129639 -89.994385 26,950 268 464 832
2020-09-23 01:30:55 GMT 42.130333 -89.973366 26,200 268 461 1344
2020-09-23 01:30:52 GMT 42.130333 -89.973366 26,825 268 463 832
2020-09-23 01:30:48 GMT 42.130646 -89.964981 26,775 268 463 832
2020-09-23 01:30:45 GMT 42.130966 -89.954681 26,750 268 463 832
2020-09-23 01:30:41 GMT 42.131287 -89.944878 26,700 268 462 832
2020-09-23 01:30:38 GMT 42.131653 -89.934830 26,650 268 462 896
2020-09-23 01:30:35 GMT 42.131927 -89.926529 26,600 268 462 896
2020-09-23 01:30:32 GMT 42.132248 -89.917038 26,525 268 461 960
2020-09-23 01:30:29 GMT 42.132523 -89.907867 26,475 268 461 1152
2020-09-23 01:30:25 GMT 42.133118 -89.890076 26,375 268 461 1216
2020-09-23 01:30:18 GMT 42.133438 -89.880089 26,275 268 461 1216
2020-09-23 01:30:15 GMT 42.133713 -89.872032 26,275 268 461 1216
2020-09-23 01:30:12 GMT 42.133965 -89.864014 26,175 268 462 1216
2020-09-23 01:30:09 GMT 42.134338 -89.852837 26,100 268 461 1088
2020-09-23 01:30:06 GMT 42.134663 -89.842804 25,875 268 461 1088
2020-09-23 01:30:03 GMT 42.135040 -89.831337 25,900 268 461 1024
2020-09-23 01:29:59 GMT 42.135361 -89.821602 25,900 268 461 1088
2020-09-23 01:29:56 GMT 42.135544 -89.816101 25,875 268 461 1088
2020-09-23 01:29:53 GMT 42.135818 -89.807243 25,850 268 461 1024
2020-09-23 01:29:48 GMT 42.136826 -89.776588 25,675 268 461 1280
2020-09-23 01:29:43 GMT 42.136826 -89.776588 25,600 268 461 1344
2020-09-23 01:29:38 GMT 42.137329 -89.762047 25,525 268 461 1344
2020-09-23 01:29:35 GMT 42.137550 -89.754593 25,450 268 461 1216
2020-09-23 01:29:32 GMT 42.137783 -89.747124 25,200 268 460 1088
2020-09-23 01:29:29 GMT 42.138016 -89.740257 25,275 268 460 1152
2020-09-23 01:29:26 GMT 42.138294 -89.731155 25,300 268 460 1152
2020-09-23 01:29:23 GMT 42.138519 -89.722847 25,225 268 460 1088
2020-09-23 01:29:20 GMT 42.138805 -89.713715 25,150 268 459 960
2020-09-23 01:29:17 GMT 42.139069 -89.705116 25,125 268 459 896
2020-09-23 01:29:14 GMT 42.139618 -89.687767 25,050 268 458 832
2020-09-23 01:29:11 GMT 42.139618 -89.687767 25,025 268 458 896
2020-09-23 01:29:07 GMT 42.139984 -89.676651 24,975 268 457 1152
2020-09-23 01:29:03 GMT 42.140396 -89.662483 24,875 268 456 1280
2020-09-23 01:29:00 GMT 42.140575 -89.657127 24,850 268 456 1344
2020-09-23 01:28:57 GMT 42.140991 -89.644066 24,725 268 456 1472
2020-09-23 01:28:54 GMT 42.141174 -89.636955 24,675 268 456 1408
2020-09-23 01:28:50 GMT 42.141460 -89.627037 24,550 268 456 1152
2020-09-23 01:28:46 GMT 42.141785 -89.617073 24,500 268 456 1152
2020-09-23 01:28:43 GMT 42.142345 -89.597847 24,400 268 456 1088
2020-09-23 01:28:39 GMT 42.142345 -89.597847 24,375 268 455 960
2020-09-23 01:28:36 GMT 42.142685 -89.586205 24,325 268 455 832
2020-09-23 01:28:33 GMT 42.142948 -89.578049 24,275 268 454 896
2020-09-23 01:28:30 GMT 42.143143 -89.570724 24,250 268 453 960
2020-09-23 01:28:27 GMT 42.143646 -89.554115 24,175 268 452 1152
2020-09-23 01:28:24 GMT 42.143646 -89.554115 23,975 268 452 1216
2020-09-23 01:28:21 GMT 42.144020 -89.542854 24,025 268 452 1280
2020-09-23 01:28:18 GMT 42.144161 -89.538124 24,025 268 452 1280
2020-09-23 01:28:14 GMT 42.144562 -89.524094 23,900 268 451 1216
2020-09-23 01:28:11 GMT 42.144745 -89.517036 23,875 268 451 1216
2020-09-23 01:28:07 GMT 42.144997 -89.508934 23,800 268 451 1216
2020-09-23 01:28:04 GMT 42.145275 -89.498589 23,725 268 450 1152
2020-09-23 01:28:01 GMT 42.145603 -89.487663 22,150 268 449 1280
2020-09-23 01:27:57 GMT 42.146210 -89.467850 23,550 268 449 1280
2020-09-23 01:27:54 GMT 42.146210 -89.467850 23,500 268 449 1344
2020-09-23 01:27:51 GMT 42.146301 -89.463654 22,150 268 447 1152
2020-09-23 01:27:48 GMT 42.146675 -89.450554 23,350 268 449 1536
2020-09-23 01:27:44 GMT 42.146908 -89.441933 23,275 268 449 1664
2020-09-23 01:27:41 GMT 42.147095 -89.435478 22,975 268 449 1600
2020-09-23 01:27:37 GMT 42.147446 -89.422653 23,075 268 449 1664
2020-09-23 01:27:32 GMT 42.147903 -89.407051 22,875 268 449 1472
2020-09-23 01:27:29 GMT 42.148071 -89.400925 22,925 268 449 1536
2020-09-23 01:27:26 GMT 42.148361 -89.391136 22,800 268 449 1472
2020-09-23 01:27:22 GMT 42.148724 -89.379143 22,700 268 449 1600
2020-09-23 01:27:19 GMT 42.148956 -89.370537 22,600 268 449 1664
2020-09-23 01:27:16 GMT 42.149139 -89.365227 22,550 268 449 1600
2020-09-23 01:27:12 GMT 42.149559 -89.349571 22,400 268 448 1536
2020-09-23 01:27:09 GMT 42.149734 -89.342880 22,325 268 448 1408
2020-09-23 01:27:06 GMT 42.150009 -89.334267 22,275 268 448 1408
2020-09-23 01:27:01 GMT 42.150375 -89.320030 22,175 268 448 1216
2020-09-23 01:26:55 GMT 42.150818 -89.305054 22,050 268 446 1152
2020-09-23 01:26:51 GMT 42.151329 -89.286781 21,925 268 445 1344
2020-09-23 01:26:45 GMT 42.151611 -89.275154 21,825 268 444 1408
2020-09-23 01:26:42 GMT 42.151749 -89.269600 21,675 268 443 1216
2020-09-23 01:26:39 GMT 42.152073 -89.258293 21,700 268 443 1280
2020-09-23 01:26:36 GMT 42.152206 -89.253052 21,625 268 443 1280
2020-09-23 01:26:33 GMT 42.152481 -89.242882 21,575 268 443 1152
2020-09-23 01:26:30 GMT 42.152679 -89.234596 21,500 268 442 1088
2020-09-23 01:26:27 GMT 42.152866 -89.228271 21,475 268 442 1152
2020-09-23 01:26:24 GMT 42.153168 -89.217911 21,400 268 440 1280
2020-09-23 01:26:19 GMT 42.153488 -89.205551 21,250 268 439 1472
2020-09-23 01:26:16 GMT 42.153702 -89.197105 21,225 268 439 1472
2020-09-23 01:26:13 GMT 42.153854 -89.191628 21,175 269 439 1472
2020-09-23 01:26:10 GMT 42.154354 -89.172005 20,650 269 437 1344
2020-09-23 01:26:07 GMT 42.154354 -89.172005 20,975 269 437 1344
2020-09-23 01:26:04 GMT 42.154587 -89.164146 20,850 269 436 1472
2020-09-23 01:26:01 GMT 42.154819 -89.154114 20,850 269 436 1408
2020-09-23 01:25:58 GMT 42.154865 -89.151367 20,850 269 436 1408
2020-09-23 01:25:55 GMT 42.155182 -89.140007 20,300 269 435 1536
2020-09-23 01:25:49 GMT 42.155594 -89.123779 20,575 269 434 1664
2020-09-23 01:25:46 GMT 42.155777 -89.115974 20,400 269 434 1600
2020-09-23 01:25:43 GMT 42.156033 -89.106209 20,400 269 434 1472
2020-09-23 01:25:37 GMT 42.156403 -89.092476 20,275 269 433 1280
2020-09-23 01:25:34 GMT 42.156555 -89.084953 20,250 269 432 1280
2020-09-23 01:25:31 GMT 42.156738 -89.077461 20,175 269 431 1216
2020-09-23 01:25:28 GMT 42.156967 -89.068100 20,050 269 429 1152
2020-09-23 01:25:25 GMT 42.157146 -89.061180 20,000 269 428 1152
2020-09-23 01:25:22 GMT 42.157425 -89.048935 19,950 269 427 1280
2020-09-23 01:25:18 GMT 42.157661 -89.039398 19,850 269 426 1600
2020-09-23 01:25:15 GMT 42.157753 -89.035690 19,825 269 426 1664
2020-09-23 01:25:12 GMT 42.157940 -89.027962 19,775 269 425 1792
2020-09-23 01:25:07 GMT 42.158360 -89.011101 19,525 269 425 2176
2020-09-23 01:25:04 GMT 42.158524 -89.004486 19,450 269 425 2240
2020-09-23 01:25:01 GMT 42.158752 -88.995186 19,300 269 426 2240
2020-09-23 01:24:56 GMT 42.159012 -88.984085 19,150 269 426 2048
2020-09-23 01:24:53 GMT 42.159256 -88.974525 19,075 269 426 1984
2020-09-23 01:24:49 GMT 42.159485 -88.963661 18,900 269 426 1792
2020-09-23 01:24:46 GMT 42.159622 -88.957047 18,850 269 425 1664
2020-09-23 01:24:43 GMT 42.159847 -88.949142 18,775 269 425 1600
2020-09-23 01:24:40 GMT 42.160080 -88.938568 18,650 269 423 1408
2020-09-23 01:24:36 GMT 42.160408 -88.922256 18,500 269 422 1280
2020-09-23 01:24:33 GMT 42.160545 -88.915741 18,450 269 420 1344
2020-09-23 01:24:26 GMT 42.160858 -88.901619 18,300 269 419 1792
2020-09-23 01:24:23 GMT 42.160995 -88.895622 18,250 269 418 1920
2020-09-23 01:24:20 GMT 42.161106 -88.889679 18,175 269 418 1984
2020-09-23 01:24:17 GMT 42.161316 -88.880829 18,075 269 418 1984
2020-09-23 01:24:13 GMT 42.161526 -88.870453 17,925 269 417 1920
2020-09-23 01:24:10 GMT 42.161663 -88.862915 17,850 269 417 1856
2020-09-23 01:24:06 GMT 42.161804 -88.853844 17,725 269 416 1792
2020-09-23 01:24:03 GMT 42.161957 -88.845566 17,650 269 416 1792
2020-09-23 01:24:00 GMT 42.162048 -88.837570 17,450 271 415 1856
2020-09-23 01:23:56 GMT 42.161709 -88.819290 17,375 273 414 1856
2020-09-23 01:23:53 GMT 42.161709 -88.819290 17,275 276 413 1856
2020-09-23 01:23:50 GMT 42.161087 -88.811356 17,275 276 413 1856
2020-09-23 01:23:46 GMT 42.159943 -88.801216 17,100 281 411 1728
2020-09-23 01:23:42 GMT 42.158203 -88.790192 16,925 286 409 1728
2020-09-23 01:23:39 GMT 42.156963 -88.783836 16,900 287 408 1792
2020-09-23 01:23:34 GMT 42.153751 -88.770233 16,725 289 407 1984
2020-09-23 01:23:31 GMT 42.152073 -88.763527 16,600 289 407 1920
2020-09-23 01:23:28 GMT 42.150768 -88.758484 16,625 289 406 1920
2020-09-23 01:23:24 GMT 42.147793 -88.746796 16,425 289 405 1728
2020-09-23 01:23:21 GMT 42.145790 -88.738937 16,325 289 404 1664
2020-09-23 01:23:18 GMT 42.144470 -88.733635 16,275 289 403 1600
2020-09-23 01:23:15 GMT 42.142300 -88.725136 16,175 289 402 1664
2020-09-23 01:23:11 GMT 42.139832 -88.715431 16,025 289 401 1984
2020-09-23 01:23:07 GMT 42.138016 -88.708298 15,950 289 401 2112
2020-09-23 01:23:04 GMT 42.135921 -88.700035 15,825 289 400 2240
2020-09-23 01:23:01 GMT 42.133545 -88.690842 15,725 289 400 2240
2020-09-23 01:22:58 GMT 42.132568 -88.686874 15,600 289 400 2112
2020-09-23 01:22:55 GMT 42.130333 -88.678131 15,450 289 399 1984
2020-09-23 01:22:52 GMT 42.128239 -88.669891 15,325 289 399 1984
2020-09-23 01:22:49 GMT 42.126755 -88.664040 15,275 289 398 1984
2020-09-23 01:22:45 GMT 42.124607 -88.655579 14,300 289 393 2624
2020-09-23 01:22:41 GMT 42.122280 -88.646446 15,000 289 396 1600
2020-09-23 01:22:38 GMT 42.120346 -88.639008 14,975 289 396 1600
2020-09-23 01:22:35 GMT 42.118515 -88.631767 14,850 289 394 2048
2020-09-23 01:22:32 GMT 42.116508 -88.623901 14,775 289 394 2048
2020-09-23 01:22:26 GMT 42.113667 -88.612526 14,625 289 392 2432
2020-09-23 01:22:23 GMT 42.111385 -88.603523 14,400 289 392 2688
2020-09-23 01:22:19 GMT 42.109104 -88.594513 14,175 289 393 2560
2020-09-23 01:22:16 GMT 42.107117 -88.586632 14,075 289 393 2432
2020-09-23 01:22:13 GMT 42.105972 -88.582016 14,025 289 393 2176
2020-09-23 01:22:09 GMT 42.102951 -88.569969 13,450 289 390 2176
2020-09-23 01:22:05 GMT 42.099003 -88.553955 13,675 289 391 2240
2020-09-23 01:22:02 GMT 42.099003 -88.553955 13,575 289 391 2176
2020-09-23 01:21:58 GMT 42.096676 -88.544502 13,425 289 390 2176
2020-09-23 01:21:55 GMT 42.094910 -88.537346 13,300 289 389 2240
2020-09-23 01:21:52 GMT 42.093613 -88.532074 13,225 289 389 2240
2020-09-23 01:21:49 GMT 42.090363 -88.518784 13,000 289 388 2432
2020-09-23 01:21:43 GMT 42.088715 -88.512115 12,925 289 388 2368
2020-09-23 01:21:39 GMT 42.086529 -88.503433 12,725 289 388 2176
2020-09-23 01:21:36 GMT 42.084503 -88.495438 12,600 289 386 2240
2020-09-23 01:21:32 GMT 42.082718 -88.488380 12,525 289 386 2240
2020-09-23 01:21:28 GMT 42.080154 -88.478203 12,325 289 385 2240
2020-09-23 01:21:25 GMT 42.078426 -88.471367 12,250 289 384 2240
2020-09-23 01:21:22 GMT 42.076492 -88.463722 12,100 289 382 1792
2020-09-23 01:21:19 GMT 42.074890 -88.457382 11,925 289 380 1664
2020-09-23 01:21:16 GMT 42.072887 -88.449585 11,950 289 380 1664
2020-09-23 01:21:13 GMT 42.070889 -88.441727 11,825 289 378 1664
2020-09-23 01:21:10 GMT 42.069351 -88.435760 11,700 289 376 1664
2020-09-23 01:21:07 GMT 42.067581 -88.428703 11,675 289 374 1664
2020-09-23 01:21:04 GMT 42.066742 -88.425377 11,625 289 372 1408
2020-09-23 01:21:01 GMT 42.064636 -88.417030 11,550 290 371 960
2020-09-23 01:20:57 GMT 42.062508 -88.408768 11,500 290 366 832
2020-09-23 01:20:54 GMT 42.061157 -88.403664 11,450 290 361 832
2020-09-23 01:20:51 GMT 42.059143 -88.395996 11,425 290 360 768
2020-09-23 01:20:48 GMT 42.057541 -88.389877 11,400 290 356 768
2020-09-23 01:20:45 GMT 42.055481 -88.381767 11,325 289 352 768
2020-09-23 01:20:41 GMT 42.053925 -88.375710 11,300 289 349 704
2020-09-23 01:20:38 GMT 42.052139 -88.368591 11,250 289 344 768
2020-09-23 01:20:35 GMT 42.050591 -88.362274 11,225 289 342 896
2020-09-23 01:20:32 GMT 42.049332 -88.357285 11,125 289 339 960
2020-09-23 01:20:29 GMT 42.048111 -88.352486 11,125 289 336 960
2020-09-23 01:20:26 GMT 42.045868 -88.343620 11,075 289 330 896
2020-09-23 01:20:23 GMT 42.044910 -88.339790 11,000 289 325 832
2020-09-23 01:20:20 GMT 42.042770 -88.331482 11,000 289 325 832
2020-09-23 01:20:16 GMT 42.041382 -88.326019 10,950 290 320 832
2020-09-23 01:20:13 GMT 42.039871 -88.320213 10,900 290 316 768
2020-09-23 01:20:10 GMT 42.037033 -88.309288 10,850 290 310 640
2020-09-23 01:20:07 GMT 42.037033 -88.309288 10,825 290 305 576
2020-09-23 01:20:04 GMT 42.035229 -88.302483 10,775 290 303 576
2020-09-23 01:20:01 GMT 42.034298 -88.298973 10,775 290 298 1024
2020-09-23 01:19:58 GMT 42.033134 -88.294563 10,700 290 296 1344
2020-09-23 01:19:55 GMT 42.031273 -88.287537 10,575 290 291 2560
2020-09-23 01:19:52 GMT 42.030247 -88.283577 10,475 290 291 2944
2020-09-23 01:19:49 GMT 42.028385 -88.276619 10,225 290 292 3264
2020-09-23 01:19:44 GMT 42.026825 -88.270775 7,675 289 293 1664
2020-09-23 01:19:41 GMT 42.025311 -88.264931 9,950 290 293 3328
2020-09-23 01:19:38 GMT 42.023914 -88.259628 9,675 290 294 3392
2020-09-23 01:19:35 GMT 42.020565 -88.246407 9,250 289 295 3520
2020-09-23 01:19:31 GMT 42.020565 -88.246407 9,250 289 295 3520
2020-09-23 01:19:27 GMT 42.019135 -88.240814 9,050 289 297 3520
2020-09-23 01:19:24 GMT 42.017624 -88.234695 8,850 289 298 3456
2020-09-23 01:19:21 GMT 42.016342 -88.229645 8,625 289 298 3456
2020-09-23 01:19:18 GMT 42.014790 -88.223282 8,500 289 299 2688
2020-09-23 01:19:14 GMT 42.013184 -88.216782 8,375 289 298 1728
2020-09-23 01:19:11 GMT 42.010277 -88.205139 8,225 289 293 1664
2020-09-23 01:19:07 GMT 42.010277 -88.205139 8,175 289 291 1664
2020-09-23 01:19:02 GMT 42.008194 -88.197121 8,025 290 285 1536
2020-09-23 01:18:59 GMT 42.006409 -88.190254 7,950 290 281 1728
2020-09-23 01:18:55 GMT 42.004688 -88.183678 7,800 290 278 2816
2020-09-23 01:18:52 GMT 42.002819 -88.178368 5,900 288 273 2880
2020-09-23 01:18:49 GMT 42.001621 -88.173553 5,900 288 273 2880
2020-09-23 01:18:46 GMT 42.000431 -88.168732 5,900 288 273 2880
2020-09-23 01:18:43 GMT 41.999569 -88.163879 7,125 289 280 3008
2020-09-23 01:18:40 GMT 41.998051 -88.159088 5,900 288 273 2880
2020-09-23 01:18:37 GMT 41.996861 -88.154266 5,900 288 273 2880
2020-09-23 01:18:34 GMT 41.995659 -88.149452 5,900 288 273 2880
2020-09-23 01:18:31 GMT 41.994469 -88.144630 5,900 288 273 2880
2020-09-23 01:18:28 GMT 41.993423 -88.139412 5,900 288 273 2880
2020-09-23 01:18:25 GMT 41.992081 -88.135002 5,900 288 273 2880
2020-09-23 01:18:22 GMT 41.990829 -88.130089 5,900 288 273 2880
2020-09-23 01:18:19 GMT 41.989651 -88.125298 5,900 288 271 2880
2020-09-23 01:18:16 GMT 41.988441 -88.119865 5,700 287 270 2880
2020-09-23 01:18:13 GMT 41.987202 -88.115707 5,700 287 270 2880
2020-09-23 01:18:10 GMT 41.986130 -88.110786 5,500 287 268 2880
2020-09-23 01:18:07 GMT 41.984772 -88.106071 5,500 287 268 2880
2020-09-23 01:18:04 GMT 41.983669 -88.101341 5,000 287 262 2880
2020-09-23 01:18:01 GMT 41.982552 -88.096413 5,000 287 262 2880
2020-09-23 01:17:58 GMT 41.981339 -88.091438 5,000 287 262 864
2020-09-23 01:17:55 GMT 41.980270 -88.086906 4,800 287 255 864
2020-09-23 01:17:52 GMT 41.979012 -88.082458 4,700 285 257 -320
2020-09-23 01:17:49 GMT 41.978119 -88.077873 4,700 286 254 416
2020-09-23 01:17:46 GMT 41.977100 -88.073349 4,700 286 254 416
2020-09-23 01:17:43 GMT 41.976082 -88.068489 4,600 288 237 416
2020-09-23 01:17:40 GMT 41.974831 -88.063904 4,600 288 237 416
2020-09-23 01:17:37 GMT 41.973850 -88.059929 4,500 289 225 416
2020-09-23 01:17:34 GMT 41.973339 -88.055634 4,300 292 219 416
2020-09-23 01:17:31 GMT 41.971962 -88.051781 4,275 289 231 3200
2020-09-23 01:17:28 GMT 41.971279 -88.047974 4,000 292 223 416
2020-09-23 01:17:25 GMT 41.970150 -88.044479 3,700 287 237 416
2020-09-23 01:17:22 GMT 41.969139 -88.040367 3,500 285 242 416
2020-09-23 01:17:19 GMT 41.968170 -88.036118 3,500 282 240 416
2020-09-23 01:17:16 GMT 41.967270 -88.031921 3,300 277 239 416
2020-09-23 01:17:13 GMT 41.966808 -88.027420 3,300 270 230 416
2020-09-23 01:17:10 GMT 41.966740 -88.023148 3,200 267 225 416
2020-09-23 01:17:07 GMT 41.966862 -88.018967 3,100 267 225 416
2020-09-23 01:17:04 GMT 41.967018 -88.014702 3,100 267 219 416
2020-09-23 01:17:01 GMT 41.967110 -88.010780 3,000 267 214 416
2020-09-23 01:16:58 GMT 41.967281 -88.006783 3,000 267 208 416
2020-09-23 01:16:55 GMT 41.967400 -88.002861 3,000 268 200 416
2020-09-23 01:16:52 GMT 41.967480 -87.999062 2,800 268 199 416
2020-09-23 01:16:49 GMT 41.967602 -87.995369 2,825 268 197 416
2020-09-23 01:16:46 GMT 41.967651 -87.991692 2,750 268 197 1920
2020-09-23 01:16:43 GMT 41.967800 -87.988068 2,600 267 197 416
2020-09-23 01:16:40 GMT 41.967930 -87.984398 2,600 269 185 416
2020-09-23 01:16:37 GMT 41.967999 -87.980766 2,400 268 187 416
2020-09-23 01:16:34 GMT 41.968071 -87.977257 2,300 268 184 416
2020-09-23 01:16:31 GMT 41.968128 -87.973808 2,300 268 190 416
2020-09-23 01:16:28 GMT 41.968208 -87.970299 2,200 267 188 416
2020-09-23 01:16:25 GMT 41.968311 -87.966820 2,150 268 179 -160
2020-09-23 01:16:22 GMT 41.968410 -87.963402 2,125 268 175 2688
2020-09-23 01:16:19 GMT 41.968449 -87.960258 2,100 268 170 2688
2020-09-23 01:16:16 GMT 41.968559 -87.957008 2,100 268 163 2688
2020-09-23 01:16:13 GMT 41.968609 -87.954002 2,025 268 159 2688
2020-09-23 01:16:10 GMT 41.968658 -87.951019 1,900 268 161 2688
2020-09-23 01:16:07 GMT 41.968731 -87.947998 1,850 269 158 2688
2020-09-23 01:16:04 GMT 41.968769 -87.944977 1,750 268 160 2688
2020-09-23 01:16:01 GMT 41.968800 -87.942192 1,675 269 151 2688
2020-09-23 01:15:58 GMT 41.968811 -87.939423 1,625 268 149 64
2020-09-23 01:15:55 GMT 41.968868 -87.936592 1,400 268 146 64
2020-09-23 01:15:52 GMT 41.968929 -87.933800 1,275 268 154 64
2020-09-23 01:15:49 GMT 41.968971 -87.928230 700 269 150 64
2020-09-23 01:15:46 GMT 41.968971 -87.928230 700 269 153 64
2020-09-23 01:15:43 GMT 41.969021 -87.925407 700 270 157 64
2020-09-23 01:15:40 GMT 41.969021 -87.922493 700 269 162 64
2020-09-23 01:15:37 GMT 41.969021 -87.919548 600 270 167 64
2020-09-23 01:15:34 GMT 41.969021 -87.916489 475 269 156 -224
2020-09-23 01:15:31 GMT 41.969021 -87.913551 500 269 150 -224
2020-09-23 01:15:28 GMT 41.969040 -87.910789 550 270 142 -64
2020-09-23 01:15:25 GMT 41.969021 -87.908272 550 269 128 -64
2020-09-23 01:15:22 GMT 41.969040 -87.905937 550 270 111
2020-09-23 01:15:19 GMT 41.969028 -87.903847 550 268 105
2020-09-23 01:15:16 GMT 41.969051 -87.901909 0 270 96
2020-09-23 01:15:13 GMT 41.969070 -87.900299 0 270 75
2020-09-23 01:15:10 GMT 41.969051 -87.898949 0 269 57
2020-09-23 01:15:07 GMT 41.969059 -87.897858 0 270 43
2020-09-23 01:15:04 GMT 41.969070 -87.897018 0 269 20
2020-09-23 01:15:01 GMT 41.969059 -87.896492 0 267 15
2020-09-23 01:14:58 GMT 41.969090 -87.896217 0 276 11
2020-09-23 01:14:55 GMT 41.969040 -87.896019 0 276 11
2020-09-23 01:14:52 GMT 41.969040 -87.895844 0 219 10
2020-09-23 01:14:49 GMT 41.969082 -87.895691 0 210 11
2020-09-23 01:14:46 GMT 41.969200 -87.895554 0 187 10
2020-09-23 01:14:43 GMT 41.969311 -87.895538 0 175 9
2020-09-23 01:14:40 GMT 41.969440 -87.895554 0 177 9
2020-09-23 01:14:37 GMT 41.969582 -87.895554 0 180 8
2020-09-23 01:14:34 GMT 41.969688 -87.895554 0 175 8
2020-09-23 01:14:31 GMT 41.969872 -87.895576 0 168 6
2020-09-23 01:14:28 GMT 41.970032 -87.895531 0 167 6
2020-09-23 01:14:25 GMT 41.970032 -87.895531 0 126 4
2020-09-23 01:14:22 GMT 41.970032 -87.895653 0 139 2
2020-09-23 01:14:19 GMT 41.970051 -87.895752 0 139 0
2020-09-23 01:14:16 GMT 41.970070 -87.895737 0 139 0
2020-09-23 01:14:13 GMT 41.970051 -87.895737 0 138 1
2020-09-23 01:14:10 GMT 41.970058 -87.895699 0 138 0
2020-09-23 01:14:07 GMT 41.970070 -87.895699 0 138 0
2020-09-23 01:14:04 GMT 41.970051 -87.895752 0 141 0
2020-09-23 01:14:01 GMT 41.970051 -87.895752 0 140 2
2020-09-23 01:13:58 GMT 41.970081 -87.895714 0 139 2
2020-09-23 01:13:55 GMT 41.970100 -87.895660 0 139 0
2020-09-23 01:13:52 GMT 41.970058 -87.895721 0 144 1
2020-09-23 01:13:49 GMT 41.970051 -87.895737 0 141 2
2020-09-23 01:13:46 GMT 41.970070 -87.895721 0 138 2
2020-09-23 01:13:43 GMT 41.970081 -87.895721 0 128 1
2020-09-23 01:13:40 GMT 41.970089 -87.895683 0 125 1
2020-09-23 01:13:37 GMT 41.970039 -87.895660 0 125 2
2020-09-23 01:13:34 GMT 41.970058 -87.895714 0 125 0
2020-09-23 01:13:31 GMT 41.970058 -87.895721 0 125 0
2020-09-23 01:13:28 GMT 41.970058 -87.895714 0 125 0
2020-09-23 01:13:25 GMT 41.970051 -87.895699 0 125 0
2020-09-23 01:13:21 GMT 41.970058 -87.895714 0 125 0
2020-09-23 01:13:18 GMT 41.970070 -87.895714 0 125 0
2020-09-23 01:13:15 GMT 41.970070 -87.895691 0 122 0
2020-09-23 01:13:12 GMT 41.970070 -87.895714 0 122 1
2020-09-23 01:13:09 GMT 41.970070 -87.895729 0 123 1
2020-09-23 01:13:06 GMT 41.970051 -87.895714 0 123 0
2020-09-23 01:13:03 GMT 41.970070 -87.895691 0 122 0
2020-09-23 01:13:00 GMT 41.970051 -87.895714 0 122 0
2020-09-23 01:12:57 GMT 41.970058 -87.895699 0 121 0
2020-09-23 01:12:54 GMT 41.970100 -87.895660 0 123 2
2020-09-23 01:12:51 GMT 41.970081 -87.895714 0 124 0
2020-09-23 01:12:48 GMT 41.970081 -87.895714 0 124 0
2020-09-23 01:12:45 GMT 41.970058 -87.895721 0 125 0
2020-09-23 01:12:42 GMT 41.970058 -87.895714 0 125 0
2020-09-23 01:12:39 GMT 41.970058 -87.895721 0 125 0
2020-09-23 01:12:36 GMT 41.970051 -87.895721 0 125 0
2020-09-23 01:12:33 GMT 41.970058 -87.895691 0 125 1
2020-09-23 01:12:30 GMT 41.970032 -87.895714 0 126 0
2020-09-23 01:12:27 GMT 41.970058 -87.895699 0 126 0
2020-09-23 01:12:24 GMT 41.970058 -87.895714 0 126 0
2020-09-23 01:12:21 GMT 41.970100 -87.895790 0 123 1
2020-09-23 01:12:18 GMT 41.970070 -87.895737 0 119 1
2020-09-23 01:12:15 GMT 41.970089 -87.895752 0 116 1
2020-09-23 01:12:12 GMT 41.970058 -87.895714 0 116 2
2020-09-23 01:12:09 GMT 41.970081 -87.895683 0 117 2
2020-09-23 01:12:06 GMT 41.970051 -87.895721 0 120 0
2020-09-23 01:12:03 GMT 41.970058 -87.895714 0 120 0
2020-09-23 01:12:00 GMT 41.970070 -87.895721 0 120 1
2020-09-23 01:11:57 GMT 41.970070 -87.895714 0 120 1
2020-09-23 01:11:54 GMT 41.970032 -87.895668 0 115 2
2020-09-23 01:11:51 GMT 41.970032 -87.895668 0 116 1
2020-09-23 01:11:48 GMT 41.970051 -87.895721 0 116 0
2020-09-23 01:11:45 GMT 41.970032 -87.895729 0 113 1
2020-09-23 01:11:42 GMT 41.970032 -87.895714 0 105 0
2020-09-23 01:11:39 GMT 41.970100 -87.895668 0 106 2
2020-09-23 01:11:36 GMT 41.970100 -87.895683 0 106 0
2020-09-23 01:11:33 GMT 41.970058 -87.895721 0 106 0
2020-09-23 01:11:30 GMT 41.970081 -87.895729 0 106 0
2020-09-23 01:11:27 GMT 41.970100 -87.895767 0 106 0
2020-09-23 01:11:24 GMT 41.970119 -87.895767 0 106 0
2020-09-23 01:11:21 GMT 41.970119 -87.895790 0 105 1
2020-09-23 01:11:18 GMT 41.970089 -87.895767 0 104 2
2020-09-23 01:11:15 GMT 41.970119 -87.895790 0 104 0
2020-09-23 01:11:12 GMT 41.970100 -87.895767 0 104 0
2020-09-23 01:11:09 GMT 41.970100 -87.895737 0 105 0
2020-09-23 01:11:06 GMT 41.970112 -87.895767 0 106 0
2020-09-23 01:11:03 GMT 41.970112 -87.895767 0 106 0
2020-09-23 01:11:00 GMT 41.970112 -87.895737 0 109 0
2020-09-23 01:10:57 GMT 41.970089 -87.895714 0 109 0
2020-09-23 01:10:54 GMT 41.970070 -87.895683 0 114 0
2020-09-23 01:10:51 GMT 41.970058 -87.895683 0 114 0
2020-09-23 01:10:48 GMT 41.970058 -87.895714 0 114 0
2020-09-23 01:10:45 GMT 41.970089 -87.895714 0 114 0
2020-09-23 01:10:42 GMT 41.970081 -87.895721 0 115 0
2020-09-23 01:10:39 GMT 41.970081 -87.895721 0 115 0
2020-09-23 01:10:34 GMT 41.970070 -87.895714 0 115 0
2020-09-23 01:10:31 GMT 41.970100 -87.895699 0 116 1
2020-09-23 01:10:28 GMT 41.970051 -87.895714 0 117 0
2020-09-23 01:10:25 GMT 41.970081 -87.895737 0 117 0
2020-09-23 01:10:22 GMT 41.970070 -87.895714 0 117 0
2020-09-23 01:10:19 GMT 41.970058 -87.895714 0 121 0
2020-09-23 01:10:16 GMT 41.970058 -87.895660 0 123 0
2020-09-23 01:10:13 GMT 41.970058 -87.895729 0 123 0
2020-09-23 01:10:10 GMT 41.970081 -87.895729 0 123 0
2020-09-23 01:10:07 GMT 41.970112 -87.895737 0 123 0
2020-09-23 01:10:04 GMT 41.970112 -87.895737 0 123 0
2020-09-23 01:10:01 GMT 41.970112 -87.895767 0 125 0
2020-09-23 01:09:58 GMT 41.970089 -87.895729 0 127 0
2020-09-23 01:09:55 GMT 41.970081 -87.895721 0 127 0
2020-09-23 01:09:52 GMT 41.970081 -87.895714 0 125 0
2020-09-23 01:09:49 GMT 41.970051 -87.895714 0 125 0
2020-09-23 01:09:46 GMT 41.970058 -87.895714 0 127 0
2020-09-23 01:09:40 GMT 41.970058 -87.895714 0 129 0
2020-09-23 01:09:35 GMT 41.970070 -87.895714 0 129 0
2020-09-23 01:09:32 GMT 41.970081 -87.895714 0 129 0
2020-09-23 01:09:29 GMT 41.970070 -87.895721 0 129 1
2020-09-23 01:09:26 GMT 41.970058 -87.895729 0 127 1
2020-09-23 01:09:23 GMT 41.970058 -87.895699 0 121 0
2020-09-23 01:09:20 GMT 41.970058 -87.895721 0 121 0
2020-09-23 01:09:17 GMT 41.970058 -87.895721 0 121 0
2020-09-23 01:09:13 GMT 41.970070 -87.895721 0 121 3
2020-09-23 01:09:10 GMT 41.970131 -87.895844 0 120 8
2020-09-23 01:09:07 GMT 41.970131 -87.895844 0 118 10
2020-09-23 01:09:04 GMT 41.970211 -87.896004 0 114 8
2020-09-23 01:09:01 GMT 41.970242 -87.896133 0 115 9
2020-09-23 01:08:58 GMT 41.970299 -87.896294 0 108 9
2020-09-23 01:08:55 GMT 41.970379 -87.896446 0 97 8
2020-09-23 01:08:52 GMT 41.970402 -87.896599 0 100 12
2020-09-23 01:08:49 GMT 41.970421 -87.896812 0 91 11
2020-09-23 01:08:46 GMT 41.970402 -87.897018 0 93 11
2020-09-23 01:08:43 GMT 41.970440 -87.897247 0 86 9
2020-09-23 01:08:40 GMT 41.970428 -87.897400 0 94 10
2020-09-23 01:08:37 GMT 41.970440 -87.897636 0 86 12
2020-09-23 01:08:34 GMT 41.970428 -87.897873 0 94 13
2020-09-23 01:08:31 GMT 41.970428 -87.898117 0 86 10
2020-09-23 01:08:28 GMT 41.970421 -87.898293 0 94 11
2020-09-23 01:08:25 GMT 41.970428 -87.898483 0 89 11
2020-09-23 01:08:22 GMT 41.970428 -87.898689 0 87 8
2020-09-23 01:08:19 GMT 41.970428 -87.898857 0 87 8
2020-09-23 01:08:16 GMT 41.970409 -87.899010 0 93 7
2020-09-23 01:08:13 GMT 41.970428 -87.899132 0 85 6
2020-09-23 01:08:10 GMT 41.970421 -87.899246 0 86 6
2020-09-23 01:08:07 GMT 41.970421 -87.899368 0 81 4
2020-09-23 01:08:04 GMT 41.970409 -87.899437 0 84 4
2020-09-23 01:08:01 GMT 41.970409 -87.899551 0 85 0
2020-09-23 01:07:58 GMT 41.970409 -87.899597 0 85 1
2020-09-23 01:07:55 GMT 41.970428 -87.899559 0 85 1
2020-09-23 01:07:52 GMT 41.970421 -87.899612 0 85 0
2020-09-23 01:07:49 GMT 41.970409 -87.899628 0 85 0
2020-09-23 01:07:39 GMT 41.970409 -87.899612 0 86 0
2020-09-23 01:07:33 GMT 41.970409 -87.899597 0 87 0
2020-09-23 01:07:30 GMT 41.970421 -87.899612 0 87 0
2020-09-23 01:07:26 GMT 41.970409 -87.899612 0 87 2
2020-09-23 01:07:23 GMT 41.970421 -87.899612 0 86 1
2020-09-23 01:07:20 GMT 41.970409 -87.899597 0 90 1
2020-09-23 01:07:17 GMT 41.970428 -87.899582 0 86 5
2020-09-23 01:07:14 GMT 41.970421 -87.899673 0 90 6
2020-09-23 01:07:11 GMT 41.970421 -87.899780 0 91 11
2020-09-23 01:07:08 GMT 41.970428 -87.899979 0 88 9
2020-09-23 01:07:05 GMT 41.970409 -87.900131 0 92 7
2020-09-23 01:07:02 GMT 41.970421 -87.900291 0 86 7
2020-09-23 01:06:59 GMT 41.970428 -87.900421 0 88 6
2020-09-23 01:06:56 GMT 41.970421 -87.900520 0 93 5
2020-09-23 01:06:53 GMT 41.970421 -87.900620 0 96 5
2020-09-23 01:06:50 GMT 41.970451 -87.900711 0 84 7
2020-09-23 01:06:47 GMT 41.970440 -87.900848 0 80 4
2020-09-23 01:06:44 GMT 41.970421 -87.900932 0 99 5
2020-09-23 01:06:41 GMT 41.970440 -87.901016 0 83 4
2020-09-23 01:06:38 GMT 41.970421 -87.901077 0 80 7
2020-09-23 01:06:35 GMT 41.970421 -87.901199 0 87 6
2020-09-23 01:06:32 GMT 41.970409 -87.901291 0 90 7
2020-09-23 01:06:29 GMT 41.970421 -87.901459 0 90 6
2020-09-23 01:06:26 GMT 41.970421 -87.901588 0 87 8
2020-09-23 01:06:23 GMT 41.970402 -87.901772 0 94 5
2020-09-23 01:06:20 GMT 41.970402 -87.902069 0 94 13
2020-09-23 01:06:17 GMT 41.970402 -87.902069 0 95 13
2020-09-23 01:06:14 GMT 41.970440 -87.902283 0 95 15
2020-09-23 01:06:11 GMT 41.970428 -87.902580 0 89 20
2020-09-23 01:06:08 GMT 41.970421 -87.902969 0 86 18
2020-09-23 01:06:05 GMT 41.970440 -87.903259 0 86 15
2020-09-23 01:06:02 GMT 41.970421 -87.903526 0 88 17
2020-09-23 01:05:59 GMT 41.970428 -87.903831 0 80 15
2020-09-23 01:05:56 GMT 41.970390 -87.904099 0 90 14
2020-09-23 01:05:53 GMT 41.970470 -87.904602 0 127 13
2020-09-23 01:05:50 GMT 41.970470 -87.904602 0 147 13
2020-09-23 01:05:47 GMT 41.970581 -87.904793 0 167 13
2020-09-23 01:05:44 GMT 41.970760 -87.904846 0 170 11
2020-09-23 01:05:41 GMT 41.970951 -87.904900 0 179 15
2020-09-23 01:05:38 GMT 41.971180 -87.904846 0 144 13
2020-09-23 01:05:35 GMT 41.971340 -87.904953 0 138 15
2020-09-23 01:05:32 GMT 41.971489 -87.905113 0 152 14
2020-09-23 01:05:29 GMT 41.971642 -87.905228 0 185 15
2020-09-23 01:05:26 GMT 41.971821 -87.905228 0 214 16
2020-09-23 01:05:23 GMT 41.972061 -87.905083 0 255 11
2020-09-23 01:05:20 GMT 41.972130 -87.904869 0 274 10
2020-09-23 01:05:17 GMT 41.972099 -87.904747 0 272 12
2020-09-23 01:05:14 GMT 41.972111 -87.904533 0 273 15
2020-09-23 01:05:11 GMT 41.972080 -87.904243 0 270 17
2020-09-23 01:05:08 GMT 41.972069 -87.903908 0 279 16
2020-09-23 01:05:05 GMT 41.972069 -87.903587 0 270 17
2020-09-23 01:05:02 GMT 41.972061 -87.903282 0 271 16
2020-09-23 01:04:59 GMT 41.972050 -87.902969 0 263 16
2020-09-23 01:04:56 GMT 41.972080 -87.902649 0 271 16
2020-09-23 01:04:53 GMT 41.972069 -87.902367 0 272 13
2020-09-23 01:04:50 GMT 41.972050 -87.902107 0 267 14
2020-09-23 01:04:47 GMT 41.972069 -87.901878 0 272 14
2020-09-23 01:04:44 GMT 41.972061 -87.901619 0 271 10
2020-09-23 01:04:41 GMT 41.972069 -87.901176 0 271 10
2020-09-23 01:04:38 GMT 41.972069 -87.901176 0 274 9
2020-09-23 01:04:35 GMT 41.972061 -87.900970 0 272 8
2020-09-23 01:04:32 GMT 41.972050 -87.900810 0 270 11
2020-09-23 01:04:29 GMT 41.972069 -87.900620 0 265 9
2020-09-23 01:04:26 GMT 41.972061 -87.900482 0 274 4
2020-09-23 01:04:23 GMT 41.972080 -87.900368 0 275 7
2020-09-23 01:04:20 GMT 41.972069 -87.900261 0 270 10
2020-09-23 01:04:17 GMT 41.972069 -87.899910 0 267 11
2020-09-23 01:04:14 GMT 41.972069 -87.899910 0 264 15
2020-09-23 01:04:11 GMT 41.972061 -87.899651 0 264 17
2020-09-23 01:04:08 GMT 41.972080 -87.899353 0 264 12
2020-09-23 01:04:05 GMT 41.972149 -87.898842 0 254 13
2020-09-23 01:04:02 GMT 41.972149 -87.898842 0 244 13
2020-09-23 01:03:59 GMT 41.972210 -87.898598 0 244 12
2020-09-23 01:03:56 GMT 41.972301 -87.898376 0 239 14
2020-09-23 01:03:53 GMT 41.972351 -87.898209 0 241 15
2020-09-23 01:03:50 GMT 41.972549 -87.897728 0 240 15
2020-09-23 01:03:47 GMT 41.972549 -87.897728 0 239 13
2020-09-23 01:03:44 GMT 41.972618 -87.897522 0 242 13
2020-09-23 01:03:41 GMT 41.972729 -87.897308 0 241 15
2020-09-23 01:03:38 GMT 41.972820 -87.897057 0 236 11
2020-09-23 01:03:35 GMT 41.972889 -87.896912 0 237 13
2020-09-23 01:03:32 GMT 41.973000 -87.896713 0 242 13
2020-09-23 01:03:29 GMT 41.973061 -87.896492 0 236 11
2020-09-23 01:03:26 GMT 41.973141 -87.896309 0 232 11
2020-09-23 01:03:23 GMT 41.973251 -87.896179 0 232 10
2020-09-23 01:03:20 GMT 41.973331 -87.896027 0 224 10
2020-09-23 01:03:17 GMT 41.973400 -87.895912 0 219 8
2020-09-23 01:03:14 GMT 41.973492 -87.895767 0 206 9
2020-09-23 01:03:11 GMT 41.973610 -87.895714 0 213 7
2020-09-23 01:03:08 GMT 41.973701 -87.895653 0 218 5
2020-09-23 01:03:05 GMT 41.973740 -87.895554 0 188 6
2020-09-23 01:03:02 GMT 41.973820 -87.895561 0 205 9
2020-09-23 01:02:59 GMT 41.973919 -87.895508 0 210 12
2020-09-23 01:02:56 GMT 41.974060 -87.895348 0 191 13
2020-09-23 01:02:53 GMT 41.974388 -87.895302 0 184 9
2020-09-23 01:02:50 GMT 41.974388 -87.895302 0 183 12
2020-09-23 01:02:47 GMT 41.974571 -87.895287 0 185 9
2020-09-23 01:02:44 GMT 41.974670 -87.895271 0 184 10
2020-09-23 01:02:41 GMT 41.974831 -87.895264 0 180 9
2020-09-23 01:02:38 GMT 41.974941 -87.895241 0 178 16
2020-09-23 01:02:35 GMT 41.975140 -87.895233 0 175 17
2020-09-23 01:02:32 GMT 41.975380 -87.895287 0 180 19
2020-09-23 01:02:29 GMT 41.975651 -87.895264 0 178 18
2020-09-23 01:02:26 GMT 41.975910 -87.895271 0 180 20
2020-09-23 01:02:23 GMT 41.976189 -87.895233 0 178 18
2020-09-23 01:02:20 GMT 41.976452 -87.895241 0 184 19
2020-09-23 01:02:17 GMT 41.976681 -87.895233 0 178 16
2020-09-23 01:02:14 GMT 41.976929 -87.895210 0 173 15
2020-09-23 01:02:11 GMT 41.977139 -87.895264 0 178 15
2020-09-23 01:02:08 GMT 41.977348 -87.895248 0 186 16
2020-09-23 01:02:05 GMT 41.977558 -87.895210 0 175 15
2020-09-23 01:02:02 GMT 41.977772 -87.895233 0 174 14
2020-09-23 01:01:59 GMT 41.977928 -87.895241 0 180 15
2020-09-23 01:01:56 GMT 41.978130 -87.895218 0 184 16
2020-09-23 01:01:53 GMT 41.978371 -87.895233 0 179 19
2020-09-23 01:01:50 GMT 41.978619 -87.895210 0 176 19
2020-09-23 01:01:47 GMT 41.978870 -87.895248 0 185 20
2020-09-23 01:01:44 GMT 41.979160 -87.895210 0 201 19
2020-09-23 01:01:41 GMT 41.979370 -87.895149 0 202 15
2020-09-23 01:01:38 GMT 41.979721 -87.894753 0 231 15
2020-09-23 01:01:35 GMT 41.979721 -87.894753 0 229 15
2020-09-23 01:01:32 GMT 41.979858 -87.894524 0 229 14
2020-09-23 01:01:29 GMT 41.980000 -87.894310 0 233 13
2020-09-23 01:01:26 GMT 41.980122 -87.894112 0 229 14
2020-09-23 01:01:23 GMT 41.980228 -87.893929 0 228 13
2020-09-23 01:01:20 GMT 41.980358 -87.893761 0 235 16
2020-09-23 01:01:17 GMT 41.980469 -87.893517 0 221 14
2020-09-23 01:01:14 GMT 41.980591 -87.893356 0 196 13
2020-09-23 01:01:11 GMT 41.980759 -87.893257 0 179 11
2020-09-23 01:01:08 GMT 41.980942 -87.893250 0 154 11
2020-09-23 01:01:05 GMT 41.981060 -87.893288 0 145 10
2020-09-23 01:01:02 GMT 41.981171 -87.893463 0 133 14
2020-09-23 01:00:59 GMT 41.981319 -87.893608 0 129 17
2020-09-23 01:00:56 GMT 41.981468 -87.893860 0 135 20
2020-09-23 01:00:53 GMT 41.981682 -87.894127 0 136 21
2020-09-23 01:00:50 GMT 41.981869 -87.894409 0 136 21
2020-09-23 01:00:47 GMT 41.982109 -87.894707 0 134 20
2020-09-23 01:00:44 GMT 41.982288 -87.894951 0 137 19
2020-09-23 01:00:41 GMT 41.982479 -87.895264 0 134 20
2020-09-23 01:00:38 GMT 41.982670 -87.895500 0 121 18
2020-09-23 01:00:35 GMT 41.982841 -87.895729 0 104 19
2020-09-23 01:00:32 GMT 41.982910 -87.896103 0 94 19
2020-09-23 01:00:29 GMT 41.982880 -87.896393 0 94 17
2020-09-23 01:00:26 GMT 41.982899 -87.896744 0 91 22
2020-09-23 01:00:23 GMT 41.982891 -87.897133 0 92 21
2020-09-23 01:00:20 GMT 41.982880 -87.897537 0 81 23
2020-09-23 01:00:17 GMT 41.982880 -87.897942 0 91 26
2020-09-23 01:00:14 GMT 41.982880 -87.898422 0 95 21
2020-09-23 01:00:11 GMT 41.982910 -87.898804 0 84 24
2020-09-23 01:00:08 GMT 41.982899 -87.899208 0 91 21
2020-09-23 01:00:05 GMT 41.982880 -87.899986 0 91 26
2020-09-23 01:00:02 GMT 41.982880 -87.899986 0 89 29
2020-09-23 00:59:59 GMT 41.982880 -87.900520 0 92 29
2020-09-23 00:59:56 GMT 41.982910 -87.901039 0 87 30
2020-09-23 00:59:53 GMT 41.982880 -87.901619 0 88 29
2020-09-23 00:59:50 GMT 41.982868 -87.902161 0 91 25
2020-09-23 00:59:47 GMT 41.982891 -87.902657 0 90 27
2020-09-23 00:59:44 GMT 41.982899 -87.903130 0 93 24
2020-09-23 00:59:41 GMT 41.982910 -87.903641 0 86 24
2020-09-23 00:59:38 GMT 41.982880 -87.904083 0 90 26
2020-09-23 00:59:35 GMT 41.982880 -87.904549 0 93 23
2020-09-23 00:59:32 GMT 41.982910 -87.904968 0 89 24
2020-09-23 00:59:29 GMT 41.982891 -87.905434 0 85 23
2020-09-23 00:59:26 GMT 41.982899 -87.905838 0 82 24
2020-09-23 00:59:23 GMT 41.982891 -87.906250 0 83 23
2020-09-23 00:59:20 GMT 41.982849 -87.906670 0 80 20
2020-09-23 00:59:17 GMT 41.982819 -87.907082 0 81 22
2020-09-23 00:59:14 GMT 41.982780 -87.907494 0 75 20
2020-09-23 00:59:11 GMT 41.982712 -87.907829 0 75 19
2020-09-23 00:59:08 GMT 41.982639 -87.908180 0 70 21
2020-09-23 00:59:05 GMT 41.982552 -87.908539 0 69 18
2020-09-23 00:59:02 GMT 41.982460 -87.908867 0 59 17
2020-09-23 00:58:59 GMT 41.982361 -87.909142 0 58 19
2020-09-23 00:58:56 GMT 41.982201 -87.909447 0 58 17
2020-09-23 00:58:53 GMT 41.982128 -87.909729 0 59 15
2020-09-23 00:58:50 GMT 41.982021 -87.909981 0 59 13
2020-09-23 00:58:47 GMT 41.981930 -87.910210 0 51 13
2020-09-23 00:58:44 GMT 41.981819 -87.910400 0 52 13
2020-09-23 00:58:41 GMT 41.981731 -87.910568 0 53 11
2020-09-23 00:58:38 GMT 41.981621 -87.910759 0 42 12
2020-09-23 00:58:35 GMT 41.981522 -87.910927 0 37 10
2020-09-23 00:58:32 GMT 41.981411 -87.911041 0 41 9
2020-09-23 00:58:29 GMT 41.981312 -87.911171 0 16 9
2020-09-23 00:58:26 GMT 41.981190 -87.911232 0 357 10
2020-09-23 00:58:23 GMT 41.981060 -87.911278 0 344 8
2020-09-23 00:58:20 GMT 41.980961 -87.911232 0 351 8
2020-09-23 00:58:17 GMT 41.980869 -87.911209 0 346 6
2020-09-23 00:58:14 GMT 41.980782 -87.911171 0 349 5
2020-09-23 00:58:11 GMT 41.980701 -87.911118 0 354 5
2020-09-23 00:58:08 GMT 41.980629 -87.911087 0 359 4
2020-09-23 00:58:05 GMT 41.980560 -87.911072 0 0 4
2020-09-23 00:58:02 GMT 41.980438 -87.911057 0 3 1
2020-09-23 00:57:59 GMT 41.980431 -87.911072 0 3 1
2020-09-23 00:57:49 GMT 41.980412 -87.911087 0 0 0
2020-09-23 00:57:42 GMT 41.980400 -87.911087 0 1 1
2020-09-23 00:57:39 GMT 41.980412 -87.911102 0 1 1
2020-09-23 00:57:32 GMT 41.980431 -87.911110 0 1 1
2020-09-23 00:57:29 GMT 41.980438 -87.911118 0 1 1
2020-09-23 00:57:19 GMT 41.980450 -87.911140 0 19 0
2020-09-23 00:57:09 GMT 41.980450 -87.911140 0 357 1
2020-09-23 00:56:49 GMT 41.980480 -87.911140 0 0 1
2020-09-23 00:56:42 GMT 41.980450 -87.911148 0 357 0
2020-09-23 00:56:39 GMT 41.980453 -87.911118 0 19 0
2020-09-23 00:56:29 GMT 41.980438 -87.911118 0 22 0
2020-09-23 00:56:26 GMT 41.980434 -87.911110 0 17 0
2020-09-23 00:56:22 GMT 41.980431 -87.911118 0 12 0
2020-09-23 00:56:18 GMT 41.980438 -87.911118 0 9 0
2020-09-23 00:56:15 GMT 41.980431 -87.911118 0 7 0
2020-09-23 00:56:11 GMT 41.980438 -87.911118 0 0 0
2020-09-23 00:56:08 GMT 41.980438 -87.911133 0 0 0
2020-09-23 00:56:05 GMT 41.980438 -87.911133 0 0 0
2020-09-23 00:55:57 GMT 41.980450 -87.911140 0 0 0
2020-09-23 00:55:50 GMT 41.980461 -87.911148 0 358 1
2020-09-23 00:55:47 GMT 41.980461 -87.911140 0 358 1
2020-09-23 00:55:41 GMT 41.980446 -87.911110 0 19 0
2020-09-23 00:55:37 GMT 41.980431 -87.911118 0 0 0
2020-09-23 00:55:31 GMT 41.980450 -87.911118 0 0 0
2020-09-23 00:55:28 GMT 41.980438 -87.911118 0 0 0
2020-09-23 00:55:21 GMT 41.980419 -87.911133 0 355 1
2020-09-23 00:55:18 GMT 41.980419 -87.911118 0 355 1
2020-09-23 00:55:12 GMT 41.980412 -87.911110 0 19 0
2020-09-23 00:55:08 GMT 41.980389 -87.911087 0 0 0
2020-09-23 00:55:01 GMT 41.980381 -87.911079 0 3 1
2020-09-23 00:54:58 GMT 41.980389 -87.911087 0 3 1
2020-09-23 00:54:51 GMT 41.980400 -87.911118 0 357 1
2020-09-23 00:54:48 GMT 41.980412 -87.911118 0 357 1
2020-09-23 00:54:38 GMT 41.980423 -87.911110 0 17 0
2020-09-23 00:54:35 GMT 41.980438 -87.911079 0 22 0
2020-09-23 00:54:32 GMT 41.980438 -87.911079 0 25 0
2020-09-23 00:54:24 GMT 41.980438 -87.911079 0 22 0
2020-09-23 00:54:21 GMT 41.980450 -87.911102 0 18 0
2020-09-23 00:54:18 GMT 41.980450 -87.911102 0 15 0
2020-09-23 00:54:11 GMT 41.980461 -87.911102 0 6 0
2020-09-23 00:54:08 GMT 41.980461 -87.911110 0 5 0
2020-09-23 00:54:05 GMT 41.980469 -87.911118 0 5 0
2020-09-23 00:54:02 GMT 41.980480 -87.911118 0 3 0
2020-09-23 00:53:59 GMT 41.980473 -87.911110 0 0 0
2020-09-23 00:53:54 GMT 41.980480 -87.911118 0 0 1
2020-09-23 00:53:51 GMT 41.980450 -87.911133 0 0 1
2020-09-23 00:53:48 GMT 41.980450 -87.911118 0 357 0
2020-09-23 00:53:41 GMT 41.980461 -87.911087 0 0 0
2020-09-23 00:53:38 GMT 41.980450 -87.911087 0 0 0
2020-09-23 00:53:31 GMT 41.980431 -87.911087 0 1 0
2020-09-23 00:53:28 GMT 41.980431 -87.911102 0 1 0
2020-09-23 00:53:21 GMT 41.980438 -87.911118 0 357 1
2020-09-23 00:53:18 GMT 41.980431 -87.911118 0 357 1
2020-09-23 00:53:08 GMT 41.980412 -87.911087 0 0 0
2020-09-23 00:53:01 GMT 41.980400 -87.911079 0 3 1
2020-09-23 00:52:58 GMT 41.980412 -87.911087 0 3 1
2020-09-23 00:52:51 GMT 41.980431 -87.911110 0 1 0
2020-09-23 00:52:48 GMT 41.980431 -87.911133 0 19 0
2020-09-23 00:52:38 GMT 41.980431 -87.911140 0 0 0
2020-09-23 00:52:08 GMT 41.980431 -87.911140 0 0 0
2020-09-23 00:52:01 GMT 41.980438 -87.911148 0 355 1
2020-09-23 00:51:58 GMT 41.980431 -87.911148 0 355 1
2020-09-23 00:51:51 GMT 41.980419 -87.911118 0 0 1
2020-09-23 00:51:48 GMT 41.980412 -87.911118 0 0 1
2020-09-23 00:51:43 GMT 41.980389 -87.911133 0 19 0
2020-09-23 00:51:37 GMT 41.980389 -87.911118 0 157 0
2020-09-23 00:51:34 GMT 41.980381 -87.911118 0 157 0
2020-09-23 00:51:23 GMT 41.980389 -87.911118 0 164 0
2020-09-23 00:51:20 GMT 41.980389 -87.911133 0 167 0
2020-09-23 00:51:17 GMT 41.980381 -87.911140 0 168 0
2020-09-23 00:51:14 GMT 41.980389 -87.911133 0 168 2
2020-09-23 00:51:11 GMT 41.980358 -87.911133 0 168 3
2020-09-23 00:51:08 GMT 41.980492 -87.911163 0 168 5
2020-09-23 00:51:05 GMT 41.980480 -87.911163 0 0 0
2020-09-23 00:50:55 GMT 41.980450 -87.911163 0 0 0
2020-09-23 00:50:45 GMT 41.980450 -87.911171 0 355 0
2020-09-23 00:50:38 GMT 41.980446 -87.911163 0 19 0
2020-09-23 00:50:35 GMT 41.980450 -87.911140 0 0 0
2020-09-23 00:50:28 GMT 41.980450 -87.911133 0 1 0
2020-09-23 00:50:25 GMT 41.980450 -87.911140 0 1 0
2020-09-23 00:50:19 GMT 41.980457 -87.911163 0 19 0
2020-09-23 00:50:15 GMT 41.980450 -87.911163 0 357 1
2020-09-23 00:50:07 GMT 41.980480 -87.911171 0 355 1
2020-09-23 00:50:04 GMT 41.980469 -87.911171 0 355 1
2020-09-23 00:49:54 GMT 41.980461 -87.911140 0 0 0
2020-09-23 00:49:45 GMT 41.980431 -87.911140 0 0 0
2020-09-23 00:49:38 GMT 41.980434 -87.911133 0 0 0
2020-09-23 00:49:22 GMT 41.980431 -87.911140 0 346 0
2020-09-23 00:49:19 GMT 41.980434 -87.911133 0 345 0
2020-09-23 00:49:10 GMT 41.980431 -87.911140 0 341 0
2020-09-23 00:49:07 GMT 41.980431 -87.911148 0 341 1
2020-09-23 00:49:04 GMT 41.980438 -87.911140 0 345 2
2020-09-23 00:49:01 GMT 41.980461 -87.911118 0 349 2
2020-09-23 00:48:58 GMT 41.980480 -87.911102 0 351 2
2020-09-23 00:48:55 GMT 41.980492 -87.911057 0 352 2
2020-09-23 00:48:52 GMT 41.980492 -87.911034 0 353 2
2020-09-23 00:48:49 GMT 41.980480 -87.911003 0 357 3
2020-09-23 00:48:46 GMT 41.980461 -87.910973 0 358 3

Making use of Plane Finder data

You are free to use the raw flight data, aircraft information and images provided in this report for your own purposes provided the data is correctly attributed to Plane Finder. We ask that you please credit Plane Finder and link to planefinder.net in close proximity to the content.

Optionally one of the following logos (no smaller then 150x24px) can be used and must link to planefinder.net

Embedding the Plane Finder map

You are welcome to embed the Plane Finder playback map on your website to offer visitors a more interactive experience. We suggest using the following HTML code:

<iframe src="//planefinder.net/data/report/UA442-N466UA-7700-squawk-2020-09-23/map" width="800" height="600" seamless="seamless"></iframe>

Where our data comes from

Plane Finder has a global network of data feeds and antenna radars that receive data broadcast directly from aircraft. The primary technologies used are ADS-B and MLAT. We also show feeds from the FAA and a FLARM glider feed.

Click here to find out more about the Plane Finder network.

How we collect our data